<?xml version="1.0" encoding="UTF-8" standalone="no" ?>
<gpx xmlns="http://www.topografix.com/GPX/1/1" xmlns:gpxtpx="http://www.garmin.com/xmlschemas/TrackPointExtension/v1" creator="OruxMaps v.7.4.22" version="1.1" xmlns:xsi="http://www.w3.org/2001/XMLSchema-instance" xsi:schemaLocation="http://www.topografix.com/GPX/1/1 http://www.topografix.com/GPX/1/1/gpx.xsd">
<metadata>
<name><![CDATA[2020-09-06 09:33]]></name>
<link href="https://www.oruxmaps.com">
<text>OruxMaps</text>
</link>
<time>2020-09-06T07:33:27Z</time><bounds maxlat="48.8840601" maxlon="2.9343186" minlat="48.7991492" minlon="2.8437334"/>
</metadata>
<wpt lat="48.8732691" lon="2.8437334">
<ele>88.95</ele>
<time>2020-09-06T07:33:28Z</time>
<name><![CDATA[0000034]]></name>
<sym>Waypoint</sym>
<type>Point de départ</type>
<extensions>
<om:oruxmapsextensions xmlns:om="http://www.oruxmaps.com/oruxmapsextensions/1/0">
<om:ext type="ICON" subtype="0">38</om:ext>
</om:oruxmapsextensions>
</extensions>
</wpt>
<wpt lat="48.8732483" lon="2.8438387">
<ele>89.50</ele>
<time>2020-09-06T11:14:59Z</time>
<name><![CDATA[0000035]]></name>
<desc><![CDATA[<p><br /><h3>Nom: Segment: 1</h3><br />Heure de départ: 09:33 6 sept. 2020<br/>Heure d'arrivée: 13:12 6 sept. 2020<br/>Distance: 38,9km (03:39)<br/>Temps déplacement: 02:44<br/>Vitesse moyenne: 10,64 km/h<br/>Vitesse moyenne mouv.: 13,99 km/h<br/>Vitesse Max.: 37,55 km/h<br/>Altitude minimale: 45 m<br/>Altitude maximale: 131 m<br/>Vitesse de montée: 349 m/h<br/>Vitesse de descente: -485,1 m/h<br/>Gain d'altitude: 728 m<br/>Perte d'altitude: -727 m<br/>Temps de montée: 02:05<br/>Temps de descente: 01:30<br/></p>]]></desc>
<sym>Waypoint</sym>
<type>Point d'arrivée</type>
<extensions>
<om:oruxmapsextensions xmlns:om="http://www.oruxmaps.com/oruxmapsextensions/1/0">
<om:ext type="ICON" subtype="0">15</om:ext>
</om:oruxmapsextensions>
</extensions>
</wpt>
<trk>
<name><![CDATA[2020-09-06 09:33]]></name>
<desc><![CDATA[<p>Heure de départ: 09:33 6 sept. 2020<br/>Heure d'arrivée: 13:12 6 sept. 2020<br/>Distance: 38,9 km (03:39)<br/>Temps déplacement: 02:44<br/>Vitesse moyenne: 10,64 km/h<br/>Vitesse moyenne mouv.: 14,17 km/h<br/>Vitesse Max.: 37,55 km/h<br/>Altitude minimale: 45 m<br/>Altitude maximale: 131 m<br/>Vitesse de montée: 284,8 m/h<br/>Vitesse de descente: -430,6 m/h<br/>Gain d'altitude: 613 m<br/>Perte d'altitude: -610 m<br/>Temps de montée: 02:09<br/>Temps de descente: 01:25<br/></p><hr align="center" width="480" style="height: 2px; width: 517px"/>]]></desc>
<type>VTT</type>
<extensions>
<om:oruxmapsextensions xmlns:om="http://www.oruxmaps.com/oruxmapsextensions/1/0">
<om:ext type="TYPE" subtype="0">6</om:ext>
<om:ext type="DIFFICULTY">0</om:ext>
</om:oruxmapsextensions>
</extensions>
<trkseg>
<trkpt lat="48.8732691" lon="2.8437334">
<ele>88.95</ele>
<time>2020-09-06T07:33:28Z</time>
</trkpt>
<trkpt lat="48.8731568" lon="2.8439874">
<ele>85.64</ele>
<time>2020-09-06T07:34:58Z</time>
</trkpt>
<trkpt lat="48.8730518" lon="2.8442270">
<ele>88.44</ele>
<time>2020-09-06T07:35:08Z</time>
</trkpt>
<trkpt lat="48.8729569" lon="2.8444913">
<ele>89.10</ele>
<time>2020-09-06T07:35:17Z</time>
</trkpt>
<trkpt lat="48.8728639" lon="2.8447328">
<ele>90.36</ele>
<time>2020-09-06T07:35:25Z</time>
</trkpt>
<trkpt lat="48.8727616" lon="2.8450076">
<ele>91.60</ele>
<time>2020-09-06T07:35:34Z</time>
</trkpt>
<trkpt lat="48.8726777" lon="2.8452597">
<ele>91.83</ele>
<time>2020-09-06T07:35:41Z</time>
</trkpt>
<trkpt lat="48.8726082" lon="2.8455154">
<ele>93.69</ele>
<time>2020-09-06T07:35:48Z</time>
</trkpt>
<trkpt lat="48.8725683" lon="2.8458212">
<ele>93.72</ele>
<time>2020-09-06T07:35:56Z</time>
</trkpt>
<trkpt lat="48.8725337" lon="2.8461173">
<ele>93.50</ele>
<time>2020-09-06T07:36:03Z</time>
</trkpt>
<trkpt lat="48.8724876" lon="2.8464013">
<ele>93.84</ele>
<time>2020-09-06T07:36:10Z</time>
</trkpt>
<trkpt lat="48.8724572" lon="2.8466980">
<ele>91.68</ele>
<time>2020-09-06T07:36:18Z</time>
</trkpt>
<trkpt lat="48.8724813" lon="2.8470046">
<ele>90.45</ele>
<time>2020-09-06T07:36:24Z</time>
</trkpt>
<trkpt lat="48.8725113" lon="2.8472876">
<ele>92.63</ele>
<time>2020-09-06T07:36:31Z</time>
</trkpt>
<trkpt lat="48.8724923" lon="2.8475615">
<ele>92.99</ele>
<time>2020-09-06T07:36:37Z</time>
</trkpt>
<trkpt lat="48.8724391" lon="2.8478493">
<ele>93.27</ele>
<time>2020-09-06T07:36:44Z</time>
</trkpt>
<trkpt lat="48.8723915" lon="2.8481446">
<ele>93.18</ele>
<time>2020-09-06T07:36:51Z</time>
</trkpt>
<trkpt lat="48.8723476" lon="2.8484412">
<ele>93.21</ele>
<time>2020-09-06T07:36:58Z</time>
</trkpt>
<trkpt lat="48.8722989" lon="2.8487511">
<ele>93.11</ele>
<time>2020-09-06T07:37:05Z</time>
</trkpt>
<trkpt lat="48.8722496" lon="2.8490566">
<ele>93.12</ele>
<time>2020-09-06T07:37:12Z</time>
</trkpt>
<trkpt lat="48.8721935" lon="2.8493620">
<ele>94.04</ele>
<time>2020-09-06T07:37:19Z</time>
</trkpt>
<trkpt lat="48.8721501" lon="2.8496599">
<ele>95.39</ele>
<time>2020-09-06T07:37:26Z</time>
</trkpt>
<trkpt lat="48.8721048" lon="2.8499402">
<ele>96.52</ele>
<time>2020-09-06T07:37:33Z</time>
</trkpt>
<trkpt lat="48.8720604" lon="2.8502368">
<ele>98.06</ele>
<time>2020-09-06T07:37:40Z</time>
</trkpt>
<trkpt lat="48.8720114" lon="2.8505225">
<ele>98.00</ele>
<time>2020-09-06T07:37:47Z</time>
</trkpt>
<trkpt lat="48.8719461" lon="2.8508073">
<ele>98.45</ele>
<time>2020-09-06T07:37:54Z</time>
</trkpt>
<trkpt lat="48.8718876" lon="2.8510964">
<ele>99.57</ele>
<time>2020-09-06T07:38:01Z</time>
</trkpt>
<trkpt lat="48.8718239" lon="2.8513861">
<ele>99.69</ele>
<time>2020-09-06T07:38:08Z</time>
</trkpt>
<trkpt lat="48.8717641" lon="2.8516931">
<ele>100.60</ele>
<time>2020-09-06T07:38:15Z</time>
</trkpt>
<trkpt lat="48.8717020" lon="2.8519929">
<ele>101.39</ele>
<time>2020-09-06T07:38:22Z</time>
</trkpt>
<trkpt lat="48.8716441" lon="2.8522559">
<ele>100.68</ele>
<time>2020-09-06T07:38:28Z</time>
</trkpt>
<trkpt lat="48.8715891" lon="2.8525183">
<ele>100.51</ele>
<time>2020-09-06T07:38:34Z</time>
</trkpt>
<trkpt lat="48.8715170" lon="2.8528115">
<ele>99.53</ele>
<time>2020-09-06T07:38:41Z</time>
</trkpt>
<trkpt lat="48.8714452" lon="2.8530830">
<ele>98.32</ele>
<time>2020-09-06T07:38:46Z</time>
</trkpt>
<trkpt lat="48.8712871" lon="2.8532598">
<ele>98.49</ele>
<time>2020-09-06T07:38:54Z</time>
</trkpt>
<trkpt lat="48.8711089" lon="2.8533039">
<ele>98.99</ele>
<time>2020-09-06T07:39:00Z</time>
</trkpt>
<trkpt lat="48.8709051" lon="2.8533458">
<ele>99.65</ele>
<time>2020-09-06T07:39:05Z</time>
</trkpt>
<trkpt lat="48.8707101" lon="2.8534112">
<ele>99.39</ele>
<time>2020-09-06T07:39:11Z</time>
</trkpt>
<trkpt lat="48.8705114" lon="2.8535002">
<ele>100.91</ele>
<time>2020-09-06T07:39:18Z</time>
</trkpt>
<trkpt lat="48.8703150" lon="2.8535292">
<ele>101.37</ele>
<time>2020-09-06T07:39:24Z</time>
</trkpt>
<trkpt lat="48.8701186" lon="2.8535845">
<ele>101.70</ele>
<time>2020-09-06T07:39:30Z</time>
</trkpt>
<trkpt lat="48.8699226" lon="2.8536500">
<ele>102.94</ele>
<time>2020-09-06T07:39:36Z</time>
</trkpt>
<trkpt lat="48.8697377" lon="2.8536914">
<ele>103.41</ele>
<time>2020-09-06T07:39:41Z</time>
</trkpt>
<trkpt lat="48.8695578" lon="2.8537370">
<ele>103.62</ele>
<time>2020-09-06T07:39:45Z</time>
</trkpt>
<trkpt lat="48.8693531" lon="2.8537936">
<ele>103.60</ele>
<time>2020-09-06T07:39:50Z</time>
</trkpt>
<trkpt lat="48.8691658" lon="2.8538668">
<ele>104.76</ele>
<time>2020-09-06T07:39:55Z</time>
</trkpt>
<trkpt lat="48.8689759" lon="2.8539095">
<ele>105.98</ele>
<time>2020-09-06T07:40:01Z</time>
</trkpt>
<trkpt lat="48.8687678" lon="2.8539720">
<ele>107.22</ele>
<time>2020-09-06T07:40:07Z</time>
</trkpt>
<trkpt lat="48.8685861" lon="2.8540200">
<ele>108.42</ele>
<time>2020-09-06T07:40:12Z</time>
</trkpt>
<trkpt lat="48.8683803" lon="2.8540745">
<ele>108.16</ele>
<time>2020-09-06T07:40:18Z</time>
</trkpt>
<trkpt lat="48.8681753" lon="2.8541428">
<ele>108.31</ele>
<time>2020-09-06T07:40:24Z</time>
</trkpt>
<trkpt lat="48.8679721" lon="2.8542026">
<ele>108.34</ele>
<time>2020-09-06T07:40:30Z</time>
</trkpt>
<trkpt lat="48.8677739" lon="2.8542682">
<ele>109.28</ele>
<time>2020-09-06T07:40:36Z</time>
</trkpt>
<trkpt lat="48.8675799" lon="2.8543235">
<ele>109.45</ele>
<time>2020-09-06T07:40:42Z</time>
</trkpt>
<trkpt lat="48.8673838" lon="2.8543744">
<ele>109.51</ele>
<time>2020-09-06T07:40:48Z</time>
</trkpt>
<trkpt lat="48.8671858" lon="2.8544231">
<ele>109.72</ele>
<time>2020-09-06T07:40:54Z</time>
</trkpt>
<trkpt lat="48.8669944" lon="2.8544683">
<ele>109.84</ele>
<time>2020-09-06T07:41:00Z</time>
</trkpt>
<trkpt lat="48.8668075" lon="2.8545230">
<ele>110.41</ele>
<time>2020-09-06T07:41:06Z</time>
</trkpt>
<trkpt lat="48.8666258" lon="2.8545926">
<ele>111.31</ele>
<time>2020-09-06T07:41:12Z</time>
</trkpt>
<trkpt lat="48.8664329" lon="2.8546564">
<ele>111.22</ele>
<time>2020-09-06T07:41:19Z</time>
</trkpt>
<trkpt lat="48.8662477" lon="2.8547574">
<ele>111.91</ele>
<time>2020-09-06T07:41:25Z</time>
</trkpt>
<trkpt lat="48.8660525" lon="2.8548211">
<ele>113.23</ele>
<time>2020-09-06T07:41:31Z</time>
</trkpt>
<trkpt lat="48.8658912" lon="2.8549501">
<ele>114.29</ele>
<time>2020-09-06T07:41:38Z</time>
</trkpt>
<trkpt lat="48.8658130" lon="2.8552092">
<ele>114.81</ele>
<time>2020-09-06T07:41:49Z</time>
</trkpt>
<trkpt lat="48.8657691" lon="2.8554766">
<ele>116.09</ele>
<time>2020-09-06T07:41:57Z</time>
</trkpt>
<trkpt lat="48.8657380" lon="2.8557901">
<ele>116.20</ele>
<time>2020-09-06T07:42:04Z</time>
</trkpt>
<trkpt lat="48.8656878" lon="2.8560572">
<ele>116.41</ele>
<time>2020-09-06T07:42:10Z</time>
</trkpt>
<trkpt lat="48.8656202" lon="2.8563234">
<ele>117.00</ele>
<time>2020-09-06T07:42:17Z</time>
</trkpt>
<trkpt lat="48.8655568" lon="2.8565798">
<ele>116.77</ele>
<time>2020-09-06T07:42:25Z</time>
</trkpt>
<trkpt lat="48.8654797" lon="2.8568840">
<ele>116.51</ele>
<time>2020-09-06T07:42:31Z</time>
</trkpt>
<trkpt lat="48.8653998" lon="2.8571429">
<ele>117.28</ele>
<time>2020-09-06T07:42:36Z</time>
</trkpt>
<trkpt lat="48.8652852" lon="2.8573549">
<ele>119.18</ele>
<time>2020-09-06T07:42:42Z</time>
</trkpt>
<trkpt lat="48.8651519" lon="2.8576015">
<ele>118.11</ele>
<time>2020-09-06T07:42:50Z</time>
</trkpt>
<trkpt lat="48.8650222" lon="2.8578032">
<ele>119.14</ele>
<time>2020-09-06T07:42:56Z</time>
</trkpt>
<trkpt lat="48.8648929" lon="2.8580144">
<ele>120.26</ele>
<time>2020-09-06T07:43:03Z</time>
</trkpt>
<trkpt lat="48.8647723" lon="2.8582370">
<ele>120.26</ele>
<time>2020-09-06T07:43:09Z</time>
</trkpt>
<trkpt lat="48.8646214" lon="2.8584479">
<ele>118.60</ele>
<time>2020-09-06T07:43:15Z</time>
</trkpt>
<trkpt lat="48.8644634" lon="2.8586641">
<ele>117.79</ele>
<time>2020-09-06T07:43:21Z</time>
</trkpt>
<trkpt lat="48.8643358" lon="2.8588676">
<ele>118.32</ele>
<time>2020-09-06T07:43:28Z</time>
</trkpt>
<trkpt lat="48.8642097" lon="2.8590762">
<ele>120.89</ele>
<time>2020-09-06T07:43:33Z</time>
</trkpt>
<trkpt lat="48.8640298" lon="2.8591758">
<ele>119.41</ele>
<time>2020-09-06T07:43:39Z</time>
</trkpt>
<trkpt lat="48.8639051" lon="2.8589436">
<ele>121.64</ele>
<time>2020-09-06T07:43:46Z</time>
</trkpt>
<trkpt lat="48.8637851" lon="2.8587344">
<ele>119.38</ele>
<time>2020-09-06T07:43:53Z</time>
</trkpt>
<trkpt lat="48.8636598" lon="2.8585021">
<ele>120.40</ele>
<time>2020-09-06T07:44:01Z</time>
</trkpt>
<trkpt lat="48.8634720" lon="2.8585741">
<ele>120.15</ele>
<time>2020-09-06T07:44:08Z</time>
</trkpt>
<trkpt lat="48.8633295" lon="2.8587424">
<ele>120.86</ele>
<time>2020-09-06T07:44:14Z</time>
</trkpt>
<trkpt lat="48.8631641" lon="2.8589044">
<ele>120.65</ele>
<time>2020-09-06T07:44:20Z</time>
</trkpt>
<trkpt lat="48.8630079" lon="2.8590653">
<ele>120.44</ele>
<time>2020-09-06T07:44:25Z</time>
</trkpt>
<trkpt lat="48.8628080" lon="2.8592493">
<ele>123.78</ele>
<time>2020-09-06T07:44:30Z</time>
</trkpt>
<trkpt lat="48.8626355" lon="2.8594453">
<ele>121.80</ele>
<time>2020-09-06T07:44:35Z</time>
</trkpt>
<trkpt lat="48.8624640" lon="2.8596615">
<ele>122.64</ele>
<time>2020-09-06T07:44:39Z</time>
</trkpt>
<trkpt lat="48.8623108" lon="2.8598646">
<ele>122.41</ele>
<time>2020-09-06T07:44:43Z</time>
</trkpt>
<trkpt lat="48.8622343" lon="2.8601458">
<ele>122.49</ele>
<time>2020-09-06T07:44:48Z</time>
</trkpt>
<trkpt lat="48.8620524" lon="2.8603723">
<ele>120.67</ele>
<time>2020-09-06T07:44:54Z</time>
</trkpt>
<trkpt lat="48.8618889" lon="2.8605392">
<ele>119.19</ele>
<time>2020-09-06T07:44:59Z</time>
</trkpt>
<trkpt lat="48.8617208" lon="2.8606430">
<ele>119.82</ele>
<time>2020-09-06T07:45:05Z</time>
</trkpt>
<trkpt lat="48.8615708" lon="2.8604881">
<ele>117.27</ele>
<time>2020-09-06T07:45:13Z</time>
</trkpt>
<trkpt lat="48.8614070" lon="2.8606772">
<ele>114.12</ele>
<time>2020-09-06T07:45:18Z</time>
</trkpt>
<trkpt lat="48.8612678" lon="2.8609292">
<ele>113.49</ele>
<time>2020-09-06T07:45:22Z</time>
</trkpt>
<trkpt lat="48.8611858" lon="2.8611984">
<ele>113.82</ele>
<time>2020-09-06T07:45:26Z</time>
</trkpt>
<trkpt lat="48.8610783" lon="2.8614558">
<ele>114.58</ele>
<time>2020-09-06T07:45:30Z</time>
</trkpt>
<trkpt lat="48.8610004" lon="2.8617380">
<ele>114.70</ele>
<time>2020-09-06T07:45:35Z</time>
</trkpt>
<trkpt lat="48.8608991" lon="2.8620266">
<ele>114.05</ele>
<time>2020-09-06T07:45:40Z</time>
</trkpt>
<trkpt lat="48.8607604" lon="2.8622642">
<ele>116.34</ele>
<time>2020-09-06T07:45:47Z</time>
</trkpt>
<trkpt lat="48.8606362" lon="2.8625116">
<ele>117.07</ele>
<time>2020-09-06T07:45:52Z</time>
</trkpt>
<trkpt lat="48.8605561" lon="2.8627637">
<ele>117.92</ele>
<time>2020-09-06T07:45:57Z</time>
</trkpt>
<trkpt lat="48.8603662" lon="2.8627969">
<ele>115.14</ele>
<time>2020-09-06T07:46:03Z</time>
</trkpt>
<trkpt lat="48.8602049" lon="2.8626172">
<ele>113.13</ele>
<time>2020-09-06T07:46:09Z</time>
</trkpt>
<trkpt lat="48.8600538" lon="2.8624512">
<ele>112.72</ele>
<time>2020-09-06T07:46:15Z</time>
</trkpt>
<trkpt lat="48.8599087" lon="2.8622863">
<ele>115.22</ele>
<time>2020-09-06T07:46:22Z</time>
</trkpt>
<trkpt lat="48.8597441" lon="2.8624209">
<ele>115.30</ele>
<time>2020-09-06T07:46:31Z</time>
</trkpt>
<trkpt lat="48.8596340" lon="2.8626538">
<ele>117.37</ele>
<time>2020-09-06T07:46:36Z</time>
</trkpt>
<trkpt lat="48.8595185" lon="2.8629006">
<ele>115.82</ele>
<time>2020-09-06T07:46:41Z</time>
</trkpt>
<trkpt lat="48.8593455" lon="2.8630206">
<ele>110.00</ele>
<time>2020-09-06T07:46:50Z</time>
</trkpt>
<trkpt lat="48.8591925" lon="2.8628589">
<ele>109.95</ele>
<time>2020-09-06T07:46:57Z</time>
</trkpt>
<trkpt lat="48.8590185" lon="2.8627510">
<ele>111.35</ele>
<time>2020-09-06T07:47:08Z</time>
</trkpt>
<trkpt lat="48.8588463" lon="2.8626644">
<ele>113.15</ele>
<time>2020-09-06T07:47:15Z</time>
</trkpt>
<trkpt lat="48.8586664" lon="2.8625350">
<ele>115.62</ele>
<time>2020-09-06T07:47:23Z</time>
</trkpt>
<trkpt lat="48.8584862" lon="2.8624203">
<ele>115.83</ele>
<time>2020-09-06T07:47:31Z</time>
</trkpt>
<trkpt lat="48.8583258" lon="2.8622592">
<ele>115.95</ele>
<time>2020-09-06T07:47:37Z</time>
</trkpt>
<trkpt lat="48.8581701" lon="2.8620917">
<ele>116.41</ele>
<time>2020-09-06T07:47:43Z</time>
</trkpt>
<trkpt lat="48.8580112" lon="2.8619374">
<ele>117.28</ele>
<time>2020-09-06T07:47:49Z</time>
</trkpt>
<trkpt lat="48.8578543" lon="2.8617688">
<ele>117.30</ele>
<time>2020-09-06T07:47:57Z</time>
</trkpt>
<trkpt lat="48.8576699" lon="2.8615825">
<ele>119.61</ele>
<time>2020-09-06T07:48:03Z</time>
</trkpt>
<trkpt lat="48.8575165" lon="2.8614262">
<ele>121.09</ele>
<time>2020-09-06T07:48:09Z</time>
</trkpt>
<trkpt lat="48.8573638" lon="2.8612269">
<ele>121.73</ele>
<time>2020-09-06T07:48:16Z</time>
</trkpt>
<trkpt lat="48.8571956" lon="2.8613355">
<ele>120.12</ele>
<time>2020-09-06T07:48:23Z</time>
</trkpt>
<trkpt lat="48.8570539" lon="2.8615807">
<ele>121.07</ele>
<time>2020-09-06T07:48:29Z</time>
</trkpt>
<trkpt lat="48.8569313" lon="2.8618172">
<ele>119.86</ele>
<time>2020-09-06T07:48:35Z</time>
</trkpt>
<trkpt lat="48.8567862" lon="2.8620366">
<ele>119.84</ele>
<time>2020-09-06T07:48:41Z</time>
</trkpt>
<trkpt lat="48.8566452" lon="2.8622156">
<ele>119.07</ele>
<time>2020-09-06T07:48:46Z</time>
</trkpt>
<trkpt lat="48.8564806" lon="2.8624241">
<ele>119.56</ele>
<time>2020-09-06T07:48:52Z</time>
</trkpt>
<trkpt lat="48.8563419" lon="2.8626126">
<ele>119.35</ele>
<time>2020-09-06T07:48:58Z</time>
</trkpt>
<trkpt lat="48.8562293" lon="2.8628314">
<ele>119.39</ele>
<time>2020-09-06T07:49:09Z</time>
</trkpt>
<trkpt lat="48.8561216" lon="2.8630728">
<ele>122.13</ele>
<time>2020-09-06T07:49:19Z</time>
</trkpt>
<trkpt lat="48.8560008" lon="2.8632869">
<ele>121.47</ele>
<time>2020-09-06T07:49:25Z</time>
</trkpt>
<trkpt lat="48.8559099" lon="2.8635390">
<ele>120.92</ele>
<time>2020-09-06T07:49:31Z</time>
</trkpt>
<trkpt lat="48.8558381" lon="2.8638149">
<ele>120.81</ele>
<time>2020-09-06T07:49:37Z</time>
</trkpt>
<trkpt lat="48.8558799" lon="2.8641193">
<ele>120.48</ele>
<time>2020-09-06T07:49:44Z</time>
</trkpt>
<trkpt lat="48.8559858" lon="2.8643643">
<ele>120.86</ele>
<time>2020-09-06T07:49:51Z</time>
</trkpt>
<trkpt lat="48.8560977" lon="2.8646204">
<ele>120.40</ele>
<time>2020-09-06T07:49:59Z</time>
</trkpt>
<trkpt lat="48.8562223" lon="2.8648256">
<ele>120.85</ele>
<time>2020-09-06T07:50:05Z</time>
</trkpt>
<trkpt lat="48.8563439" lon="2.8650737">
<ele>120.65</ele>
<time>2020-09-06T07:50:11Z</time>
</trkpt>
<trkpt lat="48.8564545" lon="2.8653177">
<ele>121.59</ele>
<time>2020-09-06T07:50:17Z</time>
</trkpt>
<trkpt lat="48.8564792" lon="2.8655939">
<ele>121.35</ele>
<time>2020-09-06T07:50:23Z</time>
</trkpt>
<trkpt lat="48.8564324" lon="2.8658717">
<ele>119.52</ele>
<time>2020-09-06T07:50:30Z</time>
</trkpt>
<trkpt lat="48.8563071" lon="2.8661039">
<ele>117.58</ele>
<time>2020-09-06T07:50:36Z</time>
</trkpt>
<trkpt lat="48.8562328" lon="2.8663636">
<ele>117.49</ele>
<time>2020-09-06T07:50:42Z</time>
</trkpt>
<trkpt lat="48.8561660" lon="2.8666250">
<ele>116.99</ele>
<time>2020-09-06T07:50:48Z</time>
</trkpt>
<trkpt lat="48.8560883" lon="2.8668724">
<ele>117.13</ele>
<time>2020-09-06T07:50:52Z</time>
</trkpt>
<trkpt lat="48.8560027" lon="2.8671728">
<ele>117.17</ele>
<time>2020-09-06T07:50:57Z</time>
</trkpt>
<trkpt lat="48.8559080" lon="2.8674848">
<ele>116.91</ele>
<time>2020-09-06T07:51:03Z</time>
</trkpt>
<trkpt lat="48.8558187" lon="2.8677922">
<ele>119.03</ele>
<time>2020-09-06T07:51:09Z</time>
</trkpt>
<trkpt lat="48.8557491" lon="2.8681088">
<ele>113.02</ele>
<time>2020-09-06T07:51:15Z</time>
</trkpt>
<trkpt lat="48.8556793" lon="2.8683658">
<ele>113.97</ele>
<time>2020-09-06T07:51:23Z</time>
</trkpt>
<trkpt lat="48.8555725" lon="2.8686196">
<ele>110.83</ele>
<time>2020-09-06T07:51:29Z</time>
</trkpt>
<trkpt lat="48.8555075" lon="2.8688868">
<ele>107.58</ele>
<time>2020-09-06T07:51:35Z</time>
</trkpt>
<trkpt lat="48.8554030" lon="2.8691239">
<ele>108.56</ele>
<time>2020-09-06T07:51:41Z</time>
</trkpt>
<trkpt lat="48.8553262" lon="2.8694026">
<ele>111.74</ele>
<time>2020-09-06T07:51:47Z</time>
</trkpt>
<trkpt lat="48.8552681" lon="2.8696775">
<ele>109.87</ele>
<time>2020-09-06T07:51:53Z</time>
</trkpt>
<trkpt lat="48.8551788" lon="2.8699813">
<ele>109.55</ele>
<time>2020-09-06T07:51:58Z</time>
</trkpt>
<trkpt lat="48.8551376" lon="2.8702905">
<ele>106.60</ele>
<time>2020-09-06T07:52:03Z</time>
</trkpt>
<trkpt lat="48.8552948" lon="2.8704555">
<ele>107.52</ele>
<time>2020-09-06T07:52:09Z</time>
</trkpt>
<trkpt lat="48.8554576" lon="2.8706226">
<ele>110.61</ele>
<time>2020-09-06T07:52:16Z</time>
</trkpt>
<trkpt lat="48.8556179" lon="2.8707785">
<ele>110.73</ele>
<time>2020-09-06T07:52:22Z</time>
</trkpt>
<trkpt lat="48.8557976" lon="2.8709222">
<ele>110.92</ele>
<time>2020-09-06T07:52:29Z</time>
</trkpt>
<trkpt lat="48.8559496" lon="2.8710887">
<ele>107.83</ele>
<time>2020-09-06T07:52:36Z</time>
</trkpt>
<trkpt lat="48.8561118" lon="2.8712669">
<ele>106.62</ele>
<time>2020-09-06T07:52:43Z</time>
</trkpt>
<trkpt lat="48.8562627" lon="2.8714591">
<ele>108.15</ele>
<time>2020-09-06T07:52:51Z</time>
</trkpt>
<trkpt lat="48.8564151" lon="2.8716318">
<ele>108.10</ele>
<time>2020-09-06T07:53:00Z</time>
</trkpt>
<trkpt lat="48.8565821" lon="2.8717923">
<ele>104.32</ele>
<time>2020-09-06T07:53:08Z</time>
</trkpt>
<trkpt lat="48.8567085" lon="2.8720081">
<ele>102.71</ele>
<time>2020-09-06T07:53:15Z</time>
</trkpt>
<trkpt lat="48.8568643" lon="2.8721948">
<ele>104.01</ele>
<time>2020-09-06T07:53:23Z</time>
</trkpt>
<trkpt lat="48.8570110" lon="2.8723891">
<ele>103.74</ele>
<time>2020-09-06T07:53:31Z</time>
</trkpt>
<trkpt lat="48.8571489" lon="2.8725852">
<ele>102.21</ele>
<time>2020-09-06T07:53:38Z</time>
</trkpt>
<trkpt lat="48.8573158" lon="2.8727221">
<ele>100.61</ele>
<time>2020-09-06T07:53:49Z</time>
</trkpt>
<trkpt lat="48.8574455" lon="2.8729314">
<ele>100.44</ele>
<time>2020-09-06T07:53:55Z</time>
</trkpt>
<trkpt lat="48.8575838" lon="2.8731372">
<ele>100.12</ele>
<time>2020-09-06T07:54:00Z</time>
</trkpt>
<trkpt lat="48.8577071" lon="2.8733409">
<ele>98.74</ele>
<time>2020-09-06T07:54:05Z</time>
</trkpt>
<trkpt lat="48.8578717" lon="2.8735700">
<ele>98.06</ele>
<time>2020-09-06T07:54:09Z</time>
</trkpt>
<trkpt lat="48.8580350" lon="2.8737489">
<ele>96.19</ele>
<time>2020-09-06T07:54:13Z</time>
</trkpt>
<trkpt lat="48.8582257" lon="2.8738527">
<ele>94.46</ele>
<time>2020-09-06T07:54:18Z</time>
</trkpt>
<trkpt lat="48.8584045" lon="2.8739545">
<ele>95.23</ele>
<time>2020-09-06T07:54:24Z</time>
</trkpt>
<trkpt lat="48.8583986" lon="2.8742514">
<ele>94.44</ele>
<time>2020-09-06T07:54:31Z</time>
</trkpt>
<trkpt lat="48.8582957" lon="2.8745412">
<ele>90.69</ele>
<time>2020-09-06T07:54:36Z</time>
</trkpt>
<trkpt lat="48.8581595" lon="2.8748099">
<ele>89.99</ele>
<time>2020-09-06T07:54:41Z</time>
</trkpt>
<trkpt lat="48.8580323" lon="2.8750493">
<ele>88.10</ele>
<time>2020-09-06T07:54:46Z</time>
</trkpt>
<trkpt lat="48.8579355" lon="2.8753114">
<ele>86.18</ele>
<time>2020-09-06T07:54:51Z</time>
</trkpt>
<trkpt lat="48.8578455" lon="2.8755547">
<ele>82.73</ele>
<time>2020-09-06T07:54:55Z</time>
</trkpt>
<trkpt lat="48.8577611" lon="2.8758280">
<ele>80.41</ele>
<time>2020-09-06T07:54:59Z</time>
</trkpt>
<trkpt lat="48.8576844" lon="2.8760797">
<ele>78.88</ele>
<time>2020-09-06T07:55:03Z</time>
</trkpt>
<trkpt lat="48.8578232" lon="2.8762705">
<ele>78.71</ele>
<time>2020-09-06T07:55:13Z</time>
</trkpt>
<trkpt lat="48.8580167" lon="2.8763580">
<ele>78.88</ele>
<time>2020-09-06T07:55:20Z</time>
</trkpt>
<trkpt lat="48.8581972" lon="2.8765041">
<ele>78.26</ele>
<time>2020-09-06T07:55:26Z</time>
</trkpt>
<trkpt lat="48.8583635" lon="2.8766818">
<ele>79.32</ele>
<time>2020-09-06T07:55:32Z</time>
</trkpt>
<trkpt lat="48.8585158" lon="2.8768537">
<ele>77.42</ele>
<time>2020-09-06T07:55:37Z</time>
</trkpt>
<trkpt lat="48.8586910" lon="2.8770531">
<ele>76.26</ele>
<time>2020-09-06T07:55:43Z</time>
</trkpt>
<trkpt lat="48.8588445" lon="2.8772106">
<ele>70.53</ele>
<time>2020-09-06T07:55:59Z</time>
</trkpt>
<trkpt lat="48.8590443" lon="2.8773815">
<ele>69.14</ele>
<time>2020-09-06T07:56:03Z</time>
</trkpt>
<trkpt lat="48.8592198" lon="2.8775315">
<ele>66.61</ele>
<time>2020-09-06T07:56:06Z</time>
</trkpt>
<trkpt lat="48.8593332" lon="2.8777439">
<ele>61.05</ele>
<time>2020-09-06T07:56:10Z</time>
</trkpt>
<trkpt lat="48.8594182" lon="2.8779926">
<ele>60.00</ele>
<time>2020-09-06T07:56:15Z</time>
</trkpt>
<trkpt lat="48.8594796" lon="2.8782939">
<ele>61.02</ele>
<time>2020-09-06T07:56:20Z</time>
</trkpt>
<trkpt lat="48.8596013" lon="2.8785448">
<ele>58.66</ele>
<time>2020-09-06T07:56:24Z</time>
</trkpt>
<trkpt lat="48.8597081" lon="2.8787977">
<ele>52.22</ele>
<time>2020-09-06T07:56:29Z</time>
</trkpt>
<trkpt lat="48.8598193" lon="2.8790525">
<ele>49.18</ele>
<time>2020-09-06T07:56:35Z</time>
</trkpt>
<trkpt lat="48.8596601" lon="2.8792130">
<ele>52.01</ele>
<time>2020-09-06T07:56:42Z</time>
</trkpt>
<trkpt lat="48.8596397" lon="2.8795077">
<ele>51.12</ele>
<time>2020-09-06T07:56:46Z</time>
</trkpt>
<trkpt lat="48.8595334" lon="2.8797420">
<ele>50.08</ele>
<time>2020-09-06T07:56:52Z</time>
</trkpt>
<trkpt lat="48.8593929" lon="2.8799246">
<ele>52.86</ele>
<time>2020-09-06T07:56:58Z</time>
</trkpt>
<trkpt lat="48.8593243" lon="2.8802239">
<ele>52.01</ele>
<time>2020-09-06T07:57:05Z</time>
</trkpt>
<trkpt lat="48.8593175" lon="2.8804998">
<ele>52.31</ele>
<time>2020-09-06T07:57:11Z</time>
</trkpt>
<trkpt lat="48.8594552" lon="2.8806957">
<ele>52.48</ele>
<time>2020-09-06T07:57:16Z</time>
</trkpt>
<trkpt lat="48.8596357" lon="2.8807839">
<ele>51.81</ele>
<time>2020-09-06T07:57:19Z</time>
</trkpt>
<trkpt lat="48.8596048" lon="2.8810691">
<ele>48.78</ele>
<time>2020-09-06T07:57:28Z</time>
</trkpt>
<trkpt lat="48.8594899" lon="2.8813057">
<ele>48.11</ele>
<time>2020-09-06T07:57:34Z</time>
</trkpt>
<trkpt lat="48.8593778" lon="2.8815652">
<ele>47.22</ele>
<time>2020-09-06T07:57:40Z</time>
</trkpt>
<trkpt lat="48.8592699" lon="2.8818285">
<ele>46.23</ele>
<time>2020-09-06T07:57:46Z</time>
</trkpt>
<trkpt lat="48.8591709" lon="2.8820934">
<ele>46.55</ele>
<time>2020-09-06T07:57:52Z</time>
</trkpt>
<trkpt lat="48.8590486" lon="2.8823537">
<ele>46.00</ele>
<time>2020-09-06T07:57:58Z</time>
</trkpt>
<trkpt lat="48.8589334" lon="2.8826225">
<ele>45.89</ele>
<time>2020-09-06T07:58:04Z</time>
</trkpt>
<trkpt lat="48.8588458" lon="2.8829030">
<ele>46.57</ele>
<time>2020-09-06T07:58:10Z</time>
</trkpt>
<trkpt lat="48.8587655" lon="2.8831823">
<ele>47.19</ele>
<time>2020-09-06T07:58:16Z</time>
</trkpt>
<trkpt lat="48.8586956" lon="2.8834551">
<ele>47.00</ele>
<time>2020-09-06T07:58:22Z</time>
</trkpt>
<trkpt lat="48.8586586" lon="2.8837545">
<ele>49.08</ele>
<time>2020-09-06T07:58:29Z</time>
</trkpt>
<trkpt lat="48.8586573" lon="2.8840374">
<ele>49.68</ele>
<time>2020-09-06T07:58:37Z</time>
</trkpt>
<trkpt lat="48.8586410" lon="2.8843112">
<ele>50.13</ele>
<time>2020-09-06T07:58:46Z</time>
</trkpt>
<trkpt lat="48.8586218" lon="2.8846281">
<ele>48.28</ele>
<time>2020-09-06T07:58:53Z</time>
</trkpt>
<trkpt lat="48.8585824" lon="2.8849073">
<ele>47.35</ele>
<time>2020-09-06T07:58:59Z</time>
</trkpt>
<trkpt lat="48.8585455" lon="2.8851816">
<ele>46.67</ele>
<time>2020-09-06T07:59:05Z</time>
</trkpt>
<trkpt lat="48.8585097" lon="2.8854824">
<ele>46.15</ele>
<time>2020-09-06T07:59:12Z</time>
</trkpt>
<trkpt lat="48.8584372" lon="2.8857626">
<ele>46.08</ele>
<time>2020-09-06T07:59:19Z</time>
</trkpt>
<trkpt lat="48.8583591" lon="2.8860524">
<ele>46.85</ele>
<time>2020-09-06T07:59:26Z</time>
</trkpt>
<trkpt lat="48.8582942" lon="2.8863152">
<ele>46.72</ele>
<time>2020-09-06T07:59:32Z</time>
</trkpt>
<trkpt lat="48.8582238" lon="2.8865980">
<ele>47.02</ele>
<time>2020-09-06T07:59:38Z</time>
</trkpt>
<trkpt lat="48.8581521" lon="2.8868798">
<ele>47.23</ele>
<time>2020-09-06T07:59:44Z</time>
</trkpt>
<trkpt lat="48.8580782" lon="2.8871537">
<ele>48.09</ele>
<time>2020-09-06T07:59:50Z</time>
</trkpt>
<trkpt lat="48.8579995" lon="2.8874150">
<ele>48.19</ele>
<time>2020-09-06T07:59:56Z</time>
</trkpt>
<trkpt lat="48.8579219" lon="2.8877165">
<ele>48.11</ele>
<time>2020-09-06T08:00:02Z</time>
</trkpt>
<trkpt lat="48.8578469" lon="2.8880095">
<ele>48.21</ele>
<time>2020-09-06T08:00:08Z</time>
</trkpt>
<trkpt lat="48.8577651" lon="2.8883024">
<ele>47.46</ele>
<time>2020-09-06T08:00:14Z</time>
</trkpt>
<trkpt lat="48.8576928" lon="2.8885979">
<ele>48.16</ele>
<time>2020-09-06T08:00:20Z</time>
</trkpt>
<trkpt lat="48.8576131" lon="2.8888748">
<ele>48.09</ele>
<time>2020-09-06T08:00:26Z</time>
</trkpt>
<trkpt lat="48.8575349" lon="2.8891644">
<ele>47.75</ele>
<time>2020-09-06T08:00:32Z</time>
</trkpt>
<trkpt lat="48.8574625" lon="2.8894542">
<ele>46.66</ele>
<time>2020-09-06T08:00:38Z</time>
</trkpt>
<trkpt lat="48.8573946" lon="2.8897581">
<ele>45.95</ele>
<time>2020-09-06T08:00:44Z</time>
</trkpt>
<trkpt lat="48.8573278" lon="2.8900513">
<ele>46.08</ele>
<time>2020-09-06T08:00:50Z</time>
</trkpt>
<trkpt lat="48.8572537" lon="2.8903497">
<ele>47.07</ele>
<time>2020-09-06T08:00:56Z</time>
</trkpt>
<trkpt lat="48.8571842" lon="2.8906350">
<ele>46.83</ele>
<time>2020-09-06T08:01:02Z</time>
</trkpt>
<trkpt lat="48.8571174" lon="2.8909072">
<ele>46.49</ele>
<time>2020-09-06T08:01:08Z</time>
</trkpt>
<trkpt lat="48.8570537" lon="2.8911759">
<ele>46.18</ele>
<time>2020-09-06T08:01:14Z</time>
</trkpt>
<trkpt lat="48.8569827" lon="2.8914571">
<ele>45.97</ele>
<time>2020-09-06T08:01:20Z</time>
</trkpt>
<trkpt lat="48.8569135" lon="2.8917286">
<ele>46.10</ele>
<time>2020-09-06T08:01:26Z</time>
</trkpt>
<trkpt lat="48.8568535" lon="2.8920040">
<ele>46.51</ele>
<time>2020-09-06T08:01:32Z</time>
</trkpt>
<trkpt lat="48.8567958" lon="2.8922693">
<ele>46.53</ele>
<time>2020-09-06T08:01:38Z</time>
</trkpt>
<trkpt lat="48.8567221" lon="2.8925505">
<ele>46.25</ele>
<time>2020-09-06T08:01:44Z</time>
</trkpt>
<trkpt lat="48.8566311" lon="2.8928130">
<ele>46.30</ele>
<time>2020-09-06T08:01:50Z</time>
</trkpt>
<trkpt lat="48.8565478" lon="2.8930658">
<ele>47.44</ele>
<time>2020-09-06T08:01:56Z</time>
</trkpt>
<trkpt lat="48.8564492" lon="2.8933316">
<ele>48.34</ele>
<time>2020-09-06T08:02:03Z</time>
</trkpt>
<trkpt lat="48.8563548" lon="2.8935809">
<ele>48.45</ele>
<time>2020-09-06T08:02:08Z</time>
</trkpt>
<trkpt lat="48.8562534" lon="2.8938583">
<ele>49.11</ele>
<time>2020-09-06T08:02:14Z</time>
</trkpt>
<trkpt lat="48.8561655" lon="2.8941327">
<ele>49.56</ele>
<time>2020-09-06T08:02:21Z</time>
</trkpt>
<trkpt lat="48.8560974" lon="2.8944189">
<ele>50.54</ele>
<time>2020-09-06T08:02:30Z</time>
</trkpt>
<trkpt lat="48.8560867" lon="2.8947264">
<ele>50.93</ele>
<time>2020-09-06T08:02:36Z</time>
</trkpt>
<trkpt lat="48.8561149" lon="2.8950314">
<ele>50.38</ele>
<time>2020-09-06T08:02:41Z</time>
</trkpt>
<trkpt lat="48.8561350" lon="2.8953581">
<ele>49.94</ele>
<time>2020-09-06T08:02:46Z</time>
</trkpt>
<trkpt lat="48.8561050" lon="2.8956846">
<ele>49.76</ele>
<time>2020-09-06T08:02:51Z</time>
</trkpt>
<trkpt lat="48.8560613" lon="2.8959926">
<ele>49.12</ele>
<time>2020-09-06T08:02:57Z</time>
</trkpt>
<trkpt lat="48.8559949" lon="2.8962971">
<ele>49.69</ele>
<time>2020-09-06T08:03:03Z</time>
</trkpt>
<trkpt lat="48.8559209" lon="2.8965576">
<ele>50.86</ele>
<time>2020-09-06T08:03:09Z</time>
</trkpt>
<trkpt lat="48.8558341" lon="2.8968085">
<ele>52.09</ele>
<time>2020-09-06T08:03:16Z</time>
</trkpt>
<trkpt lat="48.8556347" lon="2.8967461">
<ele>53.73</ele>
<time>2020-09-06T08:03:24Z</time>
</trkpt>
<trkpt lat="48.8554477" lon="2.8966449">
<ele>56.47</ele>
<time>2020-09-06T08:03:32Z</time>
</trkpt>
<trkpt lat="48.8552780" lon="2.8965124">
<ele>54.48</ele>
<time>2020-09-06T08:03:41Z</time>
</trkpt>
<trkpt lat="48.8550834" lon="2.8964444">
<ele>56.66</ele>
<time>2020-09-06T08:03:50Z</time>
</trkpt>
<trkpt lat="48.8548862" lon="2.8964470">
<ele>60.49</ele>
<time>2020-09-06T08:04:01Z</time>
</trkpt>
<trkpt lat="48.8546901" lon="2.8964075">
<ele>62.45</ele>
<time>2020-09-06T08:04:10Z</time>
</trkpt>
<trkpt lat="48.8545109" lon="2.8963626">
<ele>60.28</ele>
<time>2020-09-06T08:04:22Z</time>
</trkpt>
<trkpt lat="48.8543270" lon="2.8963658">
<ele>62.99</ele>
<time>2020-09-06T08:04:31Z</time>
</trkpt>
<trkpt lat="48.8541195" lon="2.8963363">
<ele>69.46</ele>
<time>2020-09-06T08:04:38Z</time>
</trkpt>
<trkpt lat="48.8539343" lon="2.8963346">
<ele>73.39</ele>
<time>2020-09-06T08:04:44Z</time>
</trkpt>
<trkpt lat="48.8537434" lon="2.8963005">
<ele>77.30</ele>
<time>2020-09-06T08:04:51Z</time>
</trkpt>
<trkpt lat="48.8535564" lon="2.8962108">
<ele>76.40</ele>
<time>2020-09-06T08:04:58Z</time>
</trkpt>
<trkpt lat="48.8533707" lon="2.8961940">
<ele>79.20</ele>
<time>2020-09-06T08:05:07Z</time>
</trkpt>
<trkpt lat="48.8531785" lon="2.8961630">
<ele>79.97</ele>
<time>2020-09-06T08:05:16Z</time>
</trkpt>
<trkpt lat="48.8529840" lon="2.8961487">
<ele>80.38</ele>
<time>2020-09-06T08:05:25Z</time>
</trkpt>
<trkpt lat="48.8527952" lon="2.8961704">
<ele>83.12</ele>
<time>2020-09-06T08:05:34Z</time>
</trkpt>
<trkpt lat="48.8526141" lon="2.8961770">
<ele>84.99</ele>
<time>2020-09-06T08:05:41Z</time>
</trkpt>
<trkpt lat="48.8524215" lon="2.8961686">
<ele>90.44</ele>
<time>2020-09-06T08:05:49Z</time>
</trkpt>
<trkpt lat="48.8522236" lon="2.8961718">
<ele>89.54</ele>
<time>2020-09-06T08:05:56Z</time>
</trkpt>
<trkpt lat="48.8520442" lon="2.8961357">
<ele>90.34</ele>
<time>2020-09-06T08:06:05Z</time>
</trkpt>
<trkpt lat="48.8518574" lon="2.8961208">
<ele>93.56</ele>
<time>2020-09-06T08:06:14Z</time>
</trkpt>
<trkpt lat="48.8516603" lon="2.8961170">
<ele>98.14</ele>
<time>2020-09-06T08:06:22Z</time>
</trkpt>
<trkpt lat="48.8514770" lon="2.8961366">
<ele>97.95</ele>
<time>2020-09-06T08:06:31Z</time>
</trkpt>
<trkpt lat="48.8512877" lon="2.8962419">
<ele>99.06</ele>
<time>2020-09-06T08:06:40Z</time>
</trkpt>
<trkpt lat="48.8511201" lon="2.8963589">
<ele>101.75</ele>
<time>2020-09-06T08:06:51Z</time>
</trkpt>
<trkpt lat="48.8510701" lon="2.8966405">
<ele>100.54</ele>
<time>2020-09-06T08:06:59Z</time>
</trkpt>
<trkpt lat="48.8510394" lon="2.8969288">
<ele>99.75</ele>
<time>2020-09-06T08:07:06Z</time>
</trkpt>
<trkpt lat="48.8510411" lon="2.8972259">
<ele>100.18</ele>
<time>2020-09-06T08:07:13Z</time>
</trkpt>
<trkpt lat="48.8510324" lon="2.8975347">
<ele>100.69</ele>
<time>2020-09-06T08:07:20Z</time>
</trkpt>
<trkpt lat="48.8510193" lon="2.8978253">
<ele>100.68</ele>
<time>2020-09-06T08:07:27Z</time>
</trkpt>
<trkpt lat="48.8509994" lon="2.8981228">
<ele>101.20</ele>
<time>2020-09-06T08:07:35Z</time>
</trkpt>
<trkpt lat="48.8509978" lon="2.8984037">
<ele>102.24</ele>
<time>2020-09-06T08:07:43Z</time>
</trkpt>
<trkpt lat="48.8510145" lon="2.8987062">
<ele>103.14</ele>
<time>2020-09-06T08:07:54Z</time>
</trkpt>
<trkpt lat="48.8510386" lon="2.8989862">
<ele>103.71</ele>
<time>2020-09-06T08:08:01Z</time>
</trkpt>
<trkpt lat="48.8510690" lon="2.8992806">
<ele>104.49</ele>
<time>2020-09-06T08:08:08Z</time>
</trkpt>
<trkpt lat="48.8512008" lon="2.8994670">
<ele>104.85</ele>
<time>2020-09-06T08:08:25Z</time>
</trkpt>
<trkpt lat="48.8513781" lon="2.8996379">
<ele>106.11</ele>
<time>2020-09-06T08:08:32Z</time>
</trkpt>
<trkpt lat="48.8515467" lon="2.8997941">
<ele>106.40</ele>
<time>2020-09-06T08:08:39Z</time>
</trkpt>
<trkpt lat="48.8516978" lon="2.8999676">
<ele>106.05</ele>
<time>2020-09-06T08:08:46Z</time>
</trkpt>
<trkpt lat="48.8518559" lon="2.9001460">
<ele>104.32</ele>
<time>2020-09-06T08:08:53Z</time>
</trkpt>
<trkpt lat="48.8520147" lon="2.9003241">
<ele>103.19</ele>
<time>2020-09-06T08:09:01Z</time>
</trkpt>
<trkpt lat="48.8521605" lon="2.9004939">
<ele>103.42</ele>
<time>2020-09-06T08:09:08Z</time>
</trkpt>
<trkpt lat="48.8523180" lon="2.9006582">
<ele>103.64</ele>
<time>2020-09-06T08:09:15Z</time>
</trkpt>
<trkpt lat="48.8524718" lon="2.9008253">
<ele>101.29</ele>
<time>2020-09-06T08:09:23Z</time>
</trkpt>
<trkpt lat="48.8526271" lon="2.9009825">
<ele>99.84</ele>
<time>2020-09-06T08:09:31Z</time>
</trkpt>
<trkpt lat="48.8527809" lon="2.9011275">
<ele>98.31</ele>
<time>2020-09-06T08:09:38Z</time>
</trkpt>
<trkpt lat="48.8529315" lon="2.9012916">
<ele>97.19</ele>
<time>2020-09-06T08:09:45Z</time>
</trkpt>
<trkpt lat="48.8530859" lon="2.9014636">
<ele>95.42</ele>
<time>2020-09-06T08:09:53Z</time>
</trkpt>
<trkpt lat="48.8532394" lon="2.9016341">
<ele>93.92</ele>
<time>2020-09-06T08:10:00Z</time>
</trkpt>
<trkpt lat="48.8533990" lon="2.9018016">
<ele>93.66</ele>
<time>2020-09-06T08:10:08Z</time>
</trkpt>
<trkpt lat="48.8535652" lon="2.9019817">
<ele>92.59</ele>
<time>2020-09-06T08:10:15Z</time>
</trkpt>
<trkpt lat="48.8537299" lon="2.9021910">
<ele>93.29</ele>
<time>2020-09-06T08:10:21Z</time>
</trkpt>
<trkpt lat="48.8538378" lon="2.9024196">
<ele>89.47</ele>
<time>2020-09-06T08:10:28Z</time>
</trkpt>
<trkpt lat="48.8539463" lon="2.9026498">
<ele>88.20</ele>
<time>2020-09-06T08:10:34Z</time>
</trkpt>
<trkpt lat="48.8540140" lon="2.9029161">
<ele>86.65</ele>
<time>2020-09-06T08:10:40Z</time>
</trkpt>
<trkpt lat="48.8540745" lon="2.9032016">
<ele>83.50</ele>
<time>2020-09-06T08:10:46Z</time>
</trkpt>
<trkpt lat="48.8541120" lon="2.9034816">
<ele>83.22</ele>
<time>2020-09-06T08:10:52Z</time>
</trkpt>
<trkpt lat="48.8541531" lon="2.9037594">
<ele>86.37</ele>
<time>2020-09-06T08:10:58Z</time>
</trkpt>
<trkpt lat="48.8541585" lon="2.9040445">
<ele>82.59</ele>
<time>2020-09-06T08:11:03Z</time>
</trkpt>
<trkpt lat="48.8541575" lon="2.9043338">
<ele>82.35</ele>
<time>2020-09-06T08:11:09Z</time>
</trkpt>
<trkpt lat="48.8541566" lon="2.9046311">
<ele>79.26</ele>
<time>2020-09-06T08:11:16Z</time>
</trkpt>
<trkpt lat="48.8541687" lon="2.9049424">
<ele>78.03</ele>
<time>2020-09-06T08:11:22Z</time>
</trkpt>
<trkpt lat="48.8541986" lon="2.9052364">
<ele>75.41</ele>
<time>2020-09-06T08:11:28Z</time>
</trkpt>
<trkpt lat="48.8541887" lon="2.9055160">
<ele>72.29</ele>
<time>2020-09-06T08:11:32Z</time>
</trkpt>
<trkpt lat="48.8542189" lon="2.9058139">
<ele>70.02</ele>
<time>2020-09-06T08:11:36Z</time>
</trkpt>
<trkpt lat="48.8542203" lon="2.9061002">
<ele>66.24</ele>
<time>2020-09-06T08:12:02Z</time>
</trkpt>
<trkpt lat="48.8542465" lon="2.9063714">
<ele>65.39</ele>
<time>2020-09-06T08:12:09Z</time>
</trkpt>
<trkpt lat="48.8542438" lon="2.9066819">
<ele>64.95</ele>
<time>2020-09-06T08:12:14Z</time>
</trkpt>
<trkpt lat="48.8542388" lon="2.9070135">
<ele>62.09</ele>
<time>2020-09-06T08:12:18Z</time>
</trkpt>
<trkpt lat="48.8542506" lon="2.9073730">
<ele>59.55</ele>
<time>2020-09-06T08:12:22Z</time>
</trkpt>
<trkpt lat="48.8542847" lon="2.9076721">
<ele>57.87</ele>
<time>2020-09-06T08:12:25Z</time>
</trkpt>
<trkpt lat="48.8543369" lon="2.9079764">
<ele>56.20</ele>
<time>2020-09-06T08:12:28Z</time>
</trkpt>
<trkpt lat="48.8544022" lon="2.9082949">
<ele>54.97</ele>
<time>2020-09-06T08:12:31Z</time>
</trkpt>
<trkpt lat="48.8544623" lon="2.9085536">
<ele>54.08</ele>
<time>2020-09-06T08:12:34Z</time>
</trkpt>
<trkpt lat="48.8545186" lon="2.9088380">
<ele>52.53</ele>
<time>2020-09-06T08:12:37Z</time>
</trkpt>
<trkpt lat="48.8545851" lon="2.9091423">
<ele>50.83</ele>
<time>2020-09-06T08:12:40Z</time>
</trkpt>
<trkpt lat="48.8546576" lon="2.9094632">
<ele>49.69</ele>
<time>2020-09-06T08:12:43Z</time>
</trkpt>
<trkpt lat="48.8547056" lon="2.9097285">
<ele>49.53</ele>
<time>2020-09-06T08:12:46Z</time>
</trkpt>
<trkpt lat="48.8545168" lon="2.9097596">
<ele>50.98</ele>
<time>2020-09-06T08:13:03Z</time>
</trkpt>
<trkpt lat="48.8543240" lon="2.9097366">
<ele>53.83</ele>
<time>2020-09-06T08:13:12Z</time>
</trkpt>
<trkpt lat="48.8541367" lon="2.9097006">
<ele>54.74</ele>
<time>2020-09-06T08:13:22Z</time>
</trkpt>
<trkpt lat="48.8539597" lon="2.9096359">
<ele>58.74</ele>
<time>2020-09-06T08:13:30Z</time>
</trkpt>
<trkpt lat="48.8537787" lon="2.9096156">
<ele>62.06</ele>
<time>2020-09-06T08:13:42Z</time>
</trkpt>
<trkpt lat="48.8535918" lon="2.9095328">
<ele>66.47</ele>
<time>2020-09-06T08:13:52Z</time>
</trkpt>
<trkpt lat="48.8534110" lon="2.9095394">
<ele>67.40</ele>
<time>2020-09-06T08:14:01Z</time>
</trkpt>
<trkpt lat="48.8533583" lon="2.9092748">
<ele>80.06</ele>
<time>2020-09-06T08:16:32Z</time>
</trkpt>
<trkpt lat="48.8533509" lon="2.9089993">
<ele>83.25</ele>
<time>2020-09-06T08:19:23Z</time>
</trkpt>
<trkpt lat="48.8533457" lon="2.9087078">
<ele>81.83</ele>
<time>2020-09-06T08:19:33Z</time>
</trkpt>
<trkpt lat="48.8532004" lon="2.9085252">
<ele>84.84</ele>
<time>2020-09-06T08:19:47Z</time>
</trkpt>
<trkpt lat="48.8530298" lon="2.9084386">
<ele>92.43</ele>
<time>2020-09-06T08:19:57Z</time>
</trkpt>
<trkpt lat="48.8528545" lon="2.9083518">
<ele>96.40</ele>
<time>2020-09-06T08:20:04Z</time>
</trkpt>
<trkpt lat="48.8526770" lon="2.9082774">
<ele>96.97</ele>
<time>2020-09-06T08:20:13Z</time>
</trkpt>
<trkpt lat="48.8524777" lon="2.9082171">
<ele>99.24</ele>
<time>2020-09-06T08:20:25Z</time>
</trkpt>
<trkpt lat="48.8522918" lon="2.9081681">
<ele>100.26</ele>
<time>2020-09-06T08:20:34Z</time>
</trkpt>
<trkpt lat="48.8521551" lon="2.9079892">
<ele>101.50</ele>
<time>2020-09-06T08:20:50Z</time>
</trkpt>
<trkpt lat="48.8520083" lon="2.9078161">
<ele>103.17</ele>
<time>2020-09-06T08:21:02Z</time>
</trkpt>
<trkpt lat="48.8518176" lon="2.9076778">
<ele>103.13</ele>
<time>2020-09-06T08:21:09Z</time>
</trkpt>
<trkpt lat="48.8516411" lon="2.9074915">
<ele>103.86</ele>
<time>2020-09-06T08:21:15Z</time>
</trkpt>
<trkpt lat="48.8514894" lon="2.9073252">
<ele>103.98</ele>
<time>2020-09-06T08:21:20Z</time>
</trkpt>
<trkpt lat="48.8512962" lon="2.9072206">
<ele>105.45</ele>
<time>2020-09-06T08:21:25Z</time>
</trkpt>
<trkpt lat="48.8511360" lon="2.9070847">
<ele>110.69</ele>
<time>2020-09-06T08:21:52Z</time>
</trkpt>
<trkpt lat="48.8510423" lon="2.9073305">
<ele>110.84</ele>
<time>2020-09-06T08:25:56Z</time>
</trkpt>
<trkpt lat="48.8509889" lon="2.9076281">
<ele>110.57</ele>
<time>2020-09-06T08:26:04Z</time>
</trkpt>
<trkpt lat="48.8509117" lon="2.9079077">
<ele>109.31</ele>
<time>2020-09-06T08:26:12Z</time>
</trkpt>
<trkpt lat="48.8508433" lon="2.9081655">
<ele>109.22</ele>
<time>2020-09-06T08:26:19Z</time>
</trkpt>
<trkpt lat="48.8507793" lon="2.9084222">
<ele>108.77</ele>
<time>2020-09-06T08:26:26Z</time>
</trkpt>
<trkpt lat="48.8507144" lon="2.9086868">
<ele>108.38</ele>
<time>2020-09-06T08:26:33Z</time>
</trkpt>
<trkpt lat="48.8506534" lon="2.9089507">
<ele>107.81</ele>
<time>2020-09-06T08:26:40Z</time>
</trkpt>
<trkpt lat="48.8505984" lon="2.9092264">
<ele>106.97</ele>
<time>2020-09-06T08:26:48Z</time>
</trkpt>
<trkpt lat="48.8505305" lon="2.9095011">
<ele>106.41</ele>
<time>2020-09-06T08:26:57Z</time>
</trkpt>
<trkpt lat="48.8504491" lon="2.9097875">
<ele>104.03</ele>
<time>2020-09-06T08:27:04Z</time>
</trkpt>
<trkpt lat="48.8502616" lon="2.9097874">
<ele>104.90</ele>
<time>2020-09-06T08:27:11Z</time>
</trkpt>
<trkpt lat="48.8501170" lon="2.9095624">
<ele>106.64</ele>
<time>2020-09-06T08:27:18Z</time>
</trkpt>
<trkpt lat="48.8499884" lon="2.9093410">
<ele>108.54</ele>
<time>2020-09-06T08:27:25Z</time>
</trkpt>
<trkpt lat="48.8498763" lon="2.9091108">
<ele>110.30</ele>
<time>2020-09-06T08:27:32Z</time>
</trkpt>
<trkpt lat="48.8497744" lon="2.9088634">
<ele>111.58</ele>
<time>2020-09-06T08:27:39Z</time>
</trkpt>
<trkpt lat="48.8496707" lon="2.9086356">
<ele>112.85</ele>
<time>2020-09-06T08:27:46Z</time>
</trkpt>
<trkpt lat="48.8495578" lon="2.9084184">
<ele>114.53</ele>
<time>2020-09-06T08:27:53Z</time>
</trkpt>
<trkpt lat="48.8494484" lon="2.9081940">
<ele>115.67</ele>
<time>2020-09-06T08:28:00Z</time>
</trkpt>
<trkpt lat="48.8493213" lon="2.9079526">
<ele>116.42</ele>
<time>2020-09-06T08:28:08Z</time>
</trkpt>
<trkpt lat="48.8491985" lon="2.9077019">
<ele>117.75</ele>
<time>2020-09-06T08:28:16Z</time>
</trkpt>
<trkpt lat="48.8490761" lon="2.9074593">
<ele>118.60</ele>
<time>2020-09-06T08:28:24Z</time>
</trkpt>
<trkpt lat="48.8489404" lon="2.9072753">
<ele>119.73</ele>
<time>2020-09-06T08:28:33Z</time>
</trkpt>
<trkpt lat="48.8487882" lon="2.9074894">
<ele>119.67</ele>
<time>2020-09-06T08:28:41Z</time>
</trkpt>
<trkpt lat="48.8486429" lon="2.9076634">
<ele>120.69</ele>
<time>2020-09-06T08:28:48Z</time>
</trkpt>
<trkpt lat="48.8484844" lon="2.9078656">
<ele>120.17</ele>
<time>2020-09-06T08:28:55Z</time>
</trkpt>
<trkpt lat="48.8483357" lon="2.9080344">
<ele>120.33</ele>
<time>2020-09-06T08:29:01Z</time>
</trkpt>
<trkpt lat="48.8481776" lon="2.9082080">
<ele>118.11</ele>
<time>2020-09-06T08:29:07Z</time>
</trkpt>
<trkpt lat="48.8480043" lon="2.9084003">
<ele>116.98</ele>
<time>2020-09-06T08:29:13Z</time>
</trkpt>
<trkpt lat="48.8478542" lon="2.9085630">
<ele>116.14</ele>
<time>2020-09-06T08:29:18Z</time>
</trkpt>
<trkpt lat="48.8476807" lon="2.9084048">
<ele>116.18</ele>
<time>2020-09-06T08:29:25Z</time>
</trkpt>
<trkpt lat="48.8475471" lon="2.9081885">
<ele>116.76</ele>
<time>2020-09-06T08:29:32Z</time>
</trkpt>
<trkpt lat="48.8474078" lon="2.9079453">
<ele>116.14</ele>
<time>2020-09-06T08:29:38Z</time>
</trkpt>
<trkpt lat="48.8472508" lon="2.9077555">
<ele>116.71</ele>
<time>2020-09-06T08:29:43Z</time>
</trkpt>
<trkpt lat="48.8471343" lon="2.9075323">
<ele>115.41</ele>
<time>2020-09-06T08:29:49Z</time>
</trkpt>
<trkpt lat="48.8470081" lon="2.9073149">
<ele>116.30</ele>
<time>2020-09-06T08:29:55Z</time>
</trkpt>
<trkpt lat="48.8468697" lon="2.9071331">
<ele>115.37</ele>
<time>2020-09-06T08:30:00Z</time>
</trkpt>
<trkpt lat="48.8467209" lon="2.9069736">
<ele>113.56</ele>
<time>2020-09-06T08:30:05Z</time>
</trkpt>
<trkpt lat="48.8465747" lon="2.9067875">
<ele>114.26</ele>
<time>2020-09-06T08:30:10Z</time>
</trkpt>
<trkpt lat="48.8464625" lon="2.9065688">
<ele>113.53</ele>
<time>2020-09-06T08:30:16Z</time>
</trkpt>
<trkpt lat="48.8463228" lon="2.9063470">
<ele>112.46</ele>
<time>2020-09-06T08:30:23Z</time>
</trkpt>
<trkpt lat="48.8461341" lon="2.9062530">
<ele>109.46</ele>
<time>2020-09-06T08:30:34Z</time>
</trkpt>
<trkpt lat="48.8459435" lon="2.9063049">
<ele>108.11</ele>
<time>2020-09-06T08:30:41Z</time>
</trkpt>
<trkpt lat="48.8457426" lon="2.9062688">
<ele>107.44</ele>
<time>2020-09-06T08:30:46Z</time>
</trkpt>
<trkpt lat="48.8455560" lon="2.9061599">
<ele>106.95</ele>
<time>2020-09-06T08:30:52Z</time>
</trkpt>
<trkpt lat="48.8453703" lon="2.9060759">
<ele>106.09</ele>
<time>2020-09-06T08:30:57Z</time>
</trkpt>
<trkpt lat="48.8452276" lon="2.9058817">
<ele>109.59</ele>
<time>2020-09-06T08:31:04Z</time>
</trkpt>
<trkpt lat="48.8451190" lon="2.9056520">
<ele>108.15</ele>
<time>2020-09-06T08:31:10Z</time>
</trkpt>
<trkpt lat="48.8449818" lon="2.9054299">
<ele>106.77</ele>
<time>2020-09-06T08:31:16Z</time>
</trkpt>
<trkpt lat="48.8448443" lon="2.9052299">
<ele>105.07</ele>
<time>2020-09-06T08:31:21Z</time>
</trkpt>
<trkpt lat="48.8447189" lon="2.9049811">
<ele>105.37</ele>
<time>2020-09-06T08:31:25Z</time>
</trkpt>
<trkpt lat="48.8445931" lon="2.9047434">
<ele>105.89</ele>
<time>2020-09-06T08:31:29Z</time>
</trkpt>
<trkpt lat="48.8444676" lon="2.9045108">
<ele>105.98</ele>
<time>2020-09-06T08:31:32Z</time>
</trkpt>
<trkpt lat="48.8443140" lon="2.9042819">
<ele>105.21</ele>
<time>2020-09-06T08:31:36Z</time>
</trkpt>
<trkpt lat="48.8441760" lon="2.9040552">
<ele>107.44</ele>
<time>2020-09-06T08:31:40Z</time>
</trkpt>
<trkpt lat="48.8439850" lon="2.9038093">
<ele>107.48</ele>
<time>2020-09-06T08:31:46Z</time>
</trkpt>
<trkpt lat="48.8438331" lon="2.9036208">
<ele>107.04</ele>
<time>2020-09-06T08:31:52Z</time>
</trkpt>
<trkpt lat="48.8436955" lon="2.9034203">
<ele>108.79</ele>
<time>2020-09-06T08:32:02Z</time>
</trkpt>
<trkpt lat="48.8435477" lon="2.9031954">
<ele>111.43</ele>
<time>2020-09-06T08:32:08Z</time>
</trkpt>
<trkpt lat="48.8434154" lon="2.9029822">
<ele>113.22</ele>
<time>2020-09-06T08:32:26Z</time>
</trkpt>
<trkpt lat="48.8433043" lon="2.9027594">
<ele>112.92</ele>
<time>2020-09-06T08:32:36Z</time>
</trkpt>
<trkpt lat="48.8431802" lon="2.9025422">
<ele>111.98</ele>
<time>2020-09-06T08:32:45Z</time>
</trkpt>
<trkpt lat="48.8430713" lon="2.9023066">
<ele>113.66</ele>
<time>2020-09-06T08:32:52Z</time>
</trkpt>
<trkpt lat="48.8429412" lon="2.9020962">
<ele>117.02</ele>
<time>2020-09-06T08:32:59Z</time>
</trkpt>
<trkpt lat="48.8428198" lon="2.9018753">
<ele>117.82</ele>
<time>2020-09-06T08:33:06Z</time>
</trkpt>
<trkpt lat="48.8426720" lon="2.9016966">
<ele>116.59</ele>
<time>2020-09-06T08:33:13Z</time>
</trkpt>
<trkpt lat="48.8425197" lon="2.9014581">
<ele>114.22</ele>
<time>2020-09-06T08:33:20Z</time>
</trkpt>
<trkpt lat="48.8423674" lon="2.9012378">
<ele>110.08</ele>
<time>2020-09-06T08:33:25Z</time>
</trkpt>
<trkpt lat="48.8422224" lon="2.9010244">
<ele>109.23</ele>
<time>2020-09-06T08:33:29Z</time>
</trkpt>
<trkpt lat="48.8420365" lon="2.9009381">
<ele>110.27</ele>
<time>2020-09-06T08:33:34Z</time>
</trkpt>
<trkpt lat="48.8418478" lon="2.9009818">
<ele>110.02</ele>
<time>2020-09-06T08:33:40Z</time>
</trkpt>
<trkpt lat="48.8416460" lon="2.9009205">
<ele>106.48</ele>
<time>2020-09-06T08:34:02Z</time>
</trkpt>
<trkpt lat="48.8414393" lon="2.9008236">
<ele>105.15</ele>
<time>2020-09-06T08:34:07Z</time>
</trkpt>
<trkpt lat="48.8412631" lon="2.9006721">
<ele>104.66</ele>
<time>2020-09-06T08:34:13Z</time>
</trkpt>
<trkpt lat="48.8412925" lon="2.9003689">
<ele>105.70</ele>
<time>2020-09-06T08:34:23Z</time>
</trkpt>
<trkpt lat="48.8413094" lon="2.9000785">
<ele>106.36</ele>
<time>2020-09-06T08:34:31Z</time>
</trkpt>
<trkpt lat="48.8413684" lon="2.8997847">
<ele>105.00</ele>
<time>2020-09-06T08:34:37Z</time>
</trkpt>
<trkpt lat="48.8414016" lon="2.8994914">
<ele>100.12</ele>
<time>2020-09-06T08:34:43Z</time>
</trkpt>
<trkpt lat="48.8414180" lon="2.8992162">
<ele>102.04</ele>
<time>2020-09-06T08:34:50Z</time>
</trkpt>
<trkpt lat="48.8412966" lon="2.8989574">
<ele>107.23</ele>
<time>2020-09-06T08:34:58Z</time>
</trkpt>
<trkpt lat="48.8412947" lon="2.8986681">
<ele>106.44</ele>
<time>2020-09-06T08:35:05Z</time>
</trkpt>
<trkpt lat="48.8413043" lon="2.8983595">
<ele>101.52</ele>
<time>2020-09-06T08:35:14Z</time>
</trkpt>
<trkpt lat="48.8413418" lon="2.8980772">
<ele>101.15</ele>
<time>2020-09-06T08:35:21Z</time>
</trkpt>
<trkpt lat="48.8413500" lon="2.8977785">
<ele>100.78</ele>
<time>2020-09-06T08:35:26Z</time>
</trkpt>
<trkpt lat="48.8414323" lon="2.8974960">
<ele>100.00</ele>
<time>2020-09-06T08:35:32Z</time>
</trkpt>
<trkpt lat="48.8414332" lon="2.8971846">
<ele>99.84</ele>
<time>2020-09-06T08:35:39Z</time>
</trkpt>
<trkpt lat="48.8414207" lon="2.8968802">
<ele>100.72</ele>
<time>2020-09-06T08:35:46Z</time>
</trkpt>
<trkpt lat="48.8412206" lon="2.8968145">
<ele>102.25</ele>
<time>2020-09-06T08:35:54Z</time>
</trkpt>
<trkpt lat="48.8410388" lon="2.8967997">
<ele>101.65</ele>
<time>2020-09-06T08:35:59Z</time>
</trkpt>
<trkpt lat="48.8408408" lon="2.8967638">
<ele>101.37</ele>
<time>2020-09-06T08:36:04Z</time>
</trkpt>
<trkpt lat="48.8406448" lon="2.8966965">
<ele>101.48</ele>
<time>2020-09-06T08:36:09Z</time>
</trkpt>
<trkpt lat="48.8404432" lon="2.8965762">
<ele>100.77</ele>
<time>2020-09-06T08:36:14Z</time>
</trkpt>
<trkpt lat="48.8402523" lon="2.8964950">
<ele>101.50</ele>
<time>2020-09-06T08:36:19Z</time>
</trkpt>
<trkpt lat="48.8400496" lon="2.8965058">
<ele>102.18</ele>
<time>2020-09-06T08:36:25Z</time>
</trkpt>
<trkpt lat="48.8398693" lon="2.8965665">
<ele>102.30</ele>
<time>2020-09-06T08:36:31Z</time>
</trkpt>
<trkpt lat="48.8396838" lon="2.8966182">
<ele>103.08</ele>
<time>2020-09-06T08:36:37Z</time>
</trkpt>
<trkpt lat="48.8394927" lon="2.8966581">
<ele>104.42</ele>
<time>2020-09-06T08:36:43Z</time>
</trkpt>
<trkpt lat="48.8392945" lon="2.8966758">
<ele>105.78</ele>
<time>2020-09-06T08:36:49Z</time>
</trkpt>
<trkpt lat="48.8391055" lon="2.8966521">
<ele>106.60</ele>
<time>2020-09-06T08:36:55Z</time>
</trkpt>
<trkpt lat="48.8389147" lon="2.8965776">
<ele>106.72</ele>
<time>2020-09-06T08:37:01Z</time>
</trkpt>
<trkpt lat="48.8387123" lon="2.8964714">
<ele>106.69</ele>
<time>2020-09-06T08:37:07Z</time>
</trkpt>
<trkpt lat="48.8385327" lon="2.8963603">
<ele>107.06</ele>
<time>2020-09-06T08:37:12Z</time>
</trkpt>
<trkpt lat="48.8383562" lon="2.8962531">
<ele>107.42</ele>
<time>2020-09-06T08:37:17Z</time>
</trkpt>
<trkpt lat="48.8381775" lon="2.8961580">
<ele>107.69</ele>
<time>2020-09-06T08:37:22Z</time>
</trkpt>
<trkpt lat="48.8379998" lon="2.8960674">
<ele>107.47</ele>
<time>2020-09-06T08:37:27Z</time>
</trkpt>
<trkpt lat="48.8378060" lon="2.8960028">
<ele>107.32</ele>
<time>2020-09-06T08:37:33Z</time>
</trkpt>
<trkpt lat="48.8376193" lon="2.8959783">
<ele>107.24</ele>
<time>2020-09-06T08:37:39Z</time>
</trkpt>
<trkpt lat="48.8374300" lon="2.8959667">
<ele>107.95</ele>
<time>2020-09-06T08:37:45Z</time>
</trkpt>
<trkpt lat="48.8372328" lon="2.8959666">
<ele>108.44</ele>
<time>2020-09-06T08:37:51Z</time>
</trkpt>
<trkpt lat="48.8370354" lon="2.8959616">
<ele>108.68</ele>
<time>2020-09-06T08:37:57Z</time>
</trkpt>
<trkpt lat="48.8368319" lon="2.8959419">
<ele>109.54</ele>
<time>2020-09-06T08:38:03Z</time>
</trkpt>
<trkpt lat="48.8366237" lon="2.8959174">
<ele>109.55</ele>
<time>2020-09-06T08:38:09Z</time>
</trkpt>
<trkpt lat="48.8364456" lon="2.8958776">
<ele>109.42</ele>
<time>2020-09-06T08:38:14Z</time>
</trkpt>
<trkpt lat="48.8362466" lon="2.8958372">
<ele>108.79</ele>
<time>2020-09-06T08:38:20Z</time>
</trkpt>
<trkpt lat="48.8360666" lon="2.8957896">
<ele>108.36</ele>
<time>2020-09-06T08:38:26Z</time>
</trkpt>
<trkpt lat="48.8358874" lon="2.8957433">
<ele>107.51</ele>
<time>2020-09-06T08:38:32Z</time>
</trkpt>
<trkpt lat="48.8356918" lon="2.8957174">
<ele>107.64</ele>
<time>2020-09-06T08:38:39Z</time>
</trkpt>
<trkpt lat="48.8355060" lon="2.8956678">
<ele>107.09</ele>
<time>2020-09-06T08:38:46Z</time>
</trkpt>
<trkpt lat="48.8353075" lon="2.8956195">
<ele>106.59</ele>
<time>2020-09-06T08:38:53Z</time>
</trkpt>
<trkpt lat="48.8351161" lon="2.8955872">
<ele>105.65</ele>
<time>2020-09-06T08:38:59Z</time>
</trkpt>
<trkpt lat="48.8349346" lon="2.8955628">
<ele>105.61</ele>
<time>2020-09-06T08:39:07Z</time>
</trkpt>
<trkpt lat="48.8347423" lon="2.8955364">
<ele>105.54</ele>
<time>2020-09-06T08:39:14Z</time>
</trkpt>
<trkpt lat="48.8345412" lon="2.8955049">
<ele>105.64</ele>
<time>2020-09-06T08:39:20Z</time>
</trkpt>
<trkpt lat="48.8343338" lon="2.8954404">
<ele>105.81</ele>
<time>2020-09-06T08:39:26Z</time>
</trkpt>
<trkpt lat="48.8341440" lon="2.8953371">
<ele>106.56</ele>
<time>2020-09-06T08:39:32Z</time>
</trkpt>
<trkpt lat="48.8339797" lon="2.8952104">
<ele>106.41</ele>
<time>2020-09-06T08:39:37Z</time>
</trkpt>
<trkpt lat="48.8338026" lon="2.8950820">
<ele>106.42</ele>
<time>2020-09-06T08:39:42Z</time>
</trkpt>
<trkpt lat="48.8336316" lon="2.8949486">
<ele>105.78</ele>
<time>2020-09-06T08:39:47Z</time>
</trkpt>
<trkpt lat="48.8334549" lon="2.8947868">
<ele>105.46</ele>
<time>2020-09-06T08:39:53Z</time>
</trkpt>
<trkpt lat="48.8332747" lon="2.8946705">
<ele>105.13</ele>
<time>2020-09-06T08:39:58Z</time>
</trkpt>
<trkpt lat="48.8330851" lon="2.8945384">
<ele>104.65</ele>
<time>2020-09-06T08:40:04Z</time>
</trkpt>
<trkpt lat="48.8328958" lon="2.8944078">
<ele>104.82</ele>
<time>2020-09-06T08:40:10Z</time>
</trkpt>
<trkpt lat="48.8327310" lon="2.8942977">
<ele>105.66</ele>
<time>2020-09-06T08:40:16Z</time>
</trkpt>
<trkpt lat="48.8325568" lon="2.8941758">
<ele>105.47</ele>
<time>2020-09-06T08:40:22Z</time>
</trkpt>
<trkpt lat="48.8323834" lon="2.8940453">
<ele>105.71</ele>
<time>2020-09-06T08:40:28Z</time>
</trkpt>
<trkpt lat="48.8322051" lon="2.8939130">
<ele>105.98</ele>
<time>2020-09-06T08:40:34Z</time>
</trkpt>
<trkpt lat="48.8320349" lon="2.8937831">
<ele>105.55</ele>
<time>2020-09-06T08:40:40Z</time>
</trkpt>
<trkpt lat="48.8318630" lon="2.8936694">
<ele>103.96</ele>
<time>2020-09-06T08:40:46Z</time>
</trkpt>
<trkpt lat="48.8316758" lon="2.8935584">
<ele>103.05</ele>
<time>2020-09-06T08:40:52Z</time>
</trkpt>
<trkpt lat="48.8314922" lon="2.8934673">
<ele>101.52</ele>
<time>2020-09-06T08:40:58Z</time>
</trkpt>
<trkpt lat="48.8312848" lon="2.8933980">
<ele>100.81</ele>
<time>2020-09-06T08:41:04Z</time>
</trkpt>
<trkpt lat="48.8310755" lon="2.8933524">
<ele>100.97</ele>
<time>2020-09-06T08:41:10Z</time>
</trkpt>
<trkpt lat="48.8308887" lon="2.8933087">
<ele>101.16</ele>
<time>2020-09-06T08:41:15Z</time>
</trkpt>
<trkpt lat="48.8307061" lon="2.8932634">
<ele>100.84</ele>
<time>2020-09-06T08:41:20Z</time>
</trkpt>
<trkpt lat="48.8305126" lon="2.8932199">
<ele>100.68</ele>
<time>2020-09-06T08:41:25Z</time>
</trkpt>
<trkpt lat="48.8303073" lon="2.8931919">
<ele>100.35</ele>
<time>2020-09-06T08:41:31Z</time>
</trkpt>
<trkpt lat="48.8300905" lon="2.8931665">
<ele>100.01</ele>
<time>2020-09-06T08:41:37Z</time>
</trkpt>
<trkpt lat="48.8298973" lon="2.8931531">
<ele>99.19</ele>
<time>2020-09-06T08:41:42Z</time>
</trkpt>
<trkpt lat="48.8296973" lon="2.8931082">
<ele>98.71</ele>
<time>2020-09-06T08:41:47Z</time>
</trkpt>
<trkpt lat="48.8294966" lon="2.8930298">
<ele>98.60</ele>
<time>2020-09-06T08:41:52Z</time>
</trkpt>
<trkpt lat="48.8292966" lon="2.8929477">
<ele>96.99</ele>
<time>2020-09-06T08:41:57Z</time>
</trkpt>
<trkpt lat="48.8291245" lon="2.8928658">
<ele>95.47</ele>
<time>2020-09-06T08:42:03Z</time>
</trkpt>
<trkpt lat="48.8289517" lon="2.8927829">
<ele>92.50</ele>
<time>2020-09-06T08:43:08Z</time>
</trkpt>
<trkpt lat="48.8287913" lon="2.8929474">
<ele>94.00</ele>
<time>2020-09-06T08:43:17Z</time>
</trkpt>
<trkpt lat="48.8286517" lon="2.8931364">
<ele>94.93</ele>
<time>2020-09-06T08:43:23Z</time>
</trkpt>
<trkpt lat="48.8284717" lon="2.8930803">
<ele>97.23</ele>
<time>2020-09-06T08:43:37Z</time>
</trkpt>
<trkpt lat="48.8283308" lon="2.8928819">
<ele>98.18</ele>
<time>2020-09-06T08:43:45Z</time>
</trkpt>
<trkpt lat="48.8281383" lon="2.8927797">
<ele>101.32</ele>
<time>2020-09-06T08:43:52Z</time>
</trkpt>
<trkpt lat="48.8279425" lon="2.8926886">
<ele>101.78</ele>
<time>2020-09-06T08:43:58Z</time>
</trkpt>
<trkpt lat="48.8277559" lon="2.8925514">
<ele>103.10</ele>
<time>2020-09-06T08:44:03Z</time>
</trkpt>
<trkpt lat="48.8275916" lon="2.8924129">
<ele>107.58</ele>
<time>2020-09-06T08:44:10Z</time>
</trkpt>
<trkpt lat="48.8274006" lon="2.8923134">
<ele>110.14</ele>
<time>2020-09-06T08:44:18Z</time>
</trkpt>
<trkpt lat="48.8272027" lon="2.8923664">
<ele>110.76</ele>
<time>2020-09-06T08:44:24Z</time>
</trkpt>
<trkpt lat="48.8270091" lon="2.8923129">
<ele>112.13</ele>
<time>2020-09-06T08:44:32Z</time>
</trkpt>
<trkpt lat="48.8268305" lon="2.8922293">
<ele>113.75</ele>
<time>2020-09-06T08:44:40Z</time>
</trkpt>
<trkpt lat="48.8266403" lon="2.8922211">
<ele>115.67</ele>
<time>2020-09-06T08:44:47Z</time>
</trkpt>
<trkpt lat="48.8264539" lon="2.8921597">
<ele>115.10</ele>
<time>2020-09-06T08:44:55Z</time>
</trkpt>
<trkpt lat="48.8262546" lon="2.8921158">
<ele>115.55</ele>
<time>2020-09-06T08:45:03Z</time>
</trkpt>
<trkpt lat="48.8260562" lon="2.8920931">
<ele>119.11</ele>
<time>2020-09-06T08:45:10Z</time>
</trkpt>
<trkpt lat="48.8258689" lon="2.8920634">
<ele>120.12</ele>
<time>2020-09-06T08:45:15Z</time>
</trkpt>
<trkpt lat="48.8256915" lon="2.8921462">
<ele>124.05</ele>
<time>2020-09-06T08:45:23Z</time>
</trkpt>
<trkpt lat="48.8255237" lon="2.8920330">
<ele>123.63</ele>
<time>2020-09-06T08:45:40Z</time>
</trkpt>
<trkpt lat="48.8253226" lon="2.8920442">
<ele>127.37</ele>
<time>2020-09-06T08:45:50Z</time>
</trkpt>
<trkpt lat="48.8251351" lon="2.8920395">
<ele>126.44</ele>
<time>2020-09-06T08:45:56Z</time>
</trkpt>
<trkpt lat="48.8249270" lon="2.8920524">
<ele>127.54</ele>
<time>2020-09-06T08:46:03Z</time>
</trkpt>
<trkpt lat="48.8246959" lon="2.8920606">
<ele>127.06</ele>
<time>2020-09-06T08:46:10Z</time>
</trkpt>
<trkpt lat="48.8245041" lon="2.8920579">
<ele>127.98</ele>
<time>2020-09-06T08:46:16Z</time>
</trkpt>
<trkpt lat="48.8242859" lon="2.8920739">
<ele>128.79</ele>
<time>2020-09-06T08:46:21Z</time>
</trkpt>
<trkpt lat="48.8240886" lon="2.8921049">
<ele>129.79</ele>
<time>2020-09-06T08:46:25Z</time>
</trkpt>
<trkpt lat="48.8238712" lon="2.8921052">
<ele>129.85</ele>
<time>2020-09-06T08:46:29Z</time>
</trkpt>
<trkpt lat="48.8236690" lon="2.8921185">
<ele>131.28</ele>
<time>2020-09-06T08:46:33Z</time>
</trkpt>
<trkpt lat="48.8234768" lon="2.8921191">
<ele>130.30</ele>
<time>2020-09-06T08:46:36Z</time>
</trkpt>
<trkpt lat="48.8232896" lon="2.8921235">
<ele>129.72</ele>
<time>2020-09-06T08:46:39Z</time>
</trkpt>
<trkpt lat="48.8231034" lon="2.8921124">
<ele>129.38</ele>
<time>2020-09-06T08:46:42Z</time>
</trkpt>
<trkpt lat="48.8228727" lon="2.8921136">
<ele>129.20</ele>
<time>2020-09-06T08:46:46Z</time>
</trkpt>
<trkpt lat="48.8226492" lon="2.8921458">
<ele>128.82</ele>
<time>2020-09-06T08:46:50Z</time>
</trkpt>
<trkpt lat="48.8224188" lon="2.8921730">
<ele>128.96</ele>
<time>2020-09-06T08:46:54Z</time>
</trkpt>
<trkpt lat="48.8221989" lon="2.8921893">
<ele>128.83</ele>
<time>2020-09-06T08:46:58Z</time>
</trkpt>
<trkpt lat="48.8219735" lon="2.8922119">
<ele>128.30</ele>
<time>2020-09-06T08:47:02Z</time>
</trkpt>
<trkpt lat="48.8217498" lon="2.8922270">
<ele>127.84</ele>
<time>2020-09-06T08:47:06Z</time>
</trkpt>
<trkpt lat="48.8215253" lon="2.8922344">
<ele>127.30</ele>
<time>2020-09-06T08:47:10Z</time>
</trkpt>
<trkpt lat="48.8213301" lon="2.8922369">
<ele>127.79</ele>
<time>2020-09-06T08:47:14Z</time>
</trkpt>
<trkpt lat="48.8211446" lon="2.8922092">
<ele>127.35</ele>
<time>2020-09-06T08:47:21Z</time>
</trkpt>
<trkpt lat="48.8211472" lon="2.8925095">
<ele>124.99</ele>
<time>2020-09-06T08:48:07Z</time>
</trkpt>
<trkpt lat="48.8212104" lon="2.8927879">
<ele>123.31</ele>
<time>2020-09-06T08:48:15Z</time>
</trkpt>
<trkpt lat="48.8212591" lon="2.8930720">
<ele>122.82</ele>
<time>2020-09-06T08:48:21Z</time>
</trkpt>
<trkpt lat="48.8213260" lon="2.8933760">
<ele>122.22</ele>
<time>2020-09-06T08:48:27Z</time>
</trkpt>
<trkpt lat="48.8213741" lon="2.8936703">
<ele>121.18</ele>
<time>2020-09-06T08:48:32Z</time>
</trkpt>
<trkpt lat="48.8214475" lon="2.8939583">
<ele>120.80</ele>
<time>2020-09-06T08:48:37Z</time>
</trkpt>
<trkpt lat="48.8215034" lon="2.8942532">
<ele>120.46</ele>
<time>2020-09-06T08:48:42Z</time>
</trkpt>
<trkpt lat="48.8215622" lon="2.8945325">
<ele>119.78</ele>
<time>2020-09-06T08:48:47Z</time>
</trkpt>
<trkpt lat="48.8216195" lon="2.8948185">
<ele>119.66</ele>
<time>2020-09-06T08:48:52Z</time>
</trkpt>
<trkpt lat="48.8216790" lon="2.8951334">
<ele>118.65</ele>
<time>2020-09-06T08:48:58Z</time>
</trkpt>
<trkpt lat="48.8217438" lon="2.8954349">
<ele>117.74</ele>
<time>2020-09-06T08:49:03Z</time>
</trkpt>
<trkpt lat="48.8217950" lon="2.8957471">
<ele>115.83</ele>
<time>2020-09-06T08:49:08Z</time>
</trkpt>
<trkpt lat="48.8218527" lon="2.8960094">
<ele>114.38</ele>
<time>2020-09-06T08:49:12Z</time>
</trkpt>
<trkpt lat="48.8219008" lon="2.8962974">
<ele>113.24</ele>
<time>2020-09-06T08:49:16Z</time>
</trkpt>
<trkpt lat="48.8219605" lon="2.8965982">
<ele>111.95</ele>
<time>2020-09-06T08:49:20Z</time>
</trkpt>
<trkpt lat="48.8220209" lon="2.8969086">
<ele>109.86</ele>
<time>2020-09-06T08:49:25Z</time>
</trkpt>
<trkpt lat="48.8220792" lon="2.8971676">
<ele>108.34</ele>
<time>2020-09-06T08:49:29Z</time>
</trkpt>
<trkpt lat="48.8221072" lon="2.8974862">
<ele>106.10</ele>
<time>2020-09-06T08:49:34Z</time>
</trkpt>
<trkpt lat="48.8220721" lon="2.8977626">
<ele>104.24</ele>
<time>2020-09-06T08:49:39Z</time>
</trkpt>
<trkpt lat="48.8220141" lon="2.8980628">
<ele>101.79</ele>
<time>2020-09-06T08:49:44Z</time>
</trkpt>
<trkpt lat="48.8219513" lon="2.8983891">
<ele>98.90</ele>
<time>2020-09-06T08:49:49Z</time>
</trkpt>
<trkpt lat="48.8218864" lon="2.8986623">
<ele>96.26</ele>
<time>2020-09-06T08:49:53Z</time>
</trkpt>
<trkpt lat="48.8218212" lon="2.8989613">
<ele>94.01</ele>
<time>2020-09-06T08:49:57Z</time>
</trkpt>
<trkpt lat="48.8217572" lon="2.8992552">
<ele>91.76</ele>
<time>2020-09-06T08:50:01Z</time>
</trkpt>
<trkpt lat="48.8217022" lon="2.8995328">
<ele>88.82</ele>
<time>2020-09-06T08:50:05Z</time>
</trkpt>
<trkpt lat="48.8216301" lon="2.8998196">
<ele>87.15</ele>
<time>2020-09-06T08:50:09Z</time>
</trkpt>
<trkpt lat="48.8215596" lon="2.9000926">
<ele>85.04</ele>
<time>2020-09-06T08:50:13Z</time>
</trkpt>
<trkpt lat="48.8214841" lon="2.9003764">
<ele>82.94</ele>
<time>2020-09-06T08:50:18Z</time>
</trkpt>
<trkpt lat="48.8214271" lon="2.9006405">
<ele>81.55</ele>
<time>2020-09-06T08:50:22Z</time>
</trkpt>
<trkpt lat="48.8213454" lon="2.9009097">
<ele>80.50</ele>
<time>2020-09-06T08:50:27Z</time>
</trkpt>
<trkpt lat="48.8212749" lon="2.9012242">
<ele>79.45</ele>
<time>2020-09-06T08:50:32Z</time>
</trkpt>
<trkpt lat="48.8211907" lon="2.9015622">
<ele>77.42</ele>
<time>2020-09-06T08:50:36Z</time>
</trkpt>
<trkpt lat="48.8211333" lon="2.9018266">
<ele>76.69</ele>
<time>2020-09-06T08:50:39Z</time>
</trkpt>
<trkpt lat="48.8210657" lon="2.9021440">
<ele>75.41</ele>
<time>2020-09-06T08:50:43Z</time>
</trkpt>
<trkpt lat="48.8210129" lon="2.9024266">
<ele>74.61</ele>
<time>2020-09-06T08:50:47Z</time>
</trkpt>
<trkpt lat="48.8209676" lon="2.9027079">
<ele>72.98</ele>
<time>2020-09-06T08:50:51Z</time>
</trkpt>
<trkpt lat="48.8209239" lon="2.9029940">
<ele>71.91</ele>
<time>2020-09-06T08:50:55Z</time>
</trkpt>
<trkpt lat="48.8208551" lon="2.9033291">
<ele>70.58</ele>
<time>2020-09-06T08:51:00Z</time>
</trkpt>
<trkpt lat="48.8207909" lon="2.9036532">
<ele>68.57</ele>
<time>2020-09-06T08:51:04Z</time>
</trkpt>
<trkpt lat="48.8206093" lon="2.9037798">
<ele>68.54</ele>
<time>2020-09-06T08:51:09Z</time>
</trkpt>
<trkpt lat="48.8204113" lon="2.9037794">
<ele>70.67</ele>
<time>2020-09-06T08:51:16Z</time>
</trkpt>
<trkpt lat="48.8202266" lon="2.9037775">
<ele>71.85</ele>
<time>2020-09-06T08:51:23Z</time>
</trkpt>
<trkpt lat="48.8200396" lon="2.9037648">
<ele>70.95</ele>
<time>2020-09-06T08:51:30Z</time>
</trkpt>
<trkpt lat="48.8198358" lon="2.9037518">
<ele>70.11</ele>
<time>2020-09-06T08:51:38Z</time>
</trkpt>
<trkpt lat="48.8196305" lon="2.9037377">
<ele>70.85</ele>
<time>2020-09-06T08:51:45Z</time>
</trkpt>
<trkpt lat="48.8194311" lon="2.9037025">
<ele>71.87</ele>
<time>2020-09-06T08:51:51Z</time>
</trkpt>
<trkpt lat="48.8192433" lon="2.9036621">
<ele>72.32</ele>
<time>2020-09-06T08:51:57Z</time>
</trkpt>
<trkpt lat="48.8190567" lon="2.9036161">
<ele>74.40</ele>
<time>2020-09-06T08:52:03Z</time>
</trkpt>
<trkpt lat="48.8188602" lon="2.9035484">
<ele>75.45</ele>
<time>2020-09-06T08:52:09Z</time>
</trkpt>
<trkpt lat="48.8186570" lon="2.9035027">
<ele>76.34</ele>
<time>2020-09-06T08:52:15Z</time>
</trkpt>
<trkpt lat="48.8184520" lon="2.9034540">
<ele>77.66</ele>
<time>2020-09-06T08:52:21Z</time>
</trkpt>
<trkpt lat="48.8182669" lon="2.9034013">
<ele>77.85</ele>
<time>2020-09-06T08:52:26Z</time>
</trkpt>
<trkpt lat="48.8180686" lon="2.9033275">
<ele>77.76</ele>
<time>2020-09-06T08:52:31Z</time>
</trkpt>
<trkpt lat="48.8178852" lon="2.9032011">
<ele>77.03</ele>
<time>2020-09-06T08:52:36Z</time>
</trkpt>
<trkpt lat="48.8177137" lon="2.9030583">
<ele>77.21</ele>
<time>2020-09-06T08:52:41Z</time>
</trkpt>
<trkpt lat="48.8175521" lon="2.9028955">
<ele>76.66</ele>
<time>2020-09-06T08:52:46Z</time>
</trkpt>
<trkpt lat="48.8173918" lon="2.9027470">
<ele>76.32</ele>
<time>2020-09-06T08:52:51Z</time>
</trkpt>
<trkpt lat="48.8172130" lon="2.9025616">
<ele>75.61</ele>
<time>2020-09-06T08:52:57Z</time>
</trkpt>
<trkpt lat="48.8170563" lon="2.9024227">
<ele>76.08</ele>
<time>2020-09-06T08:53:02Z</time>
</trkpt>
<trkpt lat="48.8169041" lon="2.9022673">
<ele>75.79</ele>
<time>2020-09-06T08:53:07Z</time>
</trkpt>
<trkpt lat="48.8167383" lon="2.9020680">
<ele>75.61</ele>
<time>2020-09-06T08:53:13Z</time>
</trkpt>
<trkpt lat="48.8165928" lon="2.9018500">
<ele>76.61</ele>
<time>2020-09-06T08:53:19Z</time>
</trkpt>
<trkpt lat="48.8164437" lon="2.9016337">
<ele>76.99</ele>
<time>2020-09-06T08:53:25Z</time>
</trkpt>
<trkpt lat="48.8162896" lon="2.9014309">
<ele>78.06</ele>
<time>2020-09-06T08:53:31Z</time>
</trkpt>
<trkpt lat="48.8161404" lon="2.9012033">
<ele>79.01</ele>
<time>2020-09-06T08:53:37Z</time>
</trkpt>
<trkpt lat="48.8159901" lon="2.9009700">
<ele>79.42</ele>
<time>2020-09-06T08:53:43Z</time>
</trkpt>
<trkpt lat="48.8158420" lon="2.9007484">
<ele>79.14</ele>
<time>2020-09-06T08:53:49Z</time>
</trkpt>
<trkpt lat="48.8157034" lon="2.9005480">
<ele>78.56</ele>
<time>2020-09-06T08:53:54Z</time>
</trkpt>
<trkpt lat="48.8155585" lon="2.9003619">
<ele>77.68</ele>
<time>2020-09-06T08:53:59Z</time>
</trkpt>
<trkpt lat="48.8153959" lon="2.9002007">
<ele>76.66</ele>
<time>2020-09-06T08:54:04Z</time>
</trkpt>
<trkpt lat="48.8152078" lon="2.9000630">
<ele>76.57</ele>
<time>2020-09-06T08:54:09Z</time>
</trkpt>
<trkpt lat="48.8150156" lon="2.8999411">
<ele>76.15</ele>
<time>2020-09-06T08:54:14Z</time>
</trkpt>
<trkpt lat="48.8148173" lon="2.8998261">
<ele>76.05</ele>
<time>2020-09-06T08:54:19Z</time>
</trkpt>
<trkpt lat="48.8146163" lon="2.8997194">
<ele>75.10</ele>
<time>2020-09-06T08:54:24Z</time>
</trkpt>
<trkpt lat="48.8144322" lon="2.8996300">
<ele>75.09</ele>
<time>2020-09-06T08:54:29Z</time>
</trkpt>
<trkpt lat="48.8142356" lon="2.8995443">
<ele>75.26</ele>
<time>2020-09-06T08:54:34Z</time>
</trkpt>
<trkpt lat="48.8140438" lon="2.8994512">
<ele>76.25</ele>
<time>2020-09-06T08:54:39Z</time>
</trkpt>
<trkpt lat="48.8138479" lon="2.8993511">
<ele>76.19</ele>
<time>2020-09-06T08:54:44Z</time>
</trkpt>
<trkpt lat="48.8136791" lon="2.8992136">
<ele>75.99</ele>
<time>2020-09-06T08:54:49Z</time>
</trkpt>
<trkpt lat="48.8135022" lon="2.8990694">
<ele>76.23</ele>
<time>2020-09-06T08:54:54Z</time>
</trkpt>
<trkpt lat="48.8133380" lon="2.8989219">
<ele>76.66</ele>
<time>2020-09-06T08:54:59Z</time>
</trkpt>
<trkpt lat="48.8131781" lon="2.8987950">
<ele>77.74</ele>
<time>2020-09-06T08:55:04Z</time>
</trkpt>
<trkpt lat="48.8129919" lon="2.8986470">
<ele>77.92</ele>
<time>2020-09-06T08:55:10Z</time>
</trkpt>
<trkpt lat="48.8127860" lon="2.8985544">
<ele>77.37</ele>
<time>2020-09-06T08:55:16Z</time>
</trkpt>
<trkpt lat="48.8126017" lon="2.8985891">
<ele>76.12</ele>
<time>2020-09-06T08:55:21Z</time>
</trkpt>
<trkpt lat="48.8124119" lon="2.8986729">
<ele>73.65</ele>
<time>2020-09-06T08:55:26Z</time>
</trkpt>
<trkpt lat="48.8122114" lon="2.8987175">
<ele>71.66</ele>
<time>2020-09-06T08:55:31Z</time>
</trkpt>
<trkpt lat="48.8120268" lon="2.8986761">
<ele>70.47</ele>
<time>2020-09-06T08:55:35Z</time>
</trkpt>
<trkpt lat="48.8118480" lon="2.8985706">
<ele>68.93</ele>
<time>2020-09-06T08:55:39Z</time>
</trkpt>
<trkpt lat="48.8116592" lon="2.8984606">
<ele>68.20</ele>
<time>2020-09-06T08:55:43Z</time>
</trkpt>
<trkpt lat="48.8114815" lon="2.8983504">
<ele>67.44</ele>
<time>2020-09-06T08:55:47Z</time>
</trkpt>
<trkpt lat="48.8112696" lon="2.8983751">
<ele>68.37</ele>
<time>2020-09-06T08:55:54Z</time>
</trkpt>
<trkpt lat="48.8110766" lon="2.8983582">
<ele>66.60</ele>
<time>2020-09-06T08:55:57Z</time>
</trkpt>
<trkpt lat="48.8108637" lon="2.8983224">
<ele>65.93</ele>
<time>2020-09-06T08:56:02Z</time>
</trkpt>
<trkpt lat="48.8106035" lon="2.8983365">
<ele>69.81</ele>
<time>2020-09-06T08:56:08Z</time>
</trkpt>
<trkpt lat="48.8104023" lon="2.8983963">
<ele>71.54</ele>
<time>2020-09-06T08:56:13Z</time>
</trkpt>
<trkpt lat="48.8102013" lon="2.8984546">
<ele>71.94</ele>
<time>2020-09-06T08:56:17Z</time>
</trkpt>
<trkpt lat="48.8100183" lon="2.8984869">
<ele>70.66</ele>
<time>2020-09-06T08:56:21Z</time>
</trkpt>
<trkpt lat="48.8098261" lon="2.8984882">
<ele>69.80</ele>
<time>2020-09-06T08:56:26Z</time>
</trkpt>
<trkpt lat="48.8096548" lon="2.8983708">
<ele>71.90</ele>
<time>2020-09-06T08:56:32Z</time>
</trkpt>
<trkpt lat="48.8094599" lon="2.8983603">
<ele>73.61</ele>
<time>2020-09-06T08:56:38Z</time>
</trkpt>
<trkpt lat="48.8092690" lon="2.8984643">
<ele>76.81</ele>
<time>2020-09-06T08:56:45Z</time>
</trkpt>
<trkpt lat="48.8090744" lon="2.8985063">
<ele>77.61</ele>
<time>2020-09-06T08:56:48Z</time>
</trkpt>
<trkpt lat="48.8088987" lon="2.8985732">
<ele>76.94</ele>
<time>2020-09-06T08:56:50Z</time>
</trkpt>
<trkpt lat="48.8087297" lon="2.8986796">
<ele>77.66</ele>
<time>2020-09-06T08:56:53Z</time>
</trkpt>
<trkpt lat="48.8085490" lon="2.8987696">
<ele>76.48</ele>
<time>2020-09-06T08:56:56Z</time>
</trkpt>
<trkpt lat="48.8083452" lon="2.8988311">
<ele>76.30</ele>
<time>2020-09-06T08:56:59Z</time>
</trkpt>
<trkpt lat="48.8081568" lon="2.8988700">
<ele>76.91</ele>
<time>2020-09-06T08:57:02Z</time>
</trkpt>
<trkpt lat="48.8079675" lon="2.8989304">
<ele>77.00</ele>
<time>2020-09-06T08:57:06Z</time>
</trkpt>
<trkpt lat="48.8077758" lon="2.8989487">
<ele>76.37</ele>
<time>2020-09-06T08:57:09Z</time>
</trkpt>
<trkpt lat="48.8075631" lon="2.8989897">
<ele>76.71</ele>
<time>2020-09-06T08:57:14Z</time>
</trkpt>
<trkpt lat="48.8073270" lon="2.8990607">
<ele>80.17</ele>
<time>2020-09-06T08:57:21Z</time>
</trkpt>
<trkpt lat="48.8071373" lon="2.8990924">
<ele>80.05</ele>
<time>2020-09-06T08:57:25Z</time>
</trkpt>
<trkpt lat="48.8069291" lon="2.8991070">
<ele>75.96</ele>
<time>2020-09-06T08:57:30Z</time>
</trkpt>
<trkpt lat="48.8067003" lon="2.8991763">
<ele>78.03</ele>
<time>2020-09-06T08:57:33Z</time>
</trkpt>
<trkpt lat="48.8064796" lon="2.8991968">
<ele>77.66</ele>
<time>2020-09-06T08:57:37Z</time>
</trkpt>
<trkpt lat="48.8063023" lon="2.8992566">
<ele>75.90</ele>
<time>2020-09-06T08:57:41Z</time>
</trkpt>
<trkpt lat="48.8060884" lon="2.8993119">
<ele>78.10</ele>
<time>2020-09-06T08:57:47Z</time>
</trkpt>
<trkpt lat="48.8058847" lon="2.8993968">
<ele>77.84</ele>
<time>2020-09-06T08:57:50Z</time>
</trkpt>
<trkpt lat="48.8055858" lon="2.8994944">
<ele>80.95</ele>
<time>2020-09-06T08:57:56Z</time>
</trkpt>
<trkpt lat="48.8054009" lon="2.8995696">
<ele>82.19</ele>
<time>2020-09-06T08:57:59Z</time>
</trkpt>
<trkpt lat="48.8052000" lon="2.8995832">
<ele>82.18</ele>
<time>2020-09-06T08:58:03Z</time>
</trkpt>
<trkpt lat="48.8049987" lon="2.8996003">
<ele>82.14</ele>
<time>2020-09-06T08:58:07Z</time>
</trkpt>
<trkpt lat="48.8047841" lon="2.8995919">
<ele>81.88</ele>
<time>2020-09-06T08:58:11Z</time>
</trkpt>
<trkpt lat="48.8045994" lon="2.8996154">
<ele>81.51</ele>
<time>2020-09-06T08:58:15Z</time>
</trkpt>
<trkpt lat="48.8044076" lon="2.8996313">
<ele>81.47</ele>
<time>2020-09-06T08:58:19Z</time>
</trkpt>
<trkpt lat="48.8042195" lon="2.8996654">
<ele>83.01</ele>
<time>2020-09-06T08:58:23Z</time>
</trkpt>
<trkpt lat="48.8040284" lon="2.8997013">
<ele>84.90</ele>
<time>2020-09-06T08:58:29Z</time>
</trkpt>
<trkpt lat="48.8038444" lon="2.8997165">
<ele>85.47</ele>
<time>2020-09-06T08:58:35Z</time>
</trkpt>
<trkpt lat="48.8036437" lon="2.8997011">
<ele>85.71</ele>
<time>2020-09-06T08:58:43Z</time>
</trkpt>
<trkpt lat="48.8034445" lon="2.8996824">
<ele>86.05</ele>
<time>2020-09-06T08:58:48Z</time>
</trkpt>
<trkpt lat="48.8032638" lon="2.8997050">
<ele>84.64</ele>
<time>2020-09-06T09:00:19Z</time>
</trkpt>
<trkpt lat="48.8030691" lon="2.8996984">
<ele>85.05</ele>
<time>2020-09-06T09:00:24Z</time>
</trkpt>
<trkpt lat="48.8028547" lon="2.8996676">
<ele>86.99</ele>
<time>2020-09-06T09:00:29Z</time>
</trkpt>
<trkpt lat="48.8026752" lon="2.8996327">
<ele>88.06</ele>
<time>2020-09-06T09:00:33Z</time>
</trkpt>
<trkpt lat="48.8024814" lon="2.8995743">
<ele>85.12</ele>
<time>2020-09-06T09:00:39Z</time>
</trkpt>
<trkpt lat="48.8022719" lon="2.8995309">
<ele>84.33</ele>
<time>2020-09-06T09:00:42Z</time>
</trkpt>
<trkpt lat="48.8020681" lon="2.8994936">
<ele>83.65</ele>
<time>2020-09-06T09:00:44Z</time>
</trkpt>
<trkpt lat="48.8018512" lon="2.8994747">
<ele>83.20</ele>
<time>2020-09-06T09:00:47Z</time>
</trkpt>
<trkpt lat="48.8016559" lon="2.8994804">
<ele>82.21</ele>
<time>2020-09-06T09:00:50Z</time>
</trkpt>
<trkpt lat="48.8014566" lon="2.8994662">
<ele>78.63</ele>
<time>2020-09-06T09:00:53Z</time>
</trkpt>
<trkpt lat="48.8012554" lon="2.8994790">
<ele>76.72</ele>
<time>2020-09-06T09:00:56Z</time>
</trkpt>
<trkpt lat="48.8010161" lon="2.8994601">
<ele>76.12</ele>
<time>2020-09-06T09:01:00Z</time>
</trkpt>
<trkpt lat="48.8008405" lon="2.8993703">
<ele>74.76</ele>
<time>2020-09-06T09:01:05Z</time>
</trkpt>
<trkpt lat="48.8006547" lon="2.8993357">
<ele>74.53</ele>
<time>2020-09-06T09:01:36Z</time>
</trkpt>
<trkpt lat="48.8004787" lon="2.8992058">
<ele>72.31</ele>
<time>2020-09-06T09:01:41Z</time>
</trkpt>
<trkpt lat="48.8003021" lon="2.8991460">
<ele>72.57</ele>
<time>2020-09-06T09:01:45Z</time>
</trkpt>
<trkpt lat="48.8001020" lon="2.8990932">
<ele>73.41</ele>
<time>2020-09-06T09:01:51Z</time>
</trkpt>
<trkpt lat="48.7998976" lon="2.8990664">
<ele>74.12</ele>
<time>2020-09-06T09:01:57Z</time>
</trkpt>
<trkpt lat="48.7997105" lon="2.8990247">
<ele>74.65</ele>
<time>2020-09-06T09:02:03Z</time>
</trkpt>
<trkpt lat="48.7995286" lon="2.8990091">
<ele>75.22</ele>
<time>2020-09-06T09:02:08Z</time>
</trkpt>
<trkpt lat="48.7993430" lon="2.8990010">
<ele>76.93</ele>
<time>2020-09-06T09:02:13Z</time>
</trkpt>
<trkpt lat="48.7991492" lon="2.8990600">
<ele>80.18</ele>
<time>2020-09-06T09:02:19Z</time>
</trkpt>
<trkpt lat="48.7992121" lon="2.8994086">
<ele>80.62</ele>
<time>2020-09-06T09:02:26Z</time>
</trkpt>
<trkpt lat="48.7992970" lon="2.8996866">
<ele>79.79</ele>
<time>2020-09-06T09:02:30Z</time>
</trkpt>
<trkpt lat="48.7993642" lon="2.8999513">
<ele>78.83</ele>
<time>2020-09-06T09:02:33Z</time>
</trkpt>
<trkpt lat="48.7994306" lon="2.9002370">
<ele>78.18</ele>
<time>2020-09-06T09:02:36Z</time>
</trkpt>
<trkpt lat="48.7994945" lon="2.9005460">
<ele>77.47</ele>
<time>2020-09-06T09:02:39Z</time>
</trkpt>
<trkpt lat="48.7996108" lon="2.9008390">
<ele>76.00</ele>
<time>2020-09-06T09:02:42Z</time>
</trkpt>
<trkpt lat="48.7997457" lon="2.9011172">
<ele>74.15</ele>
<time>2020-09-06T09:02:45Z</time>
</trkpt>
<trkpt lat="48.7998861" lon="2.9013971">
<ele>72.29</ele>
<time>2020-09-06T09:02:48Z</time>
</trkpt>
<trkpt lat="48.8000124" lon="2.9016967">
<ele>71.20</ele>
<time>2020-09-06T09:02:51Z</time>
</trkpt>
<trkpt lat="48.8001701" lon="2.9019701">
<ele>69.31</ele>
<time>2020-09-06T09:02:54Z</time>
</trkpt>
<trkpt lat="48.8003207" lon="2.9022395">
<ele>68.20</ele>
<time>2020-09-06T09:02:57Z</time>
</trkpt>
<trkpt lat="48.8004598" lon="2.9025155">
<ele>67.40</ele>
<time>2020-09-06T09:03:00Z</time>
</trkpt>
<trkpt lat="48.8005961" lon="2.9027969">
<ele>66.82</ele>
<time>2020-09-06T09:03:03Z</time>
</trkpt>
<trkpt lat="48.8007148" lon="2.9030524">
<ele>66.13</ele>
<time>2020-09-06T09:03:06Z</time>
</trkpt>
<trkpt lat="48.8007986" lon="2.9033095">
<ele>64.67</ele>
<time>2020-09-06T09:03:12Z</time>
</trkpt>
<trkpt lat="48.8006700" lon="2.9035211">
<ele>65.63</ele>
<time>2020-09-06T09:03:16Z</time>
</trkpt>
<trkpt lat="48.8005389" lon="2.9038216">
<ele>65.88</ele>
<time>2020-09-06T09:03:20Z</time>
</trkpt>
<trkpt lat="48.8004617" lon="2.9040847">
<ele>66.11</ele>
<time>2020-09-06T09:03:23Z</time>
</trkpt>
<trkpt lat="48.8003902" lon="2.9043384">
<ele>66.30</ele>
<time>2020-09-06T09:03:26Z</time>
</trkpt>
<trkpt lat="48.8002885" lon="2.9046530">
<ele>66.65</ele>
<time>2020-09-06T09:03:30Z</time>
</trkpt>
<trkpt lat="48.8001970" lon="2.9049847">
<ele>67.24</ele>
<time>2020-09-06T09:03:34Z</time>
</trkpt>
<trkpt lat="48.8001207" lon="2.9052894">
<ele>67.82</ele>
<time>2020-09-06T09:03:38Z</time>
</trkpt>
<trkpt lat="48.8000225" lon="2.9055969">
<ele>68.92</ele>
<time>2020-09-06T09:03:42Z</time>
</trkpt>
<trkpt lat="48.7999247" lon="2.9059229">
<ele>69.76</ele>
<time>2020-09-06T09:03:46Z</time>
</trkpt>
<trkpt lat="48.7998406" lon="2.9062346">
<ele>69.56</ele>
<time>2020-09-06T09:03:50Z</time>
</trkpt>
<trkpt lat="48.7997508" lon="2.9065516">
<ele>70.47</ele>
<time>2020-09-06T09:03:54Z</time>
</trkpt>
<trkpt lat="48.7996341" lon="2.9068265">
<ele>70.35</ele>
<time>2020-09-06T09:03:58Z</time>
</trkpt>
<trkpt lat="48.7995220" lon="2.9070458">
<ele>71.74</ele>
<time>2020-09-06T09:04:02Z</time>
</trkpt>
<trkpt lat="48.7995796" lon="2.9073531">
<ele>70.85</ele>
<time>2020-09-06T09:04:07Z</time>
</trkpt>
<trkpt lat="48.7996563" lon="2.9076839">
<ele>71.36</ele>
<time>2020-09-06T09:04:11Z</time>
</trkpt>
<trkpt lat="48.7997327" lon="2.9079816">
<ele>73.91</ele>
<time>2020-09-06T09:04:15Z</time>
</trkpt>
<trkpt lat="48.7997751" lon="2.9082561">
<ele>76.19</ele>
<time>2020-09-06T09:04:18Z</time>
</trkpt>
<trkpt lat="48.7998427" lon="2.9085649">
<ele>79.19</ele>
<time>2020-09-06T09:04:22Z</time>
</trkpt>
<trkpt lat="48.7998976" lon="2.9088787">
<ele>79.46</ele>
<time>2020-09-06T09:04:26Z</time>
</trkpt>
<trkpt lat="48.7998603" lon="2.9091765">
<ele>81.02</ele>
<time>2020-09-06T09:04:31Z</time>
</trkpt>
<trkpt lat="48.7997228" lon="2.9093795">
<ele>78.81</ele>
<time>2020-09-06T09:04:36Z</time>
</trkpt>
<trkpt lat="48.7996426" lon="2.9096425">
<ele>81.15</ele>
<time>2020-09-06T09:04:42Z</time>
</trkpt>
<trkpt lat="48.7995132" lon="2.9098646">
<ele>83.88</ele>
<time>2020-09-06T09:04:50Z</time>
</trkpt>
<trkpt lat="48.7994699" lon="2.9101658">
<ele>85.80</ele>
<time>2020-09-06T09:04:57Z</time>
</trkpt>
<trkpt lat="48.7995033" lon="2.9104375">
<ele>88.28</ele>
<time>2020-09-06T09:05:05Z</time>
</trkpt>
<trkpt lat="48.7994992" lon="2.9107134">
<ele>91.35</ele>
<time>2020-09-06T09:05:11Z</time>
</trkpt>
<trkpt lat="48.7995093" lon="2.9109994">
<ele>93.64</ele>
<time>2020-09-06T09:05:17Z</time>
</trkpt>
<trkpt lat="48.7995583" lon="2.9112697">
<ele>97.10</ele>
<time>2020-09-06T09:05:23Z</time>
</trkpt>
<trkpt lat="48.7996705" lon="2.9115004">
<ele>98.72</ele>
<time>2020-09-06T09:05:29Z</time>
</trkpt>
<trkpt lat="48.7997848" lon="2.9117115">
<ele>97.37</ele>
<time>2020-09-06T09:05:37Z</time>
</trkpt>
<trkpt lat="48.7998540" lon="2.9119833">
<ele>98.84</ele>
<time>2020-09-06T09:05:43Z</time>
</trkpt>
<trkpt lat="48.7998754" lon="2.9123345">
<ele>100.85</ele>
<time>2020-09-06T09:05:48Z</time>
</trkpt>
<trkpt lat="48.7998336" lon="2.9126490">
<ele>100.68</ele>
<time>2020-09-06T09:05:53Z</time>
</trkpt>
<trkpt lat="48.7997897" lon="2.9129534">
<ele>102.69</ele>
<time>2020-09-06T09:05:59Z</time>
</trkpt>
<trkpt lat="48.7997637" lon="2.9132536">
<ele>105.09</ele>
<time>2020-09-06T09:06:05Z</time>
</trkpt>
<trkpt lat="48.7997745" lon="2.9135278">
<ele>106.15</ele>
<time>2020-09-06T09:06:10Z</time>
</trkpt>
<trkpt lat="48.7997659" lon="2.9138441">
<ele>105.70</ele>
<time>2020-09-06T09:06:15Z</time>
</trkpt>
<trkpt lat="48.7996777" lon="2.9141394">
<ele>110.47</ele>
<time>2020-09-06T09:06:21Z</time>
</trkpt>
<trkpt lat="48.7997302" lon="2.9144129">
<ele>112.02</ele>
<time>2020-09-06T09:06:26Z</time>
</trkpt>
<trkpt lat="48.7998273" lon="2.9146443">
<ele>112.61</ele>
<time>2020-09-06T09:06:31Z</time>
</trkpt>
<trkpt lat="48.7999592" lon="2.9148664">
<ele>112.61</ele>
<time>2020-09-06T09:06:37Z</time>
</trkpt>
<trkpt lat="48.8001107" lon="2.9151005">
<ele>112.37</ele>
<time>2020-09-06T09:06:42Z</time>
</trkpt>
<trkpt lat="48.8002185" lon="2.9153798">
<ele>114.39</ele>
<time>2020-09-06T09:06:46Z</time>
</trkpt>
<trkpt lat="48.8003235" lon="2.9156038">
<ele>114.62</ele>
<time>2020-09-06T09:06:49Z</time>
</trkpt>
<trkpt lat="48.8004160" lon="2.9158592">
<ele>115.44</ele>
<time>2020-09-06T09:06:52Z</time>
</trkpt>
<trkpt lat="48.8005220" lon="2.9161338">
<ele>114.45</ele>
<time>2020-09-06T09:06:55Z</time>
</trkpt>
<trkpt lat="48.8005640" lon="2.9164703">
<ele>116.43</ele>
<time>2020-09-06T09:06:59Z</time>
</trkpt>
<trkpt lat="48.8006199" lon="2.9167310">
<ele>117.11</ele>
<time>2020-09-06T09:07:02Z</time>
</trkpt>
<trkpt lat="48.8006521" lon="2.9170415">
<ele>117.83</ele>
<time>2020-09-06T09:07:05Z</time>
</trkpt>
<trkpt lat="48.8006630" lon="2.9173150">
<ele>118.54</ele>
<time>2020-09-06T09:07:08Z</time>
</trkpt>
<trkpt lat="48.8006926" lon="2.9175998">
<ele>118.32</ele>
<time>2020-09-06T09:07:11Z</time>
</trkpt>
<trkpt lat="48.8007579" lon="2.9179039">
<ele>119.67</ele>
<time>2020-09-06T09:07:14Z</time>
</trkpt>
<trkpt lat="48.8008124" lon="2.9181974">
<ele>120.94</ele>
<time>2020-09-06T09:07:17Z</time>
</trkpt>
<trkpt lat="48.8008541" lon="2.9184898">
<ele>121.83</ele>
<time>2020-09-06T09:07:20Z</time>
</trkpt>
<trkpt lat="48.8009018" lon="2.9187673">
<ele>122.33</ele>
<time>2020-09-06T09:07:23Z</time>
</trkpt>
<trkpt lat="48.8009605" lon="2.9190434">
<ele>122.23</ele>
<time>2020-09-06T09:07:26Z</time>
</trkpt>
<trkpt lat="48.8010036" lon="2.9193209">
<ele>122.31</ele>
<time>2020-09-06T09:07:29Z</time>
</trkpt>
<trkpt lat="48.8010498" lon="2.9195987">
<ele>122.93</ele>
<time>2020-09-06T09:07:32Z</time>
</trkpt>
<trkpt lat="48.8011182" lon="2.9199351">
<ele>123.71</ele>
<time>2020-09-06T09:07:36Z</time>
</trkpt>
<trkpt lat="48.8012584" lon="2.9201132">
<ele>125.02</ele>
<time>2020-09-06T09:08:49Z</time>
</trkpt>
<trkpt lat="48.8014485" lon="2.9201753">
<ele>124.98</ele>
<time>2020-09-06T09:08:54Z</time>
</trkpt>
<trkpt lat="48.8016349" lon="2.9202117">
<ele>124.85</ele>
<time>2020-09-06T09:08:59Z</time>
</trkpt>
<trkpt lat="48.8018313" lon="2.9202452">
<ele>124.79</ele>
<time>2020-09-06T09:09:05Z</time>
</trkpt>
<trkpt lat="48.8020148" lon="2.9202222">
<ele>125.34</ele>
<time>2020-09-06T09:09:11Z</time>
</trkpt>
<trkpt lat="48.8022189" lon="2.9202773">
<ele>125.21</ele>
<time>2020-09-06T09:09:16Z</time>
</trkpt>
<trkpt lat="48.8024467" lon="2.9203118">
<ele>125.13</ele>
<time>2020-09-06T09:09:20Z</time>
</trkpt>
<trkpt lat="48.8026363" lon="2.9203377">
<ele>125.12</ele>
<time>2020-09-06T09:09:23Z</time>
</trkpt>
<trkpt lat="48.8028749" lon="2.9203629">
<ele>124.08</ele>
<time>2020-09-06T09:09:27Z</time>
</trkpt>
<trkpt lat="48.8030539" lon="2.9204029">
<ele>122.95</ele>
<time>2020-09-06T09:09:30Z</time>
</trkpt>
<trkpt lat="48.8032335" lon="2.9204577">
<ele>122.39</ele>
<time>2020-09-06T09:09:33Z</time>
</trkpt>
<trkpt lat="48.8034643" lon="2.9205163">
<ele>122.73</ele>
<time>2020-09-06T09:09:37Z</time>
</trkpt>
<trkpt lat="48.8036868" lon="2.9205703">
<ele>122.48</ele>
<time>2020-09-06T09:09:41Z</time>
</trkpt>
<trkpt lat="48.8039160" lon="2.9206485">
<ele>124.10</ele>
<time>2020-09-06T09:09:45Z</time>
</trkpt>
<trkpt lat="48.8041684" lon="2.9207605">
<ele>122.52</ele>
<time>2020-09-06T09:09:49Z</time>
</trkpt>
<trkpt lat="48.8043881" lon="2.9208789">
<ele>121.72</ele>
<time>2020-09-06T09:09:52Z</time>
</trkpt>
<trkpt lat="48.8045865" lon="2.9209464">
<ele>121.87</ele>
<time>2020-09-06T09:09:55Z</time>
</trkpt>
<trkpt lat="48.8047643" lon="2.9209907">
<ele>122.79</ele>
<time>2020-09-06T09:09:58Z</time>
</trkpt>
<trkpt lat="48.8049507" lon="2.9209847">
<ele>121.74</ele>
<time>2020-09-06T09:10:01Z</time>
</trkpt>
<trkpt lat="48.8051505" lon="2.9209410">
<ele>123.54</ele>
<time>2020-09-06T09:10:03Z</time>
</trkpt>
<trkpt lat="48.8054021" lon="2.9208475">
<ele>123.33</ele>
<time>2020-09-06T09:10:06Z</time>
</trkpt>
<trkpt lat="48.8056068" lon="2.9207883">
<ele>121.77</ele>
<time>2020-09-06T09:10:08Z</time>
</trkpt>
<trkpt lat="48.8058659" lon="2.9207275">
<ele>121.10</ele>
<time>2020-09-06T09:10:11Z</time>
</trkpt>
<trkpt lat="48.8060923" lon="2.9206452">
<ele>117.02</ele>
<time>2020-09-06T09:10:14Z</time>
</trkpt>
<trkpt lat="48.8063015" lon="2.9208651">
<ele>102.10</ele>
<time>2020-09-06T09:10:19Z</time>
</trkpt>
<trkpt lat="48.8064713" lon="2.9211044">
<ele>98.90</ele>
<time>2020-09-06T09:10:23Z</time>
</trkpt>
<trkpt lat="48.8065848" lon="2.9213410">
<ele>96.38</ele>
<time>2020-09-06T09:10:27Z</time>
</trkpt>
<trkpt lat="48.8067491" lon="2.9215153">
<ele>94.92</ele>
<time>2020-09-06T09:10:31Z</time>
</trkpt>
<trkpt lat="48.8068916" lon="2.9216960">
<ele>94.52</ele>
<time>2020-09-06T09:10:35Z</time>
</trkpt>
<trkpt lat="48.8070480" lon="2.9219139">
<ele>93.96</ele>
<time>2020-09-06T09:10:40Z</time>
</trkpt>
<trkpt lat="48.8071958" lon="2.9221538">
<ele>93.96</ele>
<time>2020-09-06T09:10:45Z</time>
</trkpt>
<trkpt lat="48.8073563" lon="2.9223617">
<ele>92.97</ele>
<time>2020-09-06T09:10:50Z</time>
</trkpt>
<trkpt lat="48.8075086" lon="2.9225452">
<ele>91.80</ele>
<time>2020-09-06T09:10:54Z</time>
</trkpt>
<trkpt lat="48.8076693" lon="2.9227219">
<ele>91.76</ele>
<time>2020-09-06T09:10:58Z</time>
</trkpt>
<trkpt lat="48.8078216" lon="2.9229121">
<ele>91.05</ele>
<time>2020-09-06T09:11:02Z</time>
</trkpt>
<trkpt lat="48.8079731" lon="2.9231280">
<ele>90.13</ele>
<time>2020-09-06T09:11:06Z</time>
</trkpt>
<trkpt lat="48.8081203" lon="2.9233346">
<ele>90.05</ele>
<time>2020-09-06T09:11:10Z</time>
</trkpt>
<trkpt lat="48.8082950" lon="2.9235255">
<ele>89.41</ele>
<time>2020-09-06T09:11:15Z</time>
</trkpt>
<trkpt lat="48.8084654" lon="2.9236844">
<ele>88.53</ele>
<time>2020-09-06T09:11:20Z</time>
</trkpt>
<trkpt lat="48.8086186" lon="2.9238614">
<ele>88.62</ele>
<time>2020-09-06T09:11:26Z</time>
</trkpt>
<trkpt lat="48.8086210" lon="2.9241431">
<ele>90.37</ele>
<time>2020-09-06T09:12:15Z</time>
</trkpt>
<trkpt lat="48.8086613" lon="2.9244283">
<ele>92.21</ele>
<time>2020-09-06T09:12:26Z</time>
</trkpt>
<trkpt lat="48.8086640" lon="2.9247158">
<ele>93.48</ele>
<time>2020-09-06T09:12:36Z</time>
</trkpt>
<trkpt lat="48.8086634" lon="2.9250013">
<ele>94.34</ele>
<time>2020-09-06T09:12:48Z</time>
</trkpt>
<trkpt lat="48.8086522" lon="2.9252756">
<ele>95.25</ele>
<time>2020-09-06T09:13:01Z</time>
</trkpt>
<trkpt lat="48.8086318" lon="2.9255502">
<ele>97.01</ele>
<time>2020-09-06T09:13:12Z</time>
</trkpt>
<trkpt lat="48.8086351" lon="2.9258331">
<ele>98.67</ele>
<time>2020-09-06T09:24:53Z</time>
</trkpt>
<trkpt lat="48.8086242" lon="2.9261235">
<ele>99.27</ele>
<time>2020-09-06T09:24:58Z</time>
</trkpt>
<trkpt lat="48.8085971" lon="2.9264282">
<ele>100.68</ele>
<time>2020-09-06T09:25:04Z</time>
</trkpt>
<trkpt lat="48.8085725" lon="2.9267211">
<ele>101.10</ele>
<time>2020-09-06T09:25:09Z</time>
</trkpt>
<trkpt lat="48.8085336" lon="2.9270113">
<ele>103.55</ele>
<time>2020-09-06T09:25:15Z</time>
</trkpt>
<trkpt lat="48.8085076" lon="2.9272932">
<ele>103.95</ele>
<time>2020-09-06T09:25:21Z</time>
</trkpt>
<trkpt lat="48.8084783" lon="2.9275755">
<ele>105.25</ele>
<time>2020-09-06T09:25:27Z</time>
</trkpt>
<trkpt lat="48.8084143" lon="2.9278671">
<ele>107.55</ele>
<time>2020-09-06T09:25:34Z</time>
</trkpt>
<trkpt lat="48.8083850" lon="2.9281512">
<ele>107.34</ele>
<time>2020-09-06T09:25:39Z</time>
</trkpt>
<trkpt lat="48.8083607" lon="2.9284681">
<ele>108.58</ele>
<time>2020-09-06T09:25:45Z</time>
</trkpt>
<trkpt lat="48.8083451" lon="2.9287635">
<ele>109.86</ele>
<time>2020-09-06T09:25:51Z</time>
</trkpt>
<trkpt lat="48.8083528" lon="2.9291012">
<ele>112.97</ele>
<time>2020-09-06T09:25:58Z</time>
</trkpt>
<trkpt lat="48.8082881" lon="2.9293844">
<ele>115.02</ele>
<time>2020-09-06T09:26:04Z</time>
</trkpt>
<trkpt lat="48.8082466" lon="2.9296975">
<ele>113.30</ele>
<time>2020-09-06T09:26:10Z</time>
</trkpt>
<trkpt lat="48.8082241" lon="2.9299834">
<ele>115.95</ele>
<time>2020-09-06T09:26:15Z</time>
</trkpt>
<trkpt lat="48.8082005" lon="2.9302862">
<ele>117.23</ele>
<time>2020-09-06T09:26:21Z</time>
</trkpt>
<trkpt lat="48.8082767" lon="2.9305387">
<ele>118.79</ele>
<time>2020-09-06T09:26:28Z</time>
</trkpt>
<trkpt lat="48.8084617" lon="2.9305914">
<ele>120.48</ele>
<time>2020-09-06T09:26:39Z</time>
</trkpt>
<trkpt lat="48.8086466" lon="2.9306329">
<ele>123.66</ele>
<time>2020-09-06T09:26:49Z</time>
</trkpt>
<trkpt lat="48.8088278" lon="2.9306708">
<ele>124.16</ele>
<time>2020-09-06T09:26:57Z</time>
</trkpt>
<trkpt lat="48.8090104" lon="2.9307143">
<ele>123.81</ele>
<time>2020-09-06T09:27:04Z</time>
</trkpt>
<trkpt lat="48.8091992" lon="2.9307387">
<ele>124.76</ele>
<time>2020-09-06T09:27:10Z</time>
</trkpt>
<trkpt lat="48.8094046" lon="2.9307714">
<ele>125.70</ele>
<time>2020-09-06T09:27:16Z</time>
</trkpt>
<trkpt lat="48.8096119" lon="2.9307973">
<ele>125.62</ele>
<time>2020-09-06T09:27:22Z</time>
</trkpt>
<trkpt lat="48.8098223" lon="2.9308288">
<ele>125.40</ele>
<time>2020-09-06T09:27:28Z</time>
</trkpt>
<trkpt lat="48.8100292" lon="2.9308831">
<ele>125.20</ele>
<time>2020-09-06T09:27:34Z</time>
</trkpt>
<trkpt lat="48.8102160" lon="2.9309148">
<ele>124.53</ele>
<time>2020-09-06T09:27:39Z</time>
</trkpt>
<trkpt lat="48.8104032" lon="2.9309450">
<ele>123.98</ele>
<time>2020-09-06T09:27:44Z</time>
</trkpt>
<trkpt lat="48.8105967" lon="2.9309728">
<ele>122.95</ele>
<time>2020-09-06T09:27:49Z</time>
</trkpt>
<trkpt lat="48.8107956" lon="2.9310363">
<ele>122.12</ele>
<time>2020-09-06T09:27:53Z</time>
</trkpt>
<trkpt lat="48.8110033" lon="2.9311248">
<ele>120.90</ele>
<time>2020-09-06T09:27:57Z</time>
</trkpt>
<trkpt lat="48.8112122" lon="2.9311844">
<ele>121.05</ele>
<time>2020-09-06T09:28:01Z</time>
</trkpt>
<trkpt lat="48.8114152" lon="2.9313482">
<ele>119.34</ele>
<time>2020-09-06T09:28:05Z</time>
</trkpt>
<trkpt lat="48.8115552" lon="2.9315272">
<ele>117.22</ele>
<time>2020-09-06T09:28:08Z</time>
</trkpt>
<trkpt lat="48.8117333" lon="2.9316624">
<ele>118.55</ele>
<time>2020-09-06T09:28:13Z</time>
</trkpt>
<trkpt lat="48.8119480" lon="2.9317637">
<ele>119.92</ele>
<time>2020-09-06T09:28:18Z</time>
</trkpt>
<trkpt lat="48.8121863" lon="2.9317763">
<ele>120.75</ele>
<time>2020-09-06T09:28:22Z</time>
</trkpt>
<trkpt lat="48.8123767" lon="2.9317924">
<ele>120.75</ele>
<time>2020-09-06T09:28:25Z</time>
</trkpt>
<trkpt lat="48.8125639" lon="2.9318813">
<ele>117.20</ele>
<time>2020-09-06T09:28:30Z</time>
</trkpt>
<trkpt lat="48.8127187" lon="2.9320342">
<ele>115.17</ele>
<time>2020-09-06T09:28:36Z</time>
</trkpt>
<trkpt lat="48.8128065" lon="2.9323055">
<ele>112.15</ele>
<time>2020-09-06T09:28:41Z</time>
</trkpt>
<trkpt lat="48.8128691" lon="2.9326016">
<ele>112.13</ele>
<time>2020-09-06T09:28:45Z</time>
</trkpt>
<trkpt lat="48.8130607" lon="2.9325992">
<ele>111.95</ele>
<time>2020-09-06T09:29:03Z</time>
</trkpt>
<trkpt lat="48.8132671" lon="2.9325284">
<ele>112.32</ele>
<time>2020-09-06T09:29:08Z</time>
</trkpt>
<trkpt lat="48.8134519" lon="2.9324632">
<ele>111.95</ele>
<time>2020-09-06T09:29:14Z</time>
</trkpt>
<trkpt lat="48.8136388" lon="2.9324171">
<ele>110.69</ele>
<time>2020-09-06T09:29:19Z</time>
</trkpt>
<trkpt lat="48.8137485" lon="2.9326763">
<ele>108.10</ele>
<time>2020-09-06T09:29:25Z</time>
</trkpt>
<trkpt lat="48.8138310" lon="2.9329578">
<ele>106.60</ele>
<time>2020-09-06T09:29:28Z</time>
</trkpt>
<trkpt lat="48.8139366" lon="2.9332569">
<ele>104.62</ele>
<time>2020-09-06T09:29:31Z</time>
</trkpt>
<trkpt lat="48.8141202" lon="2.9335166">
<ele>101.54</ele>
<time>2020-09-06T09:29:34Z</time>
</trkpt>
<trkpt lat="48.8142976" lon="2.9337184">
<ele>98.93</ele>
<time>2020-09-06T09:29:37Z</time>
</trkpt>
<trkpt lat="48.8144995" lon="2.9338343">
<ele>97.14</ele>
<time>2020-09-06T09:29:40Z</time>
</trkpt>
<trkpt lat="48.8147604" lon="2.9339107">
<ele>95.72</ele>
<time>2020-09-06T09:29:43Z</time>
</trkpt>
<trkpt lat="48.8149629" lon="2.9340118">
<ele>93.20</ele>
<time>2020-09-06T09:29:46Z</time>
</trkpt>
<trkpt lat="48.8151424" lon="2.9339631">
<ele>87.58</ele>
<time>2020-09-06T09:30:07Z</time>
</trkpt>
<trkpt lat="48.8153378" lon="2.9339231">
<ele>86.82</ele>
<time>2020-09-06T09:30:13Z</time>
</trkpt>
<trkpt lat="48.8155220" lon="2.9338893">
<ele>85.91</ele>
<time>2020-09-06T09:30:16Z</time>
</trkpt>
<trkpt lat="48.8157322" lon="2.9338594">
<ele>84.52</ele>
<time>2020-09-06T09:30:19Z</time>
</trkpt>
<trkpt lat="48.8159555" lon="2.9337507">
<ele>82.50</ele>
<time>2020-09-06T09:30:22Z</time>
</trkpt>
<trkpt lat="48.8161906" lon="2.9336232">
<ele>79.89</ele>
<time>2020-09-06T09:30:25Z</time>
</trkpt>
<trkpt lat="48.8163705" lon="2.9335783">
<ele>77.74</ele>
<time>2020-09-06T09:30:27Z</time>
</trkpt>
<trkpt lat="48.8165553" lon="2.9336137">
<ele>76.55</ele>
<time>2020-09-06T09:30:29Z</time>
</trkpt>
<trkpt lat="48.8167426" lon="2.9337047">
<ele>74.15</ele>
<time>2020-09-06T09:30:31Z</time>
</trkpt>
<trkpt lat="48.8169250" lon="2.9338092">
<ele>72.20</ele>
<time>2020-09-06T09:30:33Z</time>
</trkpt>
<trkpt lat="48.8171092" lon="2.9339181">
<ele>70.30</ele>
<time>2020-09-06T09:30:35Z</time>
</trkpt>
<trkpt lat="48.8172902" lon="2.9339763">
<ele>68.58</ele>
<time>2020-09-06T09:30:37Z</time>
</trkpt>
<trkpt lat="48.8175452" lon="2.9339223">
<ele>67.60</ele>
<time>2020-09-06T09:30:40Z</time>
</trkpt>
<trkpt lat="48.8177202" lon="2.9338329">
<ele>66.40</ele>
<time>2020-09-06T09:30:42Z</time>
</trkpt>
<trkpt lat="48.8178969" lon="2.9337451">
<ele>66.07</ele>
<time>2020-09-06T09:30:44Z</time>
</trkpt>
<trkpt lat="48.8181578" lon="2.9336189">
<ele>63.58</ele>
<time>2020-09-06T09:30:47Z</time>
</trkpt>
<trkpt lat="48.8183959" lon="2.9334820">
<ele>63.90</ele>
<time>2020-09-06T09:30:50Z</time>
</trkpt>
<trkpt lat="48.8186072" lon="2.9333089">
<ele>63.51</ele>
<time>2020-09-06T09:30:53Z</time>
</trkpt>
<trkpt lat="48.8187907" lon="2.9331171">
<ele>61.61</ele>
<time>2020-09-06T09:30:56Z</time>
</trkpt>
<trkpt lat="48.8189922" lon="2.9329412">
<ele>60.60</ele>
<time>2020-09-06T09:30:59Z</time>
</trkpt>
<trkpt lat="48.8192182" lon="2.9328446">
<ele>59.63</ele>
<time>2020-09-06T09:31:02Z</time>
</trkpt>
<trkpt lat="48.8194607" lon="2.9328205">
<ele>57.47</ele>
<time>2020-09-06T09:31:05Z</time>
</trkpt>
<trkpt lat="48.8197041" lon="2.9326658">
<ele>54.90</ele>
<time>2020-09-06T09:31:08Z</time>
</trkpt>
<trkpt lat="48.8199091" lon="2.9324765">
<ele>52.18</ele>
<time>2020-09-06T09:31:11Z</time>
</trkpt>
<trkpt lat="48.8200781" lon="2.9323002">
<ele>51.40</ele>
<time>2020-09-06T09:31:14Z</time>
</trkpt>
<trkpt lat="48.8202345" lon="2.9321231">
<ele>50.85</ele>
<time>2020-09-06T09:31:17Z</time>
</trkpt>
<trkpt lat="48.8204156" lon="2.9320527">
<ele>52.43</ele>
<time>2020-09-06T09:31:32Z</time>
</trkpt>
<trkpt lat="48.8205686" lon="2.9322446">
<ele>54.84</ele>
<time>2020-09-06T09:33:33Z</time>
</trkpt>
<trkpt lat="48.8207148" lon="2.9324090">
<ele>54.80</ele>
<time>2020-09-06T09:33:38Z</time>
</trkpt>
<trkpt lat="48.8209155" lon="2.9325569">
<ele>54.73</ele>
<time>2020-09-06T09:33:42Z</time>
</trkpt>
<trkpt lat="48.8210983" lon="2.9327083">
<ele>52.44</ele>
<time>2020-09-06T09:33:47Z</time>
</trkpt>
<trkpt lat="48.8212454" lon="2.9329304">
<ele>52.32</ele>
<time>2020-09-06T09:33:53Z</time>
</trkpt>
<trkpt lat="48.8213896" lon="2.9331259">
<ele>52.41</ele>
<time>2020-09-06T09:33:59Z</time>
</trkpt>
<trkpt lat="48.8215162" lon="2.9333635">
<ele>51.89</ele>
<time>2020-09-06T09:34:06Z</time>
</trkpt>
<trkpt lat="48.8216447" lon="2.9335687">
<ele>53.60</ele>
<time>2020-09-06T09:34:12Z</time>
</trkpt>
<trkpt lat="48.8217597" lon="2.9337953">
<ele>54.07</ele>
<time>2020-09-06T09:34:19Z</time>
</trkpt>
<trkpt lat="48.8219118" lon="2.9339903">
<ele>53.75</ele>
<time>2020-09-06T09:34:27Z</time>
</trkpt>
<trkpt lat="48.8220674" lon="2.9338523">
<ele>52.88</ele>
<time>2020-09-06T09:34:35Z</time>
</trkpt>
<trkpt lat="48.8222250" lon="2.9336532">
<ele>54.89</ele>
<time>2020-09-06T09:34:42Z</time>
</trkpt>
<trkpt lat="48.8224025" lon="2.9335176">
<ele>53.34</ele>
<time>2020-09-06T09:34:47Z</time>
</trkpt>
<trkpt lat="48.8225786" lon="2.9333872">
<ele>55.84</ele>
<time>2020-09-06T09:34:52Z</time>
</trkpt>
<trkpt lat="48.8227874" lon="2.9333013">
<ele>55.53</ele>
<time>2020-09-06T09:34:57Z</time>
</trkpt>
<trkpt lat="48.8229818" lon="2.9332458">
<ele>57.76</ele>
<time>2020-09-06T09:35:02Z</time>
</trkpt>
<trkpt lat="48.8231761" lon="2.9332779">
<ele>58.40</ele>
<time>2020-09-06T09:35:07Z</time>
</trkpt>
<trkpt lat="48.8233664" lon="2.9334246">
<ele>58.86</ele>
<time>2020-09-06T09:35:12Z</time>
</trkpt>
<trkpt lat="48.8235690" lon="2.9334932">
<ele>59.40</ele>
<time>2020-09-06T09:35:18Z</time>
</trkpt>
<trkpt lat="48.8237524" lon="2.9334302">
<ele>59.58</ele>
<time>2020-09-06T09:35:23Z</time>
</trkpt>
<trkpt lat="48.8239452" lon="2.9333190">
<ele>60.61</ele>
<time>2020-09-06T09:35:29Z</time>
</trkpt>
<trkpt lat="48.8241420" lon="2.9333306">
<ele>62.34</ele>
<time>2020-09-06T09:35:35Z</time>
</trkpt>
<trkpt lat="48.8242997" lon="2.9334964">
<ele>62.19</ele>
<time>2020-09-06T09:35:41Z</time>
</trkpt>
<trkpt lat="48.8244571" lon="2.9336962">
<ele>64.60</ele>
<time>2020-09-06T09:35:47Z</time>
</trkpt>
<trkpt lat="48.8246068" lon="2.9338958">
<ele>65.99</ele>
<time>2020-09-06T09:35:53Z</time>
</trkpt>
<trkpt lat="48.8247541" lon="2.9341031">
<ele>67.98</ele>
<time>2020-09-06T09:35:59Z</time>
</trkpt>
<trkpt lat="48.8248861" lon="2.9343186">
<ele>69.97</ele>
<time>2020-09-06T09:36:06Z</time>
</trkpt>
<trkpt lat="48.8250718" lon="2.9342560">
<ele>72.43</ele>
<time>2020-09-06T09:36:24Z</time>
</trkpt>
<trkpt lat="48.8252311" lon="2.9341274">
<ele>74.34</ele>
<time>2020-09-06T09:36:30Z</time>
</trkpt>
<trkpt lat="48.8253583" lon="2.9338940">
<ele>75.27</ele>
<time>2020-09-06T09:36:36Z</time>
</trkpt>
<trkpt lat="48.8254806" lon="2.9336690">
<ele>77.06</ele>
<time>2020-09-06T09:36:43Z</time>
</trkpt>
<trkpt lat="48.8255728" lon="2.9334197">
<ele>78.79</ele>
<time>2020-09-06T09:36:49Z</time>
</trkpt>
<trkpt lat="48.8257089" lon="2.9331761">
<ele>77.11</ele>
<time>2020-09-06T09:36:53Z</time>
</trkpt>
<trkpt lat="48.8258263" lon="2.9329566">
<ele>75.41</ele>
<time>2020-09-06T09:36:56Z</time>
</trkpt>
<trkpt lat="48.8260137" lon="2.9328253">
<ele>74.92</ele>
<time>2020-09-06T09:37:01Z</time>
</trkpt>
<trkpt lat="48.8261192" lon="2.9325964">
<ele>75.26</ele>
<time>2020-09-06T09:37:09Z</time>
</trkpt>
<trkpt lat="48.8261845" lon="2.9323134">
<ele>72.13</ele>
<time>2020-09-06T09:37:16Z</time>
</trkpt>
<trkpt lat="48.8262026" lon="2.9320110">
<ele>70.02</ele>
<time>2020-09-06T09:37:21Z</time>
</trkpt>
<trkpt lat="48.8263049" lon="2.9317845">
<ele>71.86</ele>
<time>2020-09-06T09:37:26Z</time>
</trkpt>
<trkpt lat="48.8263899" lon="2.9315376">
<ele>73.67</ele>
<time>2020-09-06T09:37:32Z</time>
</trkpt>
<trkpt lat="48.8263889" lon="2.9312586">
<ele>73.06</ele>
<time>2020-09-06T09:37:37Z</time>
</trkpt>
<trkpt lat="48.8264140" lon="2.9309521">
<ele>74.42</ele>
<time>2020-09-06T09:37:42Z</time>
</trkpt>
<trkpt lat="48.8264642" lon="2.9306820">
<ele>75.43</ele>
<time>2020-09-06T09:37:47Z</time>
</trkpt>
<trkpt lat="48.8265488" lon="2.9304025">
<ele>74.29</ele>
<time>2020-09-06T09:37:52Z</time>
</trkpt>
<trkpt lat="48.8266735" lon="2.9301380">
<ele>75.99</ele>
<time>2020-09-06T09:37:57Z</time>
</trkpt>
<trkpt lat="48.8267942" lon="2.9299305">
<ele>77.98</ele>
<time>2020-09-06T09:38:02Z</time>
</trkpt>
<trkpt lat="48.8268428" lon="2.9296570">
<ele>77.23</ele>
<time>2020-09-06T09:38:06Z</time>
</trkpt>
<trkpt lat="48.8268473" lon="2.9293574">
<ele>76.08</ele>
<time>2020-09-06T09:38:11Z</time>
</trkpt>
<trkpt lat="48.8269360" lon="2.9290957">
<ele>79.29</ele>
<time>2020-09-06T09:38:16Z</time>
</trkpt>
<trkpt lat="48.8270110" lon="2.9288018">
<ele>79.04</ele>
<time>2020-09-06T09:38:22Z</time>
</trkpt>
<trkpt lat="48.8270366" lon="2.9284912">
<ele>78.03</ele>
<time>2020-09-06T09:38:29Z</time>
</trkpt>
<trkpt lat="48.8271708" lon="2.9282795">
<ele>77.90</ele>
<time>2020-09-06T09:38:37Z</time>
</trkpt>
<trkpt lat="48.8273476" lon="2.9281624">
<ele>80.66</ele>
<time>2020-09-06T09:38:46Z</time>
</trkpt>
<trkpt lat="48.8274741" lon="2.9279272">
<ele>82.09</ele>
<time>2020-09-06T09:38:54Z</time>
</trkpt>
<trkpt lat="48.8276584" lon="2.9278470">
<ele>85.04</ele>
<time>2020-09-06T09:39:02Z</time>
</trkpt>
<trkpt lat="48.8278481" lon="2.9278291">
<ele>87.21</ele>
<time>2020-09-06T09:39:10Z</time>
</trkpt>
<trkpt lat="48.8280353" lon="2.9277755">
<ele>88.99</ele>
<time>2020-09-06T09:39:18Z</time>
</trkpt>
<trkpt lat="48.8282156" lon="2.9277372">
<ele>91.57</ele>
<time>2020-09-06T09:39:25Z</time>
</trkpt>
<trkpt lat="48.8283903" lon="2.9276409">
<ele>92.48</ele>
<time>2020-09-06T09:39:32Z</time>
</trkpt>
<trkpt lat="48.8285620" lon="2.9275447">
<ele>94.05</ele>
<time>2020-09-06T09:39:39Z</time>
</trkpt>
<trkpt lat="48.8287499" lon="2.9274740">
<ele>96.36</ele>
<time>2020-09-06T09:39:47Z</time>
</trkpt>
<trkpt lat="48.8289331" lon="2.9274509">
<ele>96.59</ele>
<time>2020-09-06T09:39:55Z</time>
</trkpt>
<trkpt lat="48.8291157" lon="2.9274150">
<ele>99.70</ele>
<time>2020-09-06T09:40:03Z</time>
</trkpt>
<trkpt lat="48.8293144" lon="2.9273562">
<ele>101.09</ele>
<time>2020-09-06T09:48:44Z</time>
</trkpt>
<trkpt lat="48.8295051" lon="2.9273569">
<ele>102.02</ele>
<time>2020-09-06T09:48:55Z</time>
</trkpt>
<trkpt lat="48.8297053" lon="2.9273241">
<ele>103.41</ele>
<time>2020-09-06T09:49:04Z</time>
</trkpt>
<trkpt lat="48.8298903" lon="2.9273093">
<ele>104.51</ele>
<time>2020-09-06T09:49:12Z</time>
</trkpt>
<trkpt lat="48.8300874" lon="2.9272835">
<ele>107.10</ele>
<time>2020-09-06T09:49:21Z</time>
</trkpt>
<trkpt lat="48.8302613" lon="2.9273631">
<ele>107.05</ele>
<time>2020-09-06T09:49:34Z</time>
</trkpt>
<trkpt lat="48.8302222" lon="2.9270855">
<ele>107.46</ele>
<time>2020-09-06T09:49:59Z</time>
</trkpt>
<trkpt lat="48.8301929" lon="2.9268043">
<ele>106.96</ele>
<time>2020-09-06T09:50:25Z</time>
</trkpt>
<trkpt lat="48.8300841" lon="2.9265551">
<ele>107.50</ele>
<time>2020-09-06T09:50:34Z</time>
</trkpt>
<trkpt lat="48.8299457" lon="2.9263711">
<ele>105.86</ele>
<time>2020-09-06T09:50:39Z</time>
</trkpt>
<trkpt lat="48.8298572" lon="2.9261202">
<ele>105.34</ele>
<time>2020-09-06T09:50:45Z</time>
</trkpt>
<trkpt lat="48.8297589" lon="2.9258579">
<ele>104.81</ele>
<time>2020-09-06T09:50:50Z</time>
</trkpt>
<trkpt lat="48.8296598" lon="2.9255728">
<ele>103.45</ele>
<time>2020-09-06T09:50:55Z</time>
</trkpt>
<trkpt lat="48.8295371" lon="2.9253358">
<ele>102.15</ele>
<time>2020-09-06T09:50:59Z</time>
</trkpt>
<trkpt lat="48.8293850" lon="2.9250692">
<ele>100.65</ele>
<time>2020-09-06T09:51:03Z</time>
</trkpt>
<trkpt lat="48.8293235" lon="2.9247528">
<ele>98.92</ele>
<time>2020-09-06T09:51:07Z</time>
</trkpt>
<trkpt lat="48.8293029" lon="2.9244673">
<ele>97.92</ele>
<time>2020-09-06T09:51:11Z</time>
</trkpt>
<trkpt lat="48.8292003" lon="2.9242412">
<ele>96.93</ele>
<time>2020-09-06T09:51:16Z</time>
</trkpt>
<trkpt lat="48.8290403" lon="2.9240237">
<ele>95.85</ele>
<time>2020-09-06T09:51:20Z</time>
</trkpt>
<trkpt lat="48.8288912" lon="2.9238670">
<ele>95.41</ele>
<time>2020-09-06T09:51:23Z</time>
</trkpt>
<trkpt lat="48.8287342" lon="2.9237002">
<ele>93.70</ele>
<time>2020-09-06T09:51:26Z</time>
</trkpt>
<trkpt lat="48.8286106" lon="2.9235013">
<ele>91.55</ele>
<time>2020-09-06T09:51:29Z</time>
</trkpt>
<trkpt lat="48.8285342" lon="2.9231890">
<ele>88.77</ele>
<time>2020-09-06T09:51:33Z</time>
</trkpt>
<trkpt lat="48.8284778" lon="2.9228717">
<ele>87.18</ele>
<time>2020-09-06T09:51:37Z</time>
</trkpt>
<trkpt lat="48.8284214" lon="2.9225594">
<ele>86.70</ele>
<time>2020-09-06T09:51:41Z</time>
</trkpt>
<trkpt lat="48.8283946" lon="2.9222545">
<ele>85.65</ele>
<time>2020-09-06T09:51:46Z</time>
</trkpt>
<trkpt lat="48.8284130" lon="2.9219534">
<ele>86.84</ele>
<time>2020-09-06T09:51:52Z</time>
</trkpt>
<trkpt lat="48.8283800" lon="2.9216476">
<ele>87.92</ele>
<time>2020-09-06T09:51:57Z</time>
</trkpt>
<trkpt lat="48.8283183" lon="2.9213714">
<ele>89.80</ele>
<time>2020-09-06T09:52:02Z</time>
</trkpt>
<trkpt lat="48.8282612" lon="2.9210863">
<ele>91.22</ele>
<time>2020-09-06T09:52:08Z</time>
</trkpt>
<trkpt lat="48.8281922" lon="2.9208171">
<ele>91.39</ele>
<time>2020-09-06T09:52:14Z</time>
</trkpt>
<trkpt lat="48.8281445" lon="2.9205387">
<ele>90.68</ele>
<time>2020-09-06T09:52:20Z</time>
</trkpt>
<trkpt lat="48.8280844" lon="2.9202620">
<ele>91.61</ele>
<time>2020-09-06T09:52:26Z</time>
</trkpt>
<trkpt lat="48.8280187" lon="2.9199450">
<ele>90.74</ele>
<time>2020-09-06T09:52:31Z</time>
</trkpt>
<trkpt lat="48.8279718" lon="2.9196532">
<ele>90.10</ele>
<time>2020-09-06T09:52:35Z</time>
</trkpt>
<trkpt lat="48.8279077" lon="2.9193529">
<ele>91.78</ele>
<time>2020-09-06T09:52:40Z</time>
</trkpt>
<trkpt lat="48.8279742" lon="2.9196112">
<ele>88.79</ele>
<time>2020-09-06T09:59:38Z</time>
</trkpt>
<trkpt lat="48.8280238" lon="2.9199230">
<ele>90.80</ele>
<time>2020-09-06T09:59:45Z</time>
</trkpt>
<trkpt lat="48.8280744" lon="2.9202042">
<ele>90.30</ele>
<time>2020-09-06T09:59:51Z</time>
</trkpt>
<trkpt lat="48.8281364" lon="2.9204905">
<ele>91.15</ele>
<time>2020-09-06T09:59:57Z</time>
</trkpt>
<trkpt lat="48.8281862" lon="2.9207535">
<ele>89.13</ele>
<time>2020-09-06T10:00:02Z</time>
</trkpt>
<trkpt lat="48.8282543" lon="2.9210554">
<ele>90.22</ele>
<time>2020-09-06T10:00:08Z</time>
</trkpt>
<trkpt lat="48.8283228" lon="2.9213320">
<ele>90.20</ele>
<time>2020-09-06T10:00:13Z</time>
</trkpt>
<trkpt lat="48.8283803" lon="2.9216534">
<ele>90.49</ele>
<time>2020-09-06T10:00:19Z</time>
</trkpt>
<trkpt lat="48.8284184" lon="2.9219529">
<ele>89.38</ele>
<time>2020-09-06T10:00:24Z</time>
</trkpt>
<trkpt lat="48.8284054" lon="2.9222401">
<ele>88.19</ele>
<time>2020-09-06T10:00:29Z</time>
</trkpt>
<trkpt lat="48.8284124" lon="2.9225592">
<ele>89.00</ele>
<time>2020-09-06T10:00:34Z</time>
</trkpt>
<trkpt lat="48.8284756" lon="2.9228566">
<ele>88.80</ele>
<time>2020-09-06T10:00:40Z</time>
</trkpt>
<trkpt lat="48.8285373" lon="2.9231670">
<ele>88.76</ele>
<time>2020-09-06T10:00:46Z</time>
</trkpt>
<trkpt lat="48.8286273" lon="2.9234601">
<ele>89.69</ele>
<time>2020-09-06T10:00:52Z</time>
</trkpt>
<trkpt lat="48.8287569" lon="2.9236830">
<ele>91.57</ele>
<time>2020-09-06T10:00:58Z</time>
</trkpt>
<trkpt lat="48.8289238" lon="2.9238655">
<ele>94.79</ele>
<time>2020-09-06T10:01:05Z</time>
</trkpt>
<trkpt lat="48.8290782" lon="2.9240334">
<ele>95.38</ele>
<time>2020-09-06T10:01:13Z</time>
</trkpt>
<trkpt lat="48.8292323" lon="2.9242151">
<ele>97.16</ele>
<time>2020-09-06T10:01:21Z</time>
</trkpt>
<trkpt lat="48.8293076" lon="2.9244839">
<ele>99.01</ele>
<time>2020-09-06T10:01:30Z</time>
</trkpt>
<trkpt lat="48.8293310" lon="2.9247759">
<ele>100.00</ele>
<time>2020-09-06T10:01:37Z</time>
</trkpt>
<trkpt lat="48.8293765" lon="2.9250414">
<ele>100.78</ele>
<time>2020-09-06T10:01:43Z</time>
</trkpt>
<trkpt lat="48.8294962" lon="2.9252958">
<ele>102.36</ele>
<time>2020-09-06T10:01:50Z</time>
</trkpt>
<trkpt lat="48.8296210" lon="2.9254967">
<ele>102.32</ele>
<time>2020-09-06T10:01:56Z</time>
</trkpt>
<trkpt lat="48.8297233" lon="2.9257282">
<ele>103.36</ele>
<time>2020-09-06T10:02:02Z</time>
</trkpt>
<trkpt lat="48.8298187" lon="2.9260044">
<ele>105.48</ele>
<time>2020-09-06T10:02:09Z</time>
</trkpt>
<trkpt lat="48.8299238" lon="2.9262554">
<ele>105.64</ele>
<time>2020-09-06T10:02:18Z</time>
</trkpt>
<trkpt lat="48.8297530" lon="2.9261585">
<ele>104.49</ele>
<time>2020-09-06T10:02:36Z</time>
</trkpt>
<trkpt lat="48.8295791" lon="2.9259913">
<ele>102.78</ele>
<time>2020-09-06T10:02:40Z</time>
</trkpt>
<trkpt lat="48.8293817" lon="2.9257948">
<ele>100.83</ele>
<time>2020-09-06T10:02:44Z</time>
</trkpt>
<trkpt lat="48.8291896" lon="2.9255864">
<ele>99.35</ele>
<time>2020-09-06T10:02:48Z</time>
</trkpt>
<trkpt lat="48.8290529" lon="2.9254027">
<ele>97.07</ele>
<time>2020-09-06T10:02:51Z</time>
</trkpt>
<trkpt lat="48.8289164" lon="2.9251870">
<ele>95.15</ele>
<time>2020-09-06T10:02:54Z</time>
</trkpt>
<trkpt lat="48.8287866" lon="2.9249584">
<ele>92.78</ele>
<time>2020-09-06T10:02:57Z</time>
</trkpt>
<trkpt lat="48.8286500" lon="2.9247332">
<ele>90.09</ele>
<time>2020-09-06T10:03:00Z</time>
</trkpt>
<trkpt lat="48.8284862" lon="2.9244859">
<ele>88.17</ele>
<time>2020-09-06T10:03:03Z</time>
</trkpt>
<trkpt lat="48.8283551" lon="2.9242636">
<ele>86.58</ele>
<time>2020-09-06T10:03:06Z</time>
</trkpt>
<trkpt lat="48.8282283" lon="2.9240465">
<ele>84.76</ele>
<time>2020-09-06T10:03:09Z</time>
</trkpt>
<trkpt lat="48.8280891" lon="2.9238261">
<ele>82.92</ele>
<time>2020-09-06T10:03:12Z</time>
</trkpt>
<trkpt lat="48.8279572" lon="2.9235875">
<ele>81.05</ele>
<time>2020-09-06T10:03:15Z</time>
</trkpt>
<trkpt lat="48.8278040" lon="2.9233453">
<ele>80.24</ele>
<time>2020-09-06T10:03:18Z</time>
</trkpt>
<trkpt lat="48.8276601" lon="2.9231055">
<ele>78.96</ele>
<time>2020-09-06T10:03:21Z</time>
</trkpt>
<trkpt lat="48.8275139" lon="2.9228833">
<ele>77.94</ele>
<time>2020-09-06T10:03:24Z</time>
</trkpt>
<trkpt lat="48.8273405" lon="2.9226899">
<ele>76.47</ele>
<time>2020-09-06T10:03:27Z</time>
</trkpt>
<trkpt lat="48.8271695" lon="2.9225435">
<ele>75.24</ele>
<time>2020-09-06T10:03:30Z</time>
</trkpt>
<trkpt lat="48.8269893" lon="2.9223206">
<ele>73.95</ele>
<time>2020-09-06T10:03:34Z</time>
</trkpt>
<trkpt lat="48.8269030" lon="2.9220483">
<ele>72.85</ele>
<time>2020-09-06T10:03:37Z</time>
</trkpt>
<trkpt lat="48.8268458" lon="2.9217179">
<ele>70.61</ele>
<time>2020-09-06T10:03:40Z</time>
</trkpt>
<trkpt lat="48.8267435" lon="2.9214173">
<ele>68.94</ele>
<time>2020-09-06T10:03:43Z</time>
</trkpt>
<trkpt lat="48.8265882" lon="2.9211549">
<ele>67.23</ele>
<time>2020-09-06T10:03:46Z</time>
</trkpt>
<trkpt lat="48.8264264" lon="2.9208906">
<ele>65.46</ele>
<time>2020-09-06T10:03:49Z</time>
</trkpt>
<trkpt lat="48.8262882" lon="2.9206166">
<ele>63.92</ele>
<time>2020-09-06T10:03:52Z</time>
</trkpt>
<trkpt lat="48.8261880" lon="2.9202942">
<ele>61.59</ele>
<time>2020-09-06T10:03:55Z</time>
</trkpt>
<trkpt lat="48.8260948" lon="2.9199372">
<ele>59.60</ele>
<time>2020-09-06T10:03:58Z</time>
</trkpt>
<trkpt lat="48.8260215" lon="2.9196161">
<ele>57.85</ele>
<time>2020-09-06T10:04:01Z</time>
</trkpt>
<trkpt lat="48.8259282" lon="2.9193485">
<ele>56.13</ele>
<time>2020-09-06T10:04:04Z</time>
</trkpt>
<trkpt lat="48.8257825" lon="2.9191374">
<ele>54.26</ele>
<time>2020-09-06T10:04:07Z</time>
</trkpt>
<trkpt lat="48.8256091" lon="2.9189593">
<ele>52.59</ele>
<time>2020-09-06T10:04:11Z</time>
</trkpt>
<trkpt lat="48.8255696" lon="2.9186267">
<ele>51.04</ele>
<time>2020-09-06T10:04:16Z</time>
</trkpt>
<trkpt lat="48.8255461" lon="2.9183548">
<ele>49.81</ele>
<time>2020-09-06T10:04:19Z</time>
</trkpt>
<trkpt lat="48.8255202" lon="2.9180245">
<ele>50.10</ele>
<time>2020-09-06T10:04:23Z</time>
</trkpt>
<trkpt lat="48.8255084" lon="2.9177191">
<ele>49.95</ele>
<time>2020-09-06T10:04:27Z</time>
</trkpt>
<trkpt lat="48.8255061" lon="2.9174064">
<ele>51.26</ele>
<time>2020-09-06T10:04:32Z</time>
</trkpt>
<trkpt lat="48.8254792" lon="2.9171326">
<ele>51.50</ele>
<time>2020-09-06T10:04:37Z</time>
</trkpt>
<trkpt lat="48.8254111" lon="2.9168249">
<ele>50.76</ele>
<time>2020-09-06T10:04:42Z</time>
</trkpt>
<trkpt lat="48.8253214" lon="2.9165607">
<ele>51.07</ele>
<time>2020-09-06T10:04:47Z</time>
</trkpt>
<trkpt lat="48.8251788" lon="2.9163162">
<ele>50.49</ele>
<time>2020-09-06T10:04:52Z</time>
</trkpt>
<trkpt lat="48.8251221" lon="2.9160232">
<ele>50.26</ele>
<time>2020-09-06T10:04:57Z</time>
</trkpt>
<trkpt lat="48.8250861" lon="2.9157553">
<ele>51.83</ele>
<time>2020-09-06T10:05:02Z</time>
</trkpt>
<trkpt lat="48.8250766" lon="2.9154764">
<ele>51.34</ele>
<time>2020-09-06T10:05:08Z</time>
</trkpt>
<trkpt lat="48.8250622" lon="2.9151791">
<ele>49.93</ele>
<time>2020-09-06T10:05:13Z</time>
</trkpt>
<trkpt lat="48.8250797" lon="2.9148705">
<ele>48.15</ele>
<time>2020-09-06T10:05:18Z</time>
</trkpt>
<trkpt lat="48.8250733" lon="2.9145720">
<ele>49.28</ele>
<time>2020-09-06T10:05:23Z</time>
</trkpt>
<trkpt lat="48.8250356" lon="2.9141873">
<ele>50.46</ele>
<time>2020-09-06T10:05:29Z</time>
</trkpt>
<trkpt lat="48.8249916" lon="2.9139151">
<ele>52.33</ele>
<time>2020-09-06T10:05:33Z</time>
</trkpt>
<trkpt lat="48.8249458" lon="2.9136253">
<ele>53.56</ele>
<time>2020-09-06T10:05:37Z</time>
</trkpt>
<trkpt lat="48.8248916" lon="2.9133381">
<ele>51.98</ele>
<time>2020-09-06T10:05:41Z</time>
</trkpt>
<trkpt lat="48.8248625" lon="2.9130446">
<ele>51.62</ele>
<time>2020-09-06T10:05:45Z</time>
</trkpt>
<trkpt lat="48.8248630" lon="2.9127179">
<ele>51.98</ele>
<time>2020-09-06T10:05:50Z</time>
</trkpt>
<trkpt lat="48.8248960" lon="2.9124466">
<ele>54.69</ele>
<time>2020-09-06T10:05:55Z</time>
</trkpt>
<trkpt lat="48.8248499" lon="2.9121724">
<ele>54.38</ele>
<time>2020-09-06T10:05:59Z</time>
</trkpt>
<trkpt lat="48.8248360" lon="2.9118558">
<ele>57.03</ele>
<time>2020-09-06T10:06:04Z</time>
</trkpt>
<trkpt lat="48.8249576" lon="2.9115820">
<ele>57.63</ele>
<time>2020-09-06T10:06:10Z</time>
</trkpt>
<trkpt lat="48.8251367" lon="2.9114930">
<ele>57.49</ele>
<time>2020-09-06T10:06:14Z</time>
</trkpt>
<trkpt lat="48.8253171" lon="2.9114296">
<ele>57.86</ele>
<time>2020-09-06T10:06:18Z</time>
</trkpt>
<trkpt lat="48.8254961" lon="2.9113658">
<ele>59.17</ele>
<time>2020-09-06T10:06:22Z</time>
</trkpt>
<trkpt lat="48.8256737" lon="2.9112835">
<ele>59.56</ele>
<time>2020-09-06T10:07:26Z</time>
</trkpt>
<trkpt lat="48.8258929" lon="2.9112297">
<ele>59.56</ele>
<time>2020-09-06T10:07:31Z</time>
</trkpt>
<trkpt lat="48.8260980" lon="2.9111616">
<ele>60.21</ele>
<time>2020-09-06T10:07:35Z</time>
</trkpt>
<trkpt lat="48.8263115" lon="2.9110939">
<ele>60.28</ele>
<time>2020-09-06T10:07:39Z</time>
</trkpt>
<trkpt lat="48.8265031" lon="2.9110221">
<ele>60.70</ele>
<time>2020-09-06T10:07:43Z</time>
</trkpt>
<trkpt lat="48.8267018" lon="2.9109461">
<ele>60.87</ele>
<time>2020-09-06T10:07:47Z</time>
</trkpt>
<trkpt lat="48.8268917" lon="2.9108781">
<ele>61.13</ele>
<time>2020-09-06T10:07:51Z</time>
</trkpt>
<trkpt lat="48.8270821" lon="2.9108020">
<ele>61.11</ele>
<time>2020-09-06T10:07:55Z</time>
</trkpt>
<trkpt lat="48.8272938" lon="2.9107295">
<ele>61.45</ele>
<time>2020-09-06T10:07:59Z</time>
</trkpt>
<trkpt lat="48.8275130" lon="2.9106473">
<ele>61.31</ele>
<time>2020-09-06T10:08:03Z</time>
</trkpt>
<trkpt lat="48.8277195" lon="2.9105736">
<ele>61.41</ele>
<time>2020-09-06T10:08:07Z</time>
</trkpt>
<trkpt lat="48.8279122" lon="2.9104773">
<ele>60.75</ele>
<time>2020-09-06T10:08:11Z</time>
</trkpt>
<trkpt lat="48.8280902" lon="2.9104128">
<ele>60.23</ele>
<time>2020-09-06T10:08:15Z</time>
</trkpt>
<trkpt lat="48.8283044" lon="2.9103976">
<ele>61.02</ele>
<time>2020-09-06T10:08:20Z</time>
</trkpt>
<trkpt lat="48.8285254" lon="2.9103662">
<ele>62.10</ele>
<time>2020-09-06T10:08:25Z</time>
</trkpt>
<trkpt lat="48.8287130" lon="2.9103191">
<ele>62.48</ele>
<time>2020-09-06T10:08:29Z</time>
</trkpt>
<trkpt lat="48.8289380" lon="2.9102780">
<ele>64.06</ele>
<time>2020-09-06T10:08:34Z</time>
</trkpt>
<trkpt lat="48.8291239" lon="2.9102349">
<ele>64.43</ele>
<time>2020-09-06T10:08:39Z</time>
</trkpt>
<trkpt lat="48.8293041" lon="2.9101911">
<ele>64.42</ele>
<time>2020-09-06T10:08:44Z</time>
</trkpt>
<trkpt lat="48.8294962" lon="2.9101382">
<ele>64.13</ele>
<time>2020-09-06T10:08:49Z</time>
</trkpt>
<trkpt lat="48.8296930" lon="2.9101144">
<ele>64.21</ele>
<time>2020-09-06T10:08:54Z</time>
</trkpt>
<trkpt lat="48.8298829" lon="2.9100971">
<ele>64.97</ele>
<time>2020-09-06T10:08:59Z</time>
</trkpt>
<trkpt lat="48.8300794" lon="2.9100575">
<ele>65.88</ele>
<time>2020-09-06T10:09:05Z</time>
</trkpt>
<trkpt lat="48.8302289" lon="2.9099038">
<ele>65.32</ele>
<time>2020-09-06T10:09:10Z</time>
</trkpt>
<trkpt lat="48.8303428" lon="2.9096506">
<ele>62.25</ele>
<time>2020-09-06T10:09:16Z</time>
</trkpt>
<trkpt lat="48.8304730" lon="2.9094264">
<ele>60.79</ele>
<time>2020-09-06T10:09:22Z</time>
</trkpt>
<trkpt lat="48.8306781" lon="2.9093590">
<ele>61.54</ele>
<time>2020-09-06T10:09:27Z</time>
</trkpt>
<trkpt lat="48.8308559" lon="2.9093058">
<ele>62.60</ele>
<time>2020-09-06T10:09:31Z</time>
</trkpt>
<trkpt lat="48.8310333" lon="2.9092422">
<ele>62.88</ele>
<time>2020-09-06T10:09:35Z</time>
</trkpt>
<trkpt lat="48.8312528" lon="2.9091945">
<ele>64.82</ele>
<time>2020-09-06T10:09:40Z</time>
</trkpt>
<trkpt lat="48.8314578" lon="2.9092940">
<ele>66.31</ele>
<time>2020-09-06T10:09:45Z</time>
</trkpt>
<trkpt lat="48.8315712" lon="2.9095354">
<ele>67.14</ele>
<time>2020-09-06T10:09:50Z</time>
</trkpt>
<trkpt lat="48.8315226" lon="2.9098270">
<ele>68.98</ele>
<time>2020-09-06T10:09:55Z</time>
</trkpt>
<trkpt lat="48.8313492" lon="2.9099963">
<ele>70.74</ele>
<time>2020-09-06T10:10:00Z</time>
</trkpt>
<trkpt lat="48.8311391" lon="2.9101096">
<ele>72.05</ele>
<time>2020-09-06T10:10:05Z</time>
</trkpt>
<trkpt lat="48.8309532" lon="2.9101985">
<ele>72.20</ele>
<time>2020-09-06T10:10:09Z</time>
</trkpt>
<trkpt lat="48.8307873" lon="2.9103276">
<ele>73.48</ele>
<time>2020-09-06T10:10:14Z</time>
</trkpt>
<trkpt lat="48.8309742" lon="2.9104654">
<ele>73.96</ele>
<time>2020-09-06T10:10:20Z</time>
</trkpt>
<trkpt lat="48.8311976" lon="2.9104683">
<ele>76.04</ele>
<time>2020-09-06T10:10:25Z</time>
</trkpt>
<trkpt lat="48.8313927" lon="2.9104941">
<ele>76.78</ele>
<time>2020-09-06T10:10:30Z</time>
</trkpt>
<trkpt lat="48.8316048" lon="2.9105266">
<ele>78.11</ele>
<time>2020-09-06T10:10:36Z</time>
</trkpt>
<trkpt lat="48.8318077" lon="2.9105574">
<ele>79.01</ele>
<time>2020-09-06T10:10:42Z</time>
</trkpt>
<trkpt lat="48.8320092" lon="2.9105878">
<ele>80.02</ele>
<time>2020-09-06T10:10:48Z</time>
</trkpt>
<trkpt lat="48.8322049" lon="2.9105943">
<ele>81.51</ele>
<time>2020-09-06T10:10:54Z</time>
</trkpt>
<trkpt lat="48.8324091" lon="2.9105318">
<ele>82.60</ele>
<time>2020-09-06T10:11:00Z</time>
</trkpt>
<trkpt lat="48.8326136" lon="2.9104749">
<ele>83.51</ele>
<time>2020-09-06T10:11:05Z</time>
</trkpt>
<trkpt lat="48.8327911" lon="2.9104284">
<ele>83.81</ele>
<time>2020-09-06T10:11:09Z</time>
</trkpt>
<trkpt lat="48.8329943" lon="2.9103651">
<ele>84.37</ele>
<time>2020-09-06T10:11:13Z</time>
</trkpt>
<trkpt lat="48.8331949" lon="2.9103064">
<ele>84.62</ele>
<time>2020-09-06T10:11:17Z</time>
</trkpt>
<trkpt lat="48.8334067" lon="2.9103205">
<ele>84.88</ele>
<time>2020-09-06T10:11:21Z</time>
</trkpt>
<trkpt lat="48.8335998" lon="2.9103459">
<ele>85.60</ele>
<time>2020-09-06T10:11:25Z</time>
</trkpt>
<trkpt lat="48.8337856" lon="2.9103829">
<ele>86.60</ele>
<time>2020-09-06T10:11:32Z</time>
</trkpt>
<trkpt lat="48.8339984" lon="2.9103898">
<ele>86.59</ele>
<time>2020-09-06T10:11:38Z</time>
</trkpt>
<trkpt lat="48.8341827" lon="2.9103917">
<ele>87.82</ele>
<time>2020-09-06T10:11:42Z</time>
</trkpt>
<trkpt lat="48.8343735" lon="2.9104181">
<ele>87.99</ele>
<time>2020-09-06T10:11:47Z</time>
</trkpt>
<trkpt lat="48.8345667" lon="2.9104492">
<ele>88.79</ele>
<time>2020-09-06T10:11:51Z</time>
</trkpt>
<trkpt lat="48.8348002" lon="2.9104583">
<ele>87.98</ele>
<time>2020-09-06T10:11:56Z</time>
</trkpt>
<trkpt lat="48.8349998" lon="2.9104903">
<ele>87.36</ele>
<time>2020-09-06T10:12:00Z</time>
</trkpt>
<trkpt lat="48.8351941" lon="2.9105279">
<ele>87.08</ele>
<time>2020-09-06T10:12:04Z</time>
</trkpt>
<trkpt lat="48.8353878" lon="2.9105728">
<ele>86.94</ele>
<time>2020-09-06T10:12:08Z</time>
</trkpt>
<trkpt lat="48.8355812" lon="2.9106199">
<ele>87.36</ele>
<time>2020-09-06T10:12:12Z</time>
</trkpt>
<trkpt lat="48.8357751" lon="2.9107046">
<ele>87.75</ele>
<time>2020-09-06T10:12:16Z</time>
</trkpt>
<trkpt lat="48.8359627" lon="2.9108260">
<ele>87.80</ele>
<time>2020-09-06T10:12:20Z</time>
</trkpt>
<trkpt lat="48.8361455" lon="2.9109809">
<ele>87.80</ele>
<time>2020-09-06T10:12:24Z</time>
</trkpt>
<trkpt lat="48.8363269" lon="2.9111596">
<ele>87.73</ele>
<time>2020-09-06T10:12:28Z</time>
</trkpt>
<trkpt lat="48.8365050" lon="2.9113378">
<ele>88.19</ele>
<time>2020-09-06T10:12:32Z</time>
</trkpt>
<trkpt lat="48.8367015" lon="2.9115167">
<ele>88.39</ele>
<time>2020-09-06T10:12:36Z</time>
</trkpt>
<trkpt lat="48.8368879" lon="2.9116961">
<ele>89.33</ele>
<time>2020-09-06T10:12:40Z</time>
</trkpt>
<trkpt lat="48.8370765" lon="2.9118849">
<ele>88.85</ele>
<time>2020-09-06T10:12:44Z</time>
</trkpt>
<trkpt lat="48.8372312" lon="2.9120481">
<ele>88.08</ele>
<time>2020-09-06T10:12:47Z</time>
</trkpt>
<trkpt lat="48.8373790" lon="2.9122182">
<ele>87.94</ele>
<time>2020-09-06T10:12:50Z</time>
</trkpt>
<trkpt lat="48.8375228" lon="2.9123842">
<ele>88.40</ele>
<time>2020-09-06T10:12:53Z</time>
</trkpt>
<trkpt lat="48.8377048" lon="2.9125726">
<ele>87.96</ele>
<time>2020-09-06T10:12:57Z</time>
</trkpt>
<trkpt lat="48.8378603" lon="2.9127398">
<ele>87.70</ele>
<time>2020-09-06T10:13:01Z</time>
</trkpt>
<trkpt lat="48.8380414" lon="2.9128446">
<ele>87.12</ele>
<time>2020-09-06T10:13:05Z</time>
</trkpt>
<trkpt lat="48.8382470" lon="2.9128943">
<ele>85.98</ele>
<time>2020-09-06T10:13:09Z</time>
</trkpt>
<trkpt lat="48.8384519" lon="2.9128831">
<ele>84.52</ele>
<time>2020-09-06T10:13:12Z</time>
</trkpt>
<trkpt lat="48.8386828" lon="2.9128445">
<ele>82.25</ele>
<time>2020-09-06T10:13:15Z</time>
</trkpt>
<trkpt lat="48.8389212" lon="2.9127227">
<ele>79.68</ele>
<time>2020-09-06T10:13:18Z</time>
</trkpt>
<trkpt lat="48.8391591" lon="2.9126260">
<ele>76.91</ele>
<time>2020-09-06T10:13:21Z</time>
</trkpt>
<trkpt lat="48.8394286" lon="2.9126804">
<ele>74.01</ele>
<time>2020-09-06T10:13:24Z</time>
</trkpt>
<trkpt lat="48.8396214" lon="2.9127311">
<ele>71.98</ele>
<time>2020-09-06T10:13:26Z</time>
</trkpt>
<trkpt lat="48.8398789" lon="2.9126594">
<ele>69.86</ele>
<time>2020-09-06T10:13:29Z</time>
</trkpt>
<trkpt lat="48.8401423" lon="2.9127383">
<ele>66.83</ele>
<time>2020-09-06T10:13:32Z</time>
</trkpt>
<trkpt lat="48.8403175" lon="2.9128514">
<ele>65.01</ele>
<time>2020-09-06T10:13:34Z</time>
</trkpt>
<trkpt lat="48.8404844" lon="2.9129619">
<ele>63.57</ele>
<time>2020-09-06T10:13:36Z</time>
</trkpt>
<trkpt lat="48.8406499" lon="2.9130924">
<ele>62.35</ele>
<time>2020-09-06T10:13:38Z</time>
</trkpt>
<trkpt lat="48.8408149" lon="2.9132234">
<ele>61.21</ele>
<time>2020-09-06T10:13:40Z</time>
</trkpt>
<trkpt lat="48.8409870" lon="2.9133325">
<ele>60.14</ele>
<time>2020-09-06T10:13:42Z</time>
</trkpt>
<trkpt lat="48.8411606" lon="2.9134196">
<ele>59.21</ele>
<time>2020-09-06T10:13:44Z</time>
</trkpt>
<trkpt lat="48.8413412" lon="2.9134823">
<ele>58.08</ele>
<time>2020-09-06T10:13:47Z</time>
</trkpt>
<trkpt lat="48.8415509" lon="2.9135113">
<ele>57.42</ele>
<time>2020-09-06T10:13:52Z</time>
</trkpt>
<trkpt lat="48.8417399" lon="2.9134747">
<ele>58.67</ele>
<time>2020-09-06T10:13:59Z</time>
</trkpt>
<trkpt lat="48.8419180" lon="2.9134252">
<ele>59.18</ele>
<time>2020-09-06T10:14:11Z</time>
</trkpt>
<trkpt lat="48.8421182" lon="2.9134580">
<ele>56.75</ele>
<time>2020-09-06T10:14:32Z</time>
</trkpt>
<trkpt lat="48.8422608" lon="2.9136250">
<ele>55.46</ele>
<time>2020-09-06T10:14:37Z</time>
</trkpt>
<trkpt lat="48.8421984" lon="2.9139317">
<ele>56.47</ele>
<time>2020-09-06T10:14:42Z</time>
</trkpt>
<trkpt lat="48.8423444" lon="2.9141429">
<ele>55.11</ele>
<time>2020-09-06T10:14:47Z</time>
</trkpt>
<trkpt lat="48.8425453" lon="2.9142756">
<ele>54.50</ele>
<time>2020-09-06T10:14:51Z</time>
</trkpt>
<trkpt lat="48.8427510" lon="2.9143787">
<ele>53.40</ele>
<time>2020-09-06T10:14:55Z</time>
</trkpt>
<trkpt lat="48.8428367" lon="2.9146391">
<ele>52.60</ele>
<time>2020-09-06T10:15:00Z</time>
</trkpt>
<trkpt lat="48.8428068" lon="2.9149678">
<ele>52.30</ele>
<time>2020-09-06T10:15:05Z</time>
</trkpt>
<trkpt lat="48.8427845" lon="2.9152961">
<ele>52.53</ele>
<time>2020-09-06T10:15:10Z</time>
</trkpt>
<trkpt lat="48.8428129" lon="2.9156004">
<ele>52.60</ele>
<time>2020-09-06T10:15:15Z</time>
</trkpt>
<trkpt lat="48.8429879" lon="2.9157779">
<ele>51.97</ele>
<time>2020-09-06T10:15:21Z</time>
</trkpt>
<trkpt lat="48.8431793" lon="2.9159019">
<ele>51.24</ele>
<time>2020-09-06T10:15:25Z</time>
</trkpt>
<trkpt lat="48.8433735" lon="2.9160257">
<ele>50.75</ele>
<time>2020-09-06T10:15:29Z</time>
</trkpt>
<trkpt lat="48.8435484" lon="2.9161245">
<ele>50.59</ele>
<time>2020-09-06T10:15:33Z</time>
</trkpt>
<trkpt lat="48.8436319" lon="2.9163837">
<ele>50.45</ele>
<time>2020-09-06T10:15:38Z</time>
</trkpt>
<trkpt lat="48.8436239" lon="2.9167275">
<ele>51.37</ele>
<time>2020-09-06T10:15:43Z</time>
</trkpt>
<trkpt lat="48.8436268" lon="2.9170267">
<ele>51.35</ele>
<time>2020-09-06T10:15:47Z</time>
</trkpt>
<trkpt lat="48.8436180" lon="2.9173118">
<ele>51.65</ele>
<time>2020-09-06T10:15:51Z</time>
</trkpt>
<trkpt lat="48.8436088" lon="2.9175968">
<ele>52.45</ele>
<time>2020-09-06T10:15:55Z</time>
</trkpt>
<trkpt lat="48.8436095" lon="2.9178877">
<ele>53.46</ele>
<time>2020-09-06T10:15:59Z</time>
</trkpt>
<trkpt lat="48.8436045" lon="2.9182044">
<ele>54.07</ele>
<time>2020-09-06T10:16:03Z</time>
</trkpt>
<trkpt lat="48.8435978" lon="2.9185492">
<ele>53.47</ele>
<time>2020-09-06T10:16:07Z</time>
</trkpt>
<trkpt lat="48.8435894" lon="2.9188281">
<ele>53.35</ele>
<time>2020-09-06T10:16:10Z</time>
</trkpt>
<trkpt lat="48.8435814" lon="2.9191831">
<ele>53.56</ele>
<time>2020-09-06T10:16:14Z</time>
</trkpt>
<trkpt lat="48.8435724" lon="2.9195185">
<ele>54.14</ele>
<time>2020-09-06T10:16:18Z</time>
</trkpt>
<trkpt lat="48.8435626" lon="2.9198771">
<ele>53.53</ele>
<time>2020-09-06T10:16:22Z</time>
</trkpt>
<trkpt lat="48.8435533" lon="2.9202215">
<ele>53.63</ele>
<time>2020-09-06T10:16:26Z</time>
</trkpt>
<trkpt lat="48.8435558" lon="2.9205572">
<ele>54.96</ele>
<time>2020-09-06T10:16:30Z</time>
</trkpt>
<trkpt lat="48.8435826" lon="2.9208492">
<ele>56.38</ele>
<time>2020-09-06T10:16:34Z</time>
</trkpt>
<trkpt lat="48.8436091" lon="2.9211363">
<ele>56.58</ele>
<time>2020-09-06T10:16:38Z</time>
</trkpt>
<trkpt lat="48.8436458" lon="2.9214240">
<ele>57.05</ele>
<time>2020-09-06T10:16:42Z</time>
</trkpt>
<trkpt lat="48.8436847" lon="2.9217542">
<ele>56.93</ele>
<time>2020-09-06T10:16:46Z</time>
</trkpt>
<trkpt lat="48.8437330" lon="2.9220883">
<ele>57.16</ele>
<time>2020-09-06T10:16:50Z</time>
</trkpt>
<trkpt lat="48.8437687" lon="2.9224372">
<ele>56.98</ele>
<time>2020-09-06T10:16:54Z</time>
</trkpt>
<trkpt lat="48.8438082" lon="2.9227559">
<ele>57.60</ele>
<time>2020-09-06T10:16:58Z</time>
</trkpt>
<trkpt lat="48.8438798" lon="2.9230252">
<ele>56.22</ele>
<time>2020-09-06T10:18:22Z</time>
</trkpt>
<trkpt lat="48.8439972" lon="2.9232913">
<ele>55.12</ele>
<time>2020-09-06T10:18:27Z</time>
</trkpt>
<trkpt lat="48.8441157" lon="2.9235700">
<ele>54.16</ele>
<time>2020-09-06T10:18:32Z</time>
</trkpt>
<trkpt lat="48.8442141" lon="2.9238269">
<ele>52.87</ele>
<time>2020-09-06T10:18:36Z</time>
</trkpt>
<trkpt lat="48.8442993" lon="2.9240882">
<ele>52.76</ele>
<time>2020-09-06T10:18:40Z</time>
</trkpt>
<trkpt lat="48.8443824" lon="2.9243533">
<ele>53.12</ele>
<time>2020-09-06T10:18:44Z</time>
</trkpt>
<trkpt lat="48.8444771" lon="2.9246153">
<ele>53.19</ele>
<time>2020-09-06T10:18:48Z</time>
</trkpt>
<trkpt lat="48.8445667" lon="2.9248827">
<ele>53.59</ele>
<time>2020-09-06T10:18:52Z</time>
</trkpt>
<trkpt lat="48.8446609" lon="2.9251796">
<ele>52.41</ele>
<time>2020-09-06T10:18:56Z</time>
</trkpt>
<trkpt lat="48.8447439" lon="2.9254834">
<ele>51.93</ele>
<time>2020-09-06T10:19:00Z</time>
</trkpt>
<trkpt lat="48.8448271" lon="2.9257563">
<ele>53.78</ele>
<time>2020-09-06T10:19:04Z</time>
</trkpt>
<trkpt lat="48.8449371" lon="2.9260181">
<ele>53.48</ele>
<time>2020-09-06T10:19:08Z</time>
</trkpt>
<trkpt lat="48.8450467" lon="2.9262802">
<ele>53.25</ele>
<time>2020-09-06T10:19:12Z</time>
</trkpt>
<trkpt lat="48.8451487" lon="2.9265310">
<ele>54.28</ele>
<time>2020-09-06T10:19:16Z</time>
</trkpt>
<trkpt lat="48.8452525" lon="2.9267937">
<ele>54.90</ele>
<time>2020-09-06T10:19:20Z</time>
</trkpt>
<trkpt lat="48.8453487" lon="2.9270451">
<ele>55.58</ele>
<time>2020-09-06T10:19:24Z</time>
</trkpt>
<trkpt lat="48.8454981" lon="2.9272278">
<ele>58.49</ele>
<time>2020-09-06T10:19:28Z</time>
</trkpt>
<trkpt lat="48.8456548" lon="2.9274599">
<ele>57.08</ele>
<time>2020-09-06T10:19:33Z</time>
</trkpt>
<trkpt lat="48.8458215" lon="2.9276338">
<ele>56.09</ele>
<time>2020-09-06T10:19:37Z</time>
</trkpt>
<trkpt lat="48.8459793" lon="2.9278048">
<ele>55.00</ele>
<time>2020-09-06T10:19:41Z</time>
</trkpt>
<trkpt lat="48.8461432" lon="2.9279373">
<ele>55.87</ele>
<time>2020-09-06T10:19:45Z</time>
</trkpt>
<trkpt lat="48.8463224" lon="2.9280813">
<ele>58.35</ele>
<time>2020-09-06T10:19:49Z</time>
</trkpt>
<trkpt lat="48.8465122" lon="2.9282480">
<ele>58.06</ele>
<time>2020-09-06T10:19:55Z</time>
</trkpt>
<trkpt lat="48.8466850" lon="2.9283978">
<ele>58.59</ele>
<time>2020-09-06T10:20:06Z</time>
</trkpt>
<trkpt lat="48.8468880" lon="2.9285023">
<ele>54.37</ele>
<time>2020-09-06T10:20:11Z</time>
</trkpt>
<trkpt lat="48.8470628" lon="2.9285865">
<ele>53.71</ele>
<time>2020-09-06T10:20:14Z</time>
</trkpt>
<trkpt lat="48.8472447" lon="2.9286456">
<ele>53.16</ele>
<time>2020-09-06T10:20:17Z</time>
</trkpt>
<trkpt lat="48.8474338" lon="2.9287704">
<ele>54.31</ele>
<time>2020-09-06T10:20:21Z</time>
</trkpt>
<trkpt lat="48.8476562" lon="2.9288977">
<ele>54.92</ele>
<time>2020-09-06T10:20:25Z</time>
</trkpt>
<trkpt lat="48.8478645" lon="2.9290135">
<ele>54.51</ele>
<time>2020-09-06T10:20:29Z</time>
</trkpt>
<trkpt lat="48.8480624" lon="2.9291954">
<ele>53.78</ele>
<time>2020-09-06T10:20:33Z</time>
</trkpt>
<trkpt lat="48.8482696" lon="2.9293344">
<ele>52.95</ele>
<time>2020-09-06T10:20:37Z</time>
</trkpt>
<trkpt lat="48.8484375" lon="2.9294389">
<ele>54.27</ele>
<time>2020-09-06T10:20:40Z</time>
</trkpt>
<trkpt lat="48.8486362" lon="2.9295719">
<ele>57.07</ele>
<time>2020-09-06T10:20:44Z</time>
</trkpt>
<trkpt lat="48.8488278" lon="2.9296733">
<ele>57.35</ele>
<time>2020-09-06T10:20:48Z</time>
</trkpt>
<trkpt lat="48.8490226" lon="2.9297757">
<ele>57.08</ele>
<time>2020-09-06T10:20:53Z</time>
</trkpt>
<trkpt lat="48.8492169" lon="2.9297913">
<ele>56.26</ele>
<time>2020-09-06T10:21:00Z</time>
</trkpt>
<trkpt lat="48.8493999" lon="2.9298182">
<ele>54.54</ele>
<time>2020-09-06T10:21:09Z</time>
</trkpt>
<trkpt lat="48.8495930" lon="2.9298160">
<ele>54.51</ele>
<time>2020-09-06T10:21:15Z</time>
</trkpt>
<trkpt lat="48.8497781" lon="2.9298619">
<ele>54.97</ele>
<time>2020-09-06T10:21:20Z</time>
</trkpt>
<trkpt lat="48.8500017" lon="2.9298536">
<ele>55.89</ele>
<time>2020-09-06T10:21:24Z</time>
</trkpt>
<trkpt lat="48.8501912" lon="2.9298737">
<ele>56.24</ele>
<time>2020-09-06T10:21:28Z</time>
</trkpt>
<trkpt lat="48.8504373" lon="2.9298702">
<ele>56.80</ele>
<time>2020-09-06T10:21:33Z</time>
</trkpt>
<trkpt lat="48.8506199" lon="2.9299297">
<ele>56.00</ele>
<time>2020-09-06T10:21:34Z</time>
</trkpt>
<trkpt lat="48.8508693" lon="2.9300008">
<ele>56.22</ele>
<time>2020-09-06T10:21:36Z</time>
</trkpt>
<trkpt lat="48.8510826" lon="2.9300869">
<ele>54.15</ele>
<time>2020-09-06T10:21:39Z</time>
</trkpt>
<trkpt lat="48.8512764" lon="2.9301003">
<ele>53.71</ele>
<time>2020-09-06T10:21:42Z</time>
</trkpt>
<trkpt lat="48.8514947" lon="2.9301748">
<ele>53.04</ele>
<time>2020-09-06T10:21:46Z</time>
</trkpt>
<trkpt lat="48.8516737" lon="2.9302084">
<ele>50.52</ele>
<time>2020-09-06T10:21:50Z</time>
</trkpt>
<trkpt lat="48.8518755" lon="2.9302031">
<ele>50.20</ele>
<time>2020-09-06T10:21:55Z</time>
</trkpt>
<trkpt lat="48.8520890" lon="2.9302128">
<ele>48.43</ele>
<time>2020-09-06T10:22:00Z</time>
</trkpt>
<trkpt lat="48.8522811" lon="2.9301997">
<ele>46.54</ele>
<time>2020-09-06T10:22:05Z</time>
</trkpt>
<trkpt lat="48.8524916" lon="2.9301620">
<ele>48.43</ele>
<time>2020-09-06T10:22:11Z</time>
</trkpt>
<trkpt lat="48.8527163" lon="2.9301260">
<ele>47.61</ele>
<time>2020-09-06T10:22:14Z</time>
</trkpt>
<trkpt lat="48.8529023" lon="2.9300886">
<ele>49.78</ele>
<time>2020-09-06T10:22:19Z</time>
</trkpt>
<trkpt lat="48.8531384" lon="2.9300515">
<ele>49.60</ele>
<time>2020-09-06T10:22:24Z</time>
</trkpt>
<trkpt lat="48.8533490" lon="2.9299684">
<ele>49.18</ele>
<time>2020-09-06T10:22:28Z</time>
</trkpt>
<trkpt lat="48.8535523" lon="2.9298993">
<ele>49.23</ele>
<time>2020-09-06T10:22:33Z</time>
</trkpt>
<trkpt lat="48.8537375" lon="2.9298200">
<ele>50.08</ele>
<time>2020-09-06T10:22:38Z</time>
</trkpt>
<trkpt lat="48.8538104" lon="2.9295531">
<ele>48.98</ele>
<time>2020-09-06T10:22:45Z</time>
</trkpt>
<trkpt lat="48.8537197" lon="2.9297931">
<ele>49.70</ele>
<time>2020-09-06T10:23:04Z</time>
</trkpt>
<trkpt lat="48.8539009" lon="2.9297107">
<ele>49.80</ele>
<time>2020-09-06T10:23:10Z</time>
</trkpt>
<trkpt lat="48.8540797" lon="2.9296355">
<ele>49.99</ele>
<time>2020-09-06T10:23:15Z</time>
</trkpt>
<trkpt lat="48.8542682" lon="2.9295581">
<ele>50.75</ele>
<time>2020-09-06T10:23:20Z</time>
</trkpt>
<trkpt lat="48.8544660" lon="2.9294604">
<ele>51.85</ele>
<time>2020-09-06T10:23:25Z</time>
</trkpt>
<trkpt lat="48.8546704" lon="2.9293776">
<ele>52.95</ele>
<time>2020-09-06T10:23:32Z</time>
</trkpt>
<trkpt lat="48.8548731" lon="2.9292809">
<ele>53.68</ele>
<time>2020-09-06T10:23:38Z</time>
</trkpt>
<trkpt lat="48.8550786" lon="2.9292090">
<ele>53.34</ele>
<time>2020-09-06T10:23:44Z</time>
</trkpt>
<trkpt lat="48.8552666" lon="2.9291563">
<ele>55.11</ele>
<time>2020-09-06T10:23:50Z</time>
</trkpt>
<trkpt lat="48.8554284" lon="2.9290213">
<ele>54.99</ele>
<time>2020-09-06T10:23:55Z</time>
</trkpt>
<trkpt lat="48.8556139" lon="2.9288445">
<ele>54.50</ele>
<time>2020-09-06T10:24:00Z</time>
</trkpt>
<trkpt lat="48.8557791" lon="2.9287102">
<ele>55.45</ele>
<time>2020-09-06T10:24:05Z</time>
</trkpt>
<trkpt lat="48.8559368" lon="2.9285724">
<ele>56.62</ele>
<time>2020-09-06T10:24:10Z</time>
</trkpt>
<trkpt lat="48.8560992" lon="2.9284122">
<ele>57.11</ele>
<time>2020-09-06T10:24:15Z</time>
</trkpt>
<trkpt lat="48.8562778" lon="2.9282521">
<ele>57.87</ele>
<time>2020-09-06T10:24:20Z</time>
</trkpt>
<trkpt lat="48.8564491" lon="2.9281023">
<ele>55.51</ele>
<time>2020-09-06T10:24:25Z</time>
</trkpt>
<trkpt lat="48.8566258" lon="2.9279360">
<ele>53.45</ele>
<time>2020-09-06T10:24:29Z</time>
</trkpt>
<trkpt lat="48.8567949" lon="2.9277822">
<ele>51.58</ele>
<time>2020-09-06T10:24:34Z</time>
</trkpt>
<trkpt lat="48.8569567" lon="2.9276186">
<ele>53.89</ele>
<time>2020-09-06T10:24:40Z</time>
</trkpt>
<trkpt lat="48.8571069" lon="2.9274557">
<ele>54.64</ele>
<time>2020-09-06T10:24:45Z</time>
</trkpt>
<trkpt lat="48.8572674" lon="2.9272849">
<ele>54.69</ele>
<time>2020-09-06T10:24:50Z</time>
</trkpt>
<trkpt lat="48.8574477" lon="2.9271160">
<ele>53.86</ele>
<time>2020-09-06T10:24:56Z</time>
</trkpt>
<trkpt lat="48.8576137" lon="2.9269480">
<ele>53.67</ele>
<time>2020-09-06T10:25:02Z</time>
</trkpt>
<trkpt lat="48.8577875" lon="2.9267848">
<ele>53.84</ele>
<time>2020-09-06T10:25:10Z</time>
</trkpt>
<trkpt lat="48.8579609" lon="2.9266500">
<ele>51.62</ele>
<time>2020-09-06T10:25:18Z</time>
</trkpt>
<trkpt lat="48.8580981" lon="2.9264658">
<ele>49.26</ele>
<time>2020-09-06T10:25:23Z</time>
</trkpt>
<trkpt lat="48.8582095" lon="2.9261910">
<ele>49.42</ele>
<time>2020-09-06T10:25:28Z</time>
</trkpt>
<trkpt lat="48.8583247" lon="2.9259624">
<ele>51.05</ele>
<time>2020-09-06T10:25:33Z</time>
</trkpt>
<trkpt lat="48.8584019" lon="2.9256865">
<ele>51.32</ele>
<time>2020-09-06T10:25:38Z</time>
</trkpt>
<trkpt lat="48.8584293" lon="2.9254083">
<ele>52.33</ele>
<time>2020-09-06T10:25:45Z</time>
</trkpt>
<trkpt lat="48.8583878" lon="2.9251310">
<ele>52.90</ele>
<time>2020-09-06T10:25:51Z</time>
</trkpt>
<trkpt lat="48.8583008" lon="2.9248269">
<ele>50.67</ele>
<time>2020-09-06T10:25:57Z</time>
</trkpt>
<trkpt lat="48.8582931" lon="2.9245232">
<ele>51.80</ele>
<time>2020-09-06T10:26:02Z</time>
</trkpt>
<trkpt lat="48.8583022" lon="2.9242489">
<ele>53.84</ele>
<time>2020-09-06T10:26:10Z</time>
</trkpt>
<trkpt lat="48.8582890" lon="2.9239408">
<ele>57.11</ele>
<time>2020-09-06T10:26:16Z</time>
</trkpt>
<trkpt lat="48.8582675" lon="2.9236619">
<ele>54.74</ele>
<time>2020-09-06T10:26:21Z</time>
</trkpt>
<trkpt lat="48.8582869" lon="2.9233829">
<ele>53.68</ele>
<time>2020-09-06T10:26:27Z</time>
</trkpt>
<trkpt lat="48.8582898" lon="2.9230453">
<ele>52.46</ele>
<time>2020-09-06T10:26:32Z</time>
</trkpt>
<trkpt lat="48.8583150" lon="2.9227069">
<ele>53.20</ele>
<time>2020-09-06T10:26:36Z</time>
</trkpt>
<trkpt lat="48.8583252" lon="2.9223890">
<ele>52.68</ele>
<time>2020-09-06T10:26:41Z</time>
</trkpt>
<trkpt lat="48.8583565" lon="2.9220629">
<ele>52.74</ele>
<time>2020-09-06T10:26:46Z</time>
</trkpt>
<trkpt lat="48.8583848" lon="2.9217853">
<ele>54.29</ele>
<time>2020-09-06T10:26:51Z</time>
</trkpt>
<trkpt lat="48.8584267" lon="2.9214710">
<ele>54.49</ele>
<time>2020-09-06T10:26:56Z</time>
</trkpt>
<trkpt lat="48.8584669" lon="2.9211657">
<ele>52.13</ele>
<time>2020-09-06T10:27:00Z</time>
</trkpt>
<trkpt lat="48.8585260" lon="2.9208681">
<ele>51.55</ele>
<time>2020-09-06T10:27:04Z</time>
</trkpt>
<trkpt lat="48.8586040" lon="2.9205685">
<ele>52.16</ele>
<time>2020-09-06T10:27:08Z</time>
</trkpt>
<trkpt lat="48.8586356" lon="2.9202556">
<ele>51.24</ele>
<time>2020-09-06T10:27:13Z</time>
</trkpt>
<trkpt lat="48.8587061" lon="2.9199317">
<ele>51.94</ele>
<time>2020-09-06T10:27:18Z</time>
</trkpt>
<trkpt lat="48.8587603" lon="2.9196126">
<ele>53.94</ele>
<time>2020-09-06T10:27:23Z</time>
</trkpt>
<trkpt lat="48.8587872" lon="2.9193263">
<ele>53.52</ele>
<time>2020-09-06T10:27:28Z</time>
</trkpt>
<trkpt lat="48.8586113" lon="2.9192233">
<ele>52.33</ele>
<time>2020-09-06T10:27:41Z</time>
</trkpt>
<trkpt lat="48.8583985" lon="2.9191220">
<ele>51.46</ele>
<time>2020-09-06T10:27:45Z</time>
</trkpt>
<trkpt lat="48.8582386" lon="2.9189610">
<ele>50.89</ele>
<time>2020-09-06T10:27:51Z</time>
</trkpt>
<trkpt lat="48.8582342" lon="2.9186842">
<ele>49.36</ele>
<time>2020-09-06T10:27:57Z</time>
</trkpt>
<trkpt lat="48.8582328" lon="2.9183929">
<ele>50.53</ele>
<time>2020-09-06T10:28:02Z</time>
</trkpt>
<trkpt lat="48.8582037" lon="2.9181150">
<ele>48.89</ele>
<time>2020-09-06T10:28:07Z</time>
</trkpt>
<trkpt lat="48.8581523" lon="2.9178121">
<ele>49.40</ele>
<time>2020-09-06T10:28:13Z</time>
</trkpt>
<trkpt lat="48.8580858" lon="2.9174967">
<ele>50.36</ele>
<time>2020-09-06T10:28:19Z</time>
</trkpt>
<trkpt lat="48.8581015" lon="2.9172032">
<ele>48.50</ele>
<time>2020-09-06T10:28:25Z</time>
</trkpt>
<trkpt lat="48.8581338" lon="2.9168945">
<ele>48.80</ele>
<time>2020-09-06T10:28:31Z</time>
</trkpt>
<trkpt lat="48.8581323" lon="2.9166041">
<ele>49.35</ele>
<time>2020-09-06T10:28:36Z</time>
</trkpt>
<trkpt lat="48.8580688" lon="2.9163068">
<ele>50.80</ele>
<time>2020-09-06T10:28:42Z</time>
</trkpt>
<trkpt lat="48.8579777" lon="2.9160688">
<ele>50.99</ele>
<time>2020-09-06T10:28:47Z</time>
</trkpt>
<trkpt lat="48.8578599" lon="2.9158578">
<ele>52.34</ele>
<time>2020-09-06T10:28:53Z</time>
</trkpt>
<trkpt lat="48.8577627" lon="2.9155868">
<ele>52.46</ele>
<time>2020-09-06T10:29:00Z</time>
</trkpt>
<trkpt lat="48.8576761" lon="2.9153379">
<ele>51.87</ele>
<time>2020-09-06T10:29:05Z</time>
</trkpt>
<trkpt lat="48.8576005" lon="2.9150445">
<ele>50.21</ele>
<time>2020-09-06T10:29:10Z</time>
</trkpt>
<trkpt lat="48.8576693" lon="2.9147762">
<ele>49.67</ele>
<time>2020-09-06T10:29:17Z</time>
</trkpt>
<trkpt lat="48.8577956" lon="2.9145752">
<ele>48.52</ele>
<time>2020-09-06T10:29:23Z</time>
</trkpt>
<trkpt lat="48.8579568" lon="2.9143807">
<ele>49.60</ele>
<time>2020-09-06T10:29:30Z</time>
</trkpt>
<trkpt lat="48.8580976" lon="2.9141641">
<ele>49.64</ele>
<time>2020-09-06T10:29:35Z</time>
</trkpt>
<trkpt lat="48.8582377" lon="2.9139514">
<ele>51.46</ele>
<time>2020-09-06T10:29:41Z</time>
</trkpt>
<trkpt lat="48.8583796" lon="2.9137431">
<ele>51.66</ele>
<time>2020-09-06T10:29:53Z</time>
</trkpt>
<trkpt lat="48.8584644" lon="2.9134729">
<ele>50.34</ele>
<time>2020-09-06T10:30:03Z</time>
</trkpt>
<trkpt lat="48.8585398" lon="2.9131970">
<ele>51.59</ele>
<time>2020-09-06T10:30:11Z</time>
</trkpt>
<trkpt lat="48.8586518" lon="2.9129822">
<ele>48.84</ele>
<time>2020-09-06T10:37:44Z</time>
</trkpt>
<trkpt lat="48.8586670" lon="2.9126909">
<ele>49.13</ele>
<time>2020-09-06T10:38:04Z</time>
</trkpt>
<trkpt lat="48.8586729" lon="2.9123891">
<ele>50.90</ele>
<time>2020-09-06T10:38:13Z</time>
</trkpt>
<trkpt lat="48.8586526" lon="2.9120953">
<ele>52.43</ele>
<time>2020-09-06T10:38:20Z</time>
</trkpt>
<trkpt lat="48.8586177" lon="2.9118112">
<ele>54.62</ele>
<time>2020-09-06T10:38:27Z</time>
</trkpt>
<trkpt lat="48.8586184" lon="2.9114911">
<ele>50.86</ele>
<time>2020-09-06T10:38:34Z</time>
</trkpt>
<trkpt lat="48.8586365" lon="2.9112097">
<ele>49.33</ele>
<time>2020-09-06T10:38:40Z</time>
</trkpt>
<trkpt lat="48.8585908" lon="2.9109277">
<ele>49.67</ele>
<time>2020-09-06T10:38:50Z</time>
</trkpt>
<trkpt lat="48.8585718" lon="2.9106374">
<ele>53.54</ele>
<time>2020-09-06T10:39:02Z</time>
</trkpt>
<trkpt lat="48.8585493" lon="2.9103350">
<ele>51.53</ele>
<time>2020-09-06T10:39:10Z</time>
</trkpt>
<trkpt lat="48.8585092" lon="2.9100364">
<ele>50.17</ele>
<time>2020-09-06T10:39:16Z</time>
</trkpt>
<trkpt lat="48.8584990" lon="2.9097247">
<ele>53.58</ele>
<time>2020-09-06T10:39:22Z</time>
</trkpt>
<trkpt lat="48.8584662" lon="2.9094425">
<ele>52.46</ele>
<time>2020-09-06T10:39:28Z</time>
</trkpt>
<trkpt lat="48.8584369" lon="2.9091420">
<ele>50.88</ele>
<time>2020-09-06T10:39:33Z</time>
</trkpt>
<trkpt lat="48.8584304" lon="2.9088541">
<ele>50.61</ele>
<time>2020-09-06T10:39:39Z</time>
</trkpt>
<trkpt lat="48.8584071" lon="2.9085805">
<ele>51.56</ele>
<time>2020-09-06T10:39:44Z</time>
</trkpt>
<trkpt lat="48.8583853" lon="2.9083068">
<ele>51.36</ele>
<time>2020-09-06T10:39:49Z</time>
</trkpt>
<trkpt lat="48.8583691" lon="2.9079921">
<ele>52.57</ele>
<time>2020-09-06T10:39:55Z</time>
</trkpt>
<trkpt lat="48.8584379" lon="2.9076889">
<ele>51.27</ele>
<time>2020-09-06T10:40:03Z</time>
</trkpt>
<trkpt lat="48.8584285" lon="2.9073644">
<ele>53.63</ele>
<time>2020-09-06T10:40:09Z</time>
</trkpt>
<trkpt lat="48.8583474" lon="2.9070970">
<ele>52.37</ele>
<time>2020-09-06T10:40:15Z</time>
</trkpt>
<trkpt lat="48.8583846" lon="2.9068136">
<ele>52.18</ele>
<time>2020-09-06T10:40:24Z</time>
</trkpt>
<trkpt lat="48.8584491" lon="2.9065445">
<ele>50.89</ele>
<time>2020-09-06T10:40:35Z</time>
</trkpt>
<trkpt lat="48.8584845" lon="2.9062710">
<ele>50.13</ele>
<time>2020-09-06T10:40:47Z</time>
</trkpt>
<trkpt lat="48.8584635" lon="2.9065606">
<ele>50.01</ele>
<time>2020-09-06T10:41:17Z</time>
</trkpt>
<trkpt lat="48.8584880" lon="2.9062827">
<ele>51.15</ele>
<time>2020-09-06T10:41:35Z</time>
</trkpt>
<trkpt lat="48.8585391" lon="2.9059974">
<ele>51.72</ele>
<time>2020-09-06T10:41:42Z</time>
</trkpt>
<trkpt lat="48.8585990" lon="2.9056994">
<ele>53.24</ele>
<time>2020-09-06T10:41:48Z</time>
</trkpt>
<trkpt lat="48.8586631" lon="2.9054076">
<ele>53.09</ele>
<time>2020-09-06T10:41:53Z</time>
</trkpt>
<trkpt lat="48.8587250" lon="2.9050928">
<ele>51.89</ele>
<time>2020-09-06T10:41:58Z</time>
</trkpt>
<trkpt lat="48.8587633" lon="2.9047960">
<ele>51.26</ele>
<time>2020-09-06T10:42:02Z</time>
</trkpt>
<trkpt lat="48.8588334" lon="2.9044772">
<ele>50.01</ele>
<time>2020-09-06T10:42:06Z</time>
</trkpt>
<trkpt lat="48.8588992" lon="2.9041988">
<ele>49.61</ele>
<time>2020-09-06T10:42:10Z</time>
</trkpt>
<trkpt lat="48.8589721" lon="2.9038727">
<ele>49.88</ele>
<time>2020-09-06T10:42:15Z</time>
</trkpt>
<trkpt lat="48.8590530" lon="2.9035513">
<ele>49.20</ele>
<time>2020-09-06T10:42:20Z</time>
</trkpt>
<trkpt lat="48.8591281" lon="2.9032765">
<ele>49.78</ele>
<time>2020-09-06T10:42:24Z</time>
</trkpt>
<trkpt lat="48.8591970" lon="2.9029591">
<ele>49.14</ele>
<time>2020-09-06T10:42:29Z</time>
</trkpt>
<trkpt lat="48.8592627" lon="2.9026520">
<ele>50.76</ele>
<time>2020-09-06T10:42:34Z</time>
</trkpt>
<trkpt lat="48.8593321" lon="2.9023458">
<ele>49.51</ele>
<time>2020-09-06T10:42:39Z</time>
</trkpt>
<trkpt lat="48.8594070" lon="2.9020248">
<ele>49.28</ele>
<time>2020-09-06T10:42:44Z</time>
</trkpt>
<trkpt lat="48.8594501" lon="2.9017194">
<ele>50.69</ele>
<time>2020-09-06T10:42:49Z</time>
</trkpt>
<trkpt lat="48.8595016" lon="2.9014061">
<ele>51.50</ele>
<time>2020-09-06T10:42:54Z</time>
</trkpt>
<trkpt lat="48.8595496" lon="2.9011382">
<ele>51.06</ele>
<time>2020-09-06T10:42:58Z</time>
</trkpt>
<trkpt lat="48.8596131" lon="2.9008075">
<ele>49.94</ele>
<time>2020-09-06T10:43:03Z</time>
</trkpt>
<trkpt lat="48.8596872" lon="2.9004819">
<ele>49.52</ele>
<time>2020-09-06T10:43:08Z</time>
</trkpt>
<trkpt lat="48.8597414" lon="2.9001733">
<ele>50.23</ele>
<time>2020-09-06T10:43:13Z</time>
</trkpt>
<trkpt lat="48.8597960" lon="2.8999052">
<ele>49.89</ele>
<time>2020-09-06T10:43:17Z</time>
</trkpt>
<trkpt lat="48.8598480" lon="2.8996424">
<ele>49.49</ele>
<time>2020-09-06T10:43:21Z</time>
</trkpt>
<trkpt lat="48.8598850" lon="2.8993715">
<ele>50.12</ele>
<time>2020-09-06T10:43:25Z</time>
</trkpt>
<trkpt lat="48.8599323" lon="2.8990763">
<ele>50.78</ele>
<time>2020-09-06T10:43:29Z</time>
</trkpt>
<trkpt lat="48.8599645" lon="2.8988061">
<ele>51.14</ele>
<time>2020-09-06T10:43:33Z</time>
</trkpt>
<trkpt lat="48.8600025" lon="2.8985282">
<ele>51.43</ele>
<time>2020-09-06T10:43:37Z</time>
</trkpt>
<trkpt lat="48.8600428" lon="2.8982432">
<ele>51.39</ele>
<time>2020-09-06T10:43:41Z</time>
</trkpt>
<trkpt lat="48.8601014" lon="2.8979286">
<ele>51.27</ele>
<time>2020-09-06T10:43:46Z</time>
</trkpt>
<trkpt lat="48.8601258" lon="2.8976525">
<ele>50.91</ele>
<time>2020-09-06T10:43:50Z</time>
</trkpt>
<trkpt lat="48.8601624" lon="2.8973527">
<ele>50.83</ele>
<time>2020-09-06T10:43:54Z</time>
</trkpt>
<trkpt lat="48.8602056" lon="2.8970521">
<ele>51.57</ele>
<time>2020-09-06T10:43:58Z</time>
</trkpt>
<trkpt lat="48.8602513" lon="2.8967613">
<ele>51.16</ele>
<time>2020-09-06T10:44:02Z</time>
</trkpt>
<trkpt lat="48.8602983" lon="2.8964880">
<ele>51.16</ele>
<time>2020-09-06T10:44:06Z</time>
</trkpt>
<trkpt lat="48.8603396" lon="2.8962023">
<ele>51.26</ele>
<time>2020-09-06T10:44:10Z</time>
</trkpt>
<trkpt lat="48.8603977" lon="2.8959138">
<ele>50.98</ele>
<time>2020-09-06T10:44:14Z</time>
</trkpt>
<trkpt lat="48.8604583" lon="2.8956429">
<ele>51.56</ele>
<time>2020-09-06T10:44:18Z</time>
</trkpt>
<trkpt lat="48.8605193" lon="2.8953736">
<ele>51.58</ele>
<time>2020-09-06T10:44:22Z</time>
</trkpt>
<trkpt lat="48.8605812" lon="2.8950956">
<ele>51.89</ele>
<time>2020-09-06T10:44:26Z</time>
</trkpt>
<trkpt lat="48.8606451" lon="2.8947701">
<ele>52.07</ele>
<time>2020-09-06T10:44:31Z</time>
</trkpt>
<trkpt lat="48.8607057" lon="2.8944859">
<ele>51.63</ele>
<time>2020-09-06T10:44:35Z</time>
</trkpt>
<trkpt lat="48.8607700" lon="2.8941856">
<ele>50.89</ele>
<time>2020-09-06T10:44:39Z</time>
</trkpt>
<trkpt lat="48.8608384" lon="2.8938768">
<ele>50.93</ele>
<time>2020-09-06T10:44:43Z</time>
</trkpt>
<trkpt lat="48.8608996" lon="2.8935931">
<ele>50.42</ele>
<time>2020-09-06T10:44:47Z</time>
</trkpt>
<trkpt lat="48.8609538" lon="2.8933031">
<ele>49.58</ele>
<time>2020-09-06T10:44:51Z</time>
</trkpt>
<trkpt lat="48.8610167" lon="2.8930189">
<ele>50.76</ele>
<time>2020-09-06T10:44:55Z</time>
</trkpt>
<trkpt lat="48.8610837" lon="2.8926928">
<ele>51.51</ele>
<time>2020-09-06T10:45:00Z</time>
</trkpt>
<trkpt lat="48.8611483" lon="2.8924024">
<ele>50.22</ele>
<time>2020-09-06T10:45:05Z</time>
</trkpt>
<trkpt lat="48.8611753" lon="2.8920956">
<ele>50.83</ele>
<time>2020-09-06T10:45:09Z</time>
</trkpt>
<trkpt lat="48.8612512" lon="2.8918164">
<ele>50.78</ele>
<time>2020-09-06T10:45:13Z</time>
</trkpt>
<trkpt lat="48.8613130" lon="2.8915236">
<ele>51.12</ele>
<time>2020-09-06T10:45:17Z</time>
</trkpt>
<trkpt lat="48.8613646" lon="2.8912269">
<ele>52.05</ele>
<time>2020-09-06T10:45:21Z</time>
</trkpt>
<trkpt lat="48.8614269" lon="2.8909550">
<ele>52.24</ele>
<time>2020-09-06T10:45:25Z</time>
</trkpt>
<trkpt lat="48.8614861" lon="2.8906709">
<ele>52.13</ele>
<time>2020-09-06T10:45:29Z</time>
</trkpt>
<trkpt lat="48.8615537" lon="2.8903799">
<ele>51.77</ele>
<time>2020-09-06T10:45:33Z</time>
</trkpt>
<trkpt lat="48.8616128" lon="2.8901061">
<ele>52.86</ele>
<time>2020-09-06T10:45:37Z</time>
</trkpt>
<trkpt lat="48.8616816" lon="2.8898361">
<ele>53.36</ele>
<time>2020-09-06T10:45:41Z</time>
</trkpt>
<trkpt lat="48.8617533" lon="2.8895232">
<ele>52.32</ele>
<time>2020-09-06T10:45:46Z</time>
</trkpt>
<trkpt lat="48.8618194" lon="2.8892556">
<ele>51.50</ele>
<time>2020-09-06T10:45:51Z</time>
</trkpt>
<trkpt lat="48.8618842" lon="2.8889812">
<ele>50.88</ele>
<time>2020-09-06T10:45:56Z</time>
</trkpt>
<trkpt lat="48.8619467" lon="2.8886719">
<ele>51.42</ele>
<time>2020-09-06T10:46:01Z</time>
</trkpt>
<trkpt lat="48.8620088" lon="2.8883825">
<ele>51.72</ele>
<time>2020-09-06T10:46:06Z</time>
</trkpt>
<trkpt lat="48.8620684" lon="2.8880785">
<ele>52.07</ele>
<time>2020-09-06T10:46:11Z</time>
</trkpt>
<trkpt lat="48.8621218" lon="2.8877806">
<ele>50.59</ele>
<time>2020-09-06T10:46:16Z</time>
</trkpt>
<trkpt lat="48.8621795" lon="2.8875075">
<ele>50.15</ele>
<time>2020-09-06T10:46:20Z</time>
</trkpt>
<trkpt lat="48.8622467" lon="2.8872262">
<ele>49.94</ele>
<time>2020-09-06T10:46:25Z</time>
</trkpt>
<trkpt lat="48.8623023" lon="2.8869267">
<ele>49.51</ele>
<time>2020-09-06T10:46:30Z</time>
</trkpt>
<trkpt lat="48.8623817" lon="2.8865992">
<ele>50.33</ele>
<time>2020-09-06T10:46:35Z</time>
</trkpt>
<trkpt lat="48.8624569" lon="2.8863237">
<ele>50.42</ele>
<time>2020-09-06T10:46:39Z</time>
</trkpt>
<trkpt lat="48.8625376" lon="2.8859734">
<ele>51.39</ele>
<time>2020-09-06T10:46:43Z</time>
</trkpt>
<trkpt lat="48.8626024" lon="2.8856975">
<ele>50.87</ele>
<time>2020-09-06T10:46:46Z</time>
</trkpt>
<trkpt lat="48.8626635" lon="2.8853566">
<ele>51.65</ele>
<time>2020-09-06T10:46:50Z</time>
</trkpt>
<trkpt lat="48.8627295" lon="2.8850648">
<ele>50.74</ele>
<time>2020-09-06T10:46:54Z</time>
</trkpt>
<trkpt lat="48.8627885" lon="2.8847805">
<ele>50.82</ele>
<time>2020-09-06T10:46:58Z</time>
</trkpt>
<trkpt lat="48.8628202" lon="2.8844981">
<ele>50.31</ele>
<time>2020-09-06T10:47:02Z</time>
</trkpt>
<trkpt lat="48.8629346" lon="2.8842113">
<ele>47.87</ele>
<time>2020-09-06T10:47:06Z</time>
</trkpt>
<trkpt lat="48.8630049" lon="2.8838787">
<ele>46.74</ele>
<time>2020-09-06T10:47:10Z</time>
</trkpt>
<trkpt lat="48.8630568" lon="2.8836047">
<ele>47.10</ele>
<time>2020-09-06T10:47:14Z</time>
</trkpt>
<trkpt lat="48.8630481" lon="2.8833215">
<ele>51.64</ele>
<time>2020-09-06T10:47:31Z</time>
</trkpt>
<trkpt lat="48.8628655" lon="2.8831762">
<ele>51.99</ele>
<time>2020-09-06T10:47:39Z</time>
</trkpt>
<trkpt lat="48.8628291" lon="2.8829036">
<ele>51.96</ele>
<time>2020-09-06T10:47:48Z</time>
</trkpt>
<trkpt lat="48.8630077" lon="2.8827138">
<ele>50.29</ele>
<time>2020-09-06T10:47:52Z</time>
</trkpt>
<trkpt lat="48.8631799" lon="2.8825676">
<ele>48.76</ele>
<time>2020-09-06T10:47:56Z</time>
</trkpt>
<trkpt lat="48.8633490" lon="2.8823942">
<ele>49.43</ele>
<time>2020-09-06T10:48:01Z</time>
</trkpt>
<trkpt lat="48.8634830" lon="2.8821983">
<ele>53.01</ele>
<time>2020-09-06T10:48:06Z</time>
</trkpt>
<trkpt lat="48.8636058" lon="2.8819869">
<ele>52.09</ele>
<time>2020-09-06T10:48:11Z</time>
</trkpt>
<trkpt lat="48.8637394" lon="2.8818007">
<ele>50.21</ele>
<time>2020-09-06T10:48:15Z</time>
</trkpt>
<trkpt lat="48.8638915" lon="2.8816321">
<ele>48.72</ele>
<time>2020-09-06T10:48:19Z</time>
</trkpt>
<trkpt lat="48.8640276" lon="2.8814420">
<ele>49.16</ele>
<time>2020-09-06T10:48:23Z</time>
</trkpt>
<trkpt lat="48.8641627" lon="2.8811901">
<ele>47.77</ele>
<time>2020-09-06T10:48:28Z</time>
</trkpt>
<trkpt lat="48.8642889" lon="2.8809498">
<ele>46.91</ele>
<time>2020-09-06T10:48:33Z</time>
</trkpt>
<trkpt lat="48.8644186" lon="2.8807148">
<ele>46.21</ele>
<time>2020-09-06T10:48:38Z</time>
</trkpt>
<trkpt lat="48.8645577" lon="2.8804830">
<ele>47.73</ele>
<time>2020-09-06T10:48:43Z</time>
</trkpt>
<trkpt lat="48.8646889" lon="2.8802359">
<ele>47.00</ele>
<time>2020-09-06T10:48:48Z</time>
</trkpt>
<trkpt lat="48.8648161" lon="2.8799980">
<ele>47.18</ele>
<time>2020-09-06T10:48:53Z</time>
</trkpt>
<trkpt lat="48.8649458" lon="2.8797783">
<ele>48.21</ele>
<time>2020-09-06T10:48:58Z</time>
</trkpt>
<trkpt lat="48.8650761" lon="2.8795691">
<ele>49.08</ele>
<time>2020-09-06T10:49:03Z</time>
</trkpt>
<trkpt lat="48.8651951" lon="2.8793321">
<ele>48.77</ele>
<time>2020-09-06T10:49:08Z</time>
</trkpt>
<trkpt lat="48.8653070" lon="2.8790931">
<ele>48.76</ele>
<time>2020-09-06T10:49:13Z</time>
</trkpt>
<trkpt lat="48.8654454" lon="2.8788760">
<ele>49.65</ele>
<time>2020-09-06T10:49:18Z</time>
</trkpt>
<trkpt lat="48.8655734" lon="2.8786702">
<ele>50.22</ele>
<time>2020-09-06T10:49:23Z</time>
</trkpt>
<trkpt lat="48.8656980" lon="2.8784149">
<ele>49.47</ele>
<time>2020-09-06T10:49:29Z</time>
</trkpt>
<trkpt lat="48.8658065" lon="2.8781709">
<ele>48.09</ele>
<time>2020-09-06T10:49:35Z</time>
</trkpt>
<trkpt lat="48.8659432" lon="2.8779643">
<ele>50.22</ele>
<time>2020-09-06T10:49:45Z</time>
</trkpt>
<trkpt lat="48.8660579" lon="2.8777121">
<ele>49.67</ele>
<time>2020-09-06T10:49:52Z</time>
</trkpt>
<trkpt lat="48.8661756" lon="2.8775020">
<ele>49.89</ele>
<time>2020-09-06T10:49:57Z</time>
</trkpt>
<trkpt lat="48.8663037" lon="2.8772426">
<ele>49.85</ele>
<time>2020-09-06T10:50:02Z</time>
</trkpt>
<trkpt lat="48.8664014" lon="2.8770065">
<ele>49.21</ele>
<time>2020-09-06T10:50:07Z</time>
</trkpt>
<trkpt lat="48.8665230" lon="2.8767325">
<ele>48.82</ele>
<time>2020-09-06T10:50:13Z</time>
</trkpt>
<trkpt lat="48.8666590" lon="2.8765067">
<ele>47.73</ele>
<time>2020-09-06T10:50:20Z</time>
</trkpt>
<trkpt lat="48.8667768" lon="2.8762856">
<ele>48.17</ele>
<time>2020-09-06T10:50:26Z</time>
</trkpt>
<trkpt lat="48.8668983" lon="2.8760407">
<ele>47.91</ele>
<time>2020-09-06T10:50:32Z</time>
</trkpt>
<trkpt lat="48.8670379" lon="2.8758280">
<ele>47.41</ele>
<time>2020-09-06T10:50:38Z</time>
</trkpt>
<trkpt lat="48.8671724" lon="2.8756050">
<ele>47.58</ele>
<time>2020-09-06T10:50:44Z</time>
</trkpt>
<trkpt lat="48.8672958" lon="2.8753646">
<ele>47.36</ele>
<time>2020-09-06T10:50:49Z</time>
</trkpt>
<trkpt lat="48.8674029" lon="2.8751234">
<ele>45.61</ele>
<time>2020-09-06T10:50:56Z</time>
</trkpt>
<trkpt lat="48.8675631" lon="2.8749858">
<ele>47.38</ele>
<time>2020-09-06T10:51:02Z</time>
</trkpt>
<trkpt lat="48.8677053" lon="2.8748126">
<ele>47.95</ele>
<time>2020-09-06T10:51:10Z</time>
</trkpt>
<trkpt lat="48.8678904" lon="2.8746484">
<ele>48.58</ele>
<time>2020-09-06T10:51:17Z</time>
</trkpt>
<trkpt lat="48.8680765" lon="2.8745044">
<ele>49.57</ele>
<time>2020-09-06T10:51:23Z</time>
</trkpt>
<trkpt lat="48.8682234" lon="2.8742969">
<ele>48.03</ele>
<time>2020-09-06T10:51:30Z</time>
</trkpt>
<trkpt lat="48.8683737" lon="2.8741030">
<ele>48.84</ele>
<time>2020-09-06T10:51:34Z</time>
</trkpt>
<trkpt lat="48.8685442" lon="2.8739189">
<ele>49.35</ele>
<time>2020-09-06T10:51:39Z</time>
</trkpt>
<trkpt lat="48.8687266" lon="2.8736957">
<ele>48.47</ele>
<time>2020-09-06T10:51:45Z</time>
</trkpt>
<trkpt lat="48.8688922" lon="2.8735133">
<ele>49.67</ele>
<time>2020-09-06T10:51:51Z</time>
</trkpt>
<trkpt lat="48.8690610" lon="2.8733450">
<ele>50.39</ele>
<time>2020-09-06T10:51:56Z</time>
</trkpt>
<trkpt lat="48.8692193" lon="2.8732115">
<ele>50.24</ele>
<time>2020-09-06T10:52:01Z</time>
</trkpt>
<trkpt lat="48.8693844" lon="2.8730602">
<ele>49.74</ele>
<time>2020-09-06T10:52:06Z</time>
</trkpt>
<trkpt lat="48.8695377" lon="2.8729048">
<ele>49.96</ele>
<time>2020-09-06T10:52:11Z</time>
</trkpt>
<trkpt lat="48.8696896" lon="2.8727566">
<ele>50.11</ele>
<time>2020-09-06T10:52:16Z</time>
</trkpt>
<trkpt lat="48.8698445" lon="2.8725843">
<ele>50.85</ele>
<time>2020-09-06T10:52:21Z</time>
</trkpt>
<trkpt lat="48.8700169" lon="2.8723980">
<ele>51.87</ele>
<time>2020-09-06T10:52:27Z</time>
</trkpt>
<trkpt lat="48.8701886" lon="2.8722023">
<ele>51.97</ele>
<time>2020-09-06T10:52:33Z</time>
</trkpt>
<trkpt lat="48.8703597" lon="2.8719984">
<ele>50.99</ele>
<time>2020-09-06T10:52:39Z</time>
</trkpt>
<trkpt lat="48.8705092" lon="2.8718130">
<ele>50.62</ele>
<time>2020-09-06T10:52:44Z</time>
</trkpt>
<trkpt lat="48.8706639" lon="2.8716413">
<ele>51.13</ele>
<time>2020-09-06T10:52:49Z</time>
</trkpt>
<trkpt lat="48.8708307" lon="2.8714803">
<ele>50.76</ele>
<time>2020-09-06T10:52:54Z</time>
</trkpt>
<trkpt lat="48.8709910" lon="2.8713040">
<ele>50.54</ele>
<time>2020-09-06T10:52:59Z</time>
</trkpt>
<trkpt lat="48.8711369" lon="2.8711087">
<ele>51.20</ele>
<time>2020-09-06T10:53:04Z</time>
</trkpt>
<trkpt lat="48.8712822" lon="2.8709213">
<ele>52.44</ele>
<time>2020-09-06T10:53:09Z</time>
</trkpt>
<trkpt lat="48.8714288" lon="2.8707139">
<ele>53.12</ele>
<time>2020-09-06T10:53:15Z</time>
</trkpt>
<trkpt lat="48.8715666" lon="2.8705159">
<ele>52.23</ele>
<time>2020-09-06T10:53:21Z</time>
</trkpt>
<trkpt lat="48.8716788" lon="2.8702907">
<ele>52.25</ele>
<time>2020-09-06T10:53:32Z</time>
</trkpt>
<trkpt lat="48.8715822" lon="2.8700354">
<ele>53.16</ele>
<time>2020-09-06T10:53:40Z</time>
</trkpt>
<trkpt lat="48.8714800" lon="2.8697776">
<ele>53.10</ele>
<time>2020-09-06T10:53:46Z</time>
</trkpt>
<trkpt lat="48.8714922" lon="2.8694570">
<ele>50.53</ele>
<time>2020-09-06T10:53:52Z</time>
</trkpt>
<trkpt lat="48.8716520" lon="2.8692712">
<ele>49.70</ele>
<time>2020-09-06T10:53:57Z</time>
</trkpt>
<trkpt lat="48.8717959" lon="2.8690905">
<ele>48.63</ele>
<time>2020-09-06T10:54:01Z</time>
</trkpt>
<trkpt lat="48.8719625" lon="2.8688890">
<ele>48.12</ele>
<time>2020-09-06T10:54:06Z</time>
</trkpt>
<trkpt lat="48.8721310" lon="2.8687110">
<ele>47.97</ele>
<time>2020-09-06T10:54:11Z</time>
</trkpt>
<trkpt lat="48.8722772" lon="2.8684962">
<ele>48.19</ele>
<time>2020-09-06T10:54:16Z</time>
</trkpt>
<trkpt lat="48.8724330" lon="2.8682813">
<ele>47.93</ele>
<time>2020-09-06T10:54:21Z</time>
</trkpt>
<trkpt lat="48.8725687" lon="2.8680921">
<ele>48.29</ele>
<time>2020-09-06T10:54:26Z</time>
</trkpt>
<trkpt lat="48.8727324" lon="2.8679480">
<ele>49.60</ele>
<time>2020-09-06T10:54:32Z</time>
</trkpt>
<trkpt lat="48.8729145" lon="2.8678709">
<ele>49.66</ele>
<time>2020-09-06T10:54:39Z</time>
</trkpt>
<trkpt lat="48.8730108" lon="2.8676154">
<ele>49.42</ele>
<time>2020-09-06T10:54:46Z</time>
</trkpt>
<trkpt lat="48.8730448" lon="2.8673406">
<ele>49.81</ele>
<time>2020-09-06T10:54:52Z</time>
</trkpt>
<trkpt lat="48.8731270" lon="2.8670683">
<ele>50.24</ele>
<time>2020-09-06T10:54:58Z</time>
</trkpt>
<trkpt lat="48.8731875" lon="2.8667648">
<ele>49.41</ele>
<time>2020-09-06T10:55:05Z</time>
</trkpt>
<trkpt lat="48.8732685" lon="2.8665001">
<ele>48.64</ele>
<time>2020-09-06T10:55:10Z</time>
</trkpt>
<trkpt lat="48.8734166" lon="2.8663051">
<ele>45.21</ele>
<time>2020-09-06T10:55:15Z</time>
</trkpt>
<trkpt lat="48.8736191" lon="2.8662958">
<ele>48.21</ele>
<time>2020-09-06T10:55:21Z</time>
</trkpt>
<trkpt lat="48.8738266" lon="2.8663436">
<ele>48.42</ele>
<time>2020-09-06T10:55:26Z</time>
</trkpt>
<trkpt lat="48.8740221" lon="2.8662729">
<ele>49.44</ele>
<time>2020-09-06T10:55:31Z</time>
</trkpt>
<trkpt lat="48.8742158" lon="2.8661668">
<ele>49.02</ele>
<time>2020-09-06T10:55:36Z</time>
</trkpt>
<trkpt lat="48.8744182" lon="2.8660740">
<ele>48.74</ele>
<time>2020-09-06T10:55:41Z</time>
</trkpt>
<trkpt lat="48.8746257" lon="2.8660499">
<ele>49.09</ele>
<time>2020-09-06T10:55:46Z</time>
</trkpt>
<trkpt lat="48.8748364" lon="2.8660520">
<ele>49.46</ele>
<time>2020-09-06T10:55:51Z</time>
</trkpt>
<trkpt lat="48.8750159" lon="2.8661336">
<ele>49.19</ele>
<time>2020-09-06T10:55:56Z</time>
</trkpt>
<trkpt lat="48.8751759" lon="2.8662784">
<ele>50.27</ele>
<time>2020-09-06T10:56:01Z</time>
</trkpt>
<trkpt lat="48.8753363" lon="2.8664066">
<ele>49.78</ele>
<time>2020-09-06T10:56:06Z</time>
</trkpt>
<trkpt lat="48.8755371" lon="2.8663077">
<ele>50.09</ele>
<time>2020-09-06T10:56:12Z</time>
</trkpt>
<trkpt lat="48.8756891" lon="2.8660644">
<ele>48.55</ele>
<time>2020-09-06T10:56:17Z</time>
</trkpt>
<trkpt lat="48.8758604" lon="2.8658476">
<ele>48.33</ele>
<time>2020-09-06T10:56:22Z</time>
</trkpt>
<trkpt lat="48.8760139" lon="2.8656440">
<ele>50.04</ele>
<time>2020-09-06T10:56:27Z</time>
</trkpt>
<trkpt lat="48.8761441" lon="2.8654538">
<ele>49.35</ele>
<time>2020-09-06T10:56:32Z</time>
</trkpt>
<trkpt lat="48.8762772" lon="2.8652583">
<ele>47.24</ele>
<time>2020-09-06T10:56:37Z</time>
</trkpt>
<trkpt lat="48.8764151" lon="2.8650819">
<ele>47.29</ele>
<time>2020-09-06T10:56:42Z</time>
</trkpt>
<trkpt lat="48.8765587" lon="2.8648707">
<ele>50.45</ele>
<time>2020-09-06T10:56:47Z</time>
</trkpt>
<trkpt lat="48.8766940" lon="2.8646638">
<ele>48.81</ele>
<time>2020-09-06T10:56:52Z</time>
</trkpt>
<trkpt lat="48.8768585" lon="2.8644300">
<ele>48.36</ele>
<time>2020-09-06T10:56:57Z</time>
</trkpt>
<trkpt lat="48.8769865" lon="2.8642332">
<ele>49.25</ele>
<time>2020-09-06T10:57:01Z</time>
</trkpt>
<trkpt lat="48.8771152" lon="2.8640391">
<ele>49.56</ele>
<time>2020-09-06T10:57:06Z</time>
</trkpt>
<trkpt lat="48.8772822" lon="2.8638663">
<ele>47.99</ele>
<time>2020-09-06T10:57:12Z</time>
</trkpt>
<trkpt lat="48.8774206" lon="2.8636630">
<ele>47.07</ele>
<time>2020-09-06T10:57:19Z</time>
</trkpt>
<trkpt lat="48.8773332" lon="2.8633779">
<ele>48.10</ele>
<time>2020-09-06T10:57:26Z</time>
</trkpt>
<trkpt lat="48.8773877" lon="2.8630670">
<ele>47.69</ele>
<time>2020-09-06T10:57:32Z</time>
</trkpt>
<trkpt lat="48.8775112" lon="2.8628253">
<ele>48.75</ele>
<time>2020-09-06T10:57:38Z</time>
</trkpt>
<trkpt lat="48.8776337" lon="2.8625929">
<ele>49.27</ele>
<time>2020-09-06T10:57:43Z</time>
</trkpt>
<trkpt lat="48.8777607" lon="2.8623334">
<ele>50.96</ele>
<time>2020-09-06T10:57:48Z</time>
</trkpt>
<trkpt lat="48.8778889" lon="2.8621126">
<ele>49.95</ele>
<time>2020-09-06T10:57:53Z</time>
</trkpt>
<trkpt lat="48.8780261" lon="2.8618945">
<ele>50.17</ele>
<time>2020-09-06T10:57:58Z</time>
</trkpt>
<trkpt lat="48.8781731" lon="2.8616907">
<ele>53.03</ele>
<time>2020-09-06T10:58:04Z</time>
</trkpt>
<trkpt lat="48.8783171" lon="2.8615135">
<ele>56.27</ele>
<time>2020-09-06T10:58:10Z</time>
</trkpt>
<trkpt lat="48.8784819" lon="2.8613460">
<ele>55.73</ele>
<time>2020-09-06T10:58:16Z</time>
</trkpt>
<trkpt lat="48.8786382" lon="2.8611838">
<ele>55.17</ele>
<time>2020-09-06T10:58:21Z</time>
</trkpt>
<trkpt lat="48.8788094" lon="2.8610421">
<ele>57.19</ele>
<time>2020-09-06T10:58:26Z</time>
</trkpt>
<trkpt lat="48.8789800" lon="2.8608939">
<ele>57.32</ele>
<time>2020-09-06T10:58:31Z</time>
</trkpt>
<trkpt lat="48.8791602" lon="2.8607475">
<ele>57.33</ele>
<time>2020-09-06T10:58:36Z</time>
</trkpt>
<trkpt lat="48.8793321" lon="2.8606110">
<ele>56.19</ele>
<time>2020-09-06T10:58:41Z</time>
</trkpt>
<trkpt lat="48.8795096" lon="2.8604800">
<ele>56.06</ele>
<time>2020-09-06T10:58:46Z</time>
</trkpt>
<trkpt lat="48.8796917" lon="2.8603423">
<ele>54.93</ele>
<time>2020-09-06T10:58:52Z</time>
</trkpt>
<trkpt lat="48.8798975" lon="2.8602556">
<ele>51.59</ele>
<time>2020-09-06T10:58:57Z</time>
</trkpt>
<trkpt lat="48.8800956" lon="2.8601845">
<ele>50.72</ele>
<time>2020-09-06T10:59:02Z</time>
</trkpt>
<trkpt lat="48.8802807" lon="2.8601041">
<ele>50.27</ele>
<time>2020-09-06T10:59:07Z</time>
</trkpt>
<trkpt lat="48.8804810" lon="2.8600492">
<ele>49.10</ele>
<time>2020-09-06T10:59:12Z</time>
</trkpt>
<trkpt lat="48.8806842" lon="2.8599944">
<ele>49.11</ele>
<time>2020-09-06T10:59:17Z</time>
</trkpt>
<trkpt lat="48.8808741" lon="2.8599392">
<ele>48.88</ele>
<time>2020-09-06T10:59:22Z</time>
</trkpt>
<trkpt lat="48.8810633" lon="2.8598959">
<ele>48.79</ele>
<time>2020-09-06T10:59:27Z</time>
</trkpt>
<trkpt lat="48.8812477" lon="2.8598383">
<ele>48.08</ele>
<time>2020-09-06T10:59:32Z</time>
</trkpt>
<trkpt lat="48.8814246" lon="2.8597521">
<ele>47.91</ele>
<time>2020-09-06T10:59:38Z</time>
</trkpt>
<trkpt lat="48.8816029" lon="2.8596489">
<ele>48.18</ele>
<time>2020-09-06T10:59:43Z</time>
</trkpt>
<trkpt lat="48.8817999" lon="2.8595489">
<ele>47.51</ele>
<time>2020-09-06T10:59:48Z</time>
</trkpt>
<trkpt lat="48.8819593" lon="2.8593435">
<ele>47.68</ele>
<time>2020-09-06T10:59:53Z</time>
</trkpt>
<trkpt lat="48.8820865" lon="2.8591188">
<ele>47.89</ele>
<time>2020-09-06T10:59:58Z</time>
</trkpt>
<trkpt lat="48.8822181" lon="2.8588852">
<ele>48.17</ele>
<time>2020-09-06T11:00:05Z</time>
</trkpt>
<trkpt lat="48.8823618" lon="2.8586547">
<ele>48.48</ele>
<time>2020-09-06T11:00:10Z</time>
</trkpt>
<trkpt lat="48.8825008" lon="2.8584516">
<ele>49.44</ele>
<time>2020-09-06T11:00:15Z</time>
</trkpt>
<trkpt lat="48.8826218" lon="2.8582401">
<ele>50.45</ele>
<time>2020-09-06T11:00:20Z</time>
</trkpt>
<trkpt lat="48.8828067" lon="2.8580876">
<ele>50.95</ele>
<time>2020-09-06T11:00:25Z</time>
</trkpt>
<trkpt lat="48.8829863" lon="2.8579457">
<ele>49.82</ele>
<time>2020-09-06T11:00:30Z</time>
</trkpt>
<trkpt lat="48.8831622" lon="2.8578142">
<ele>49.66</ele>
<time>2020-09-06T11:00:35Z</time>
</trkpt>
<trkpt lat="48.8833303" lon="2.8576820">
<ele>49.11</ele>
<time>2020-09-06T11:00:40Z</time>
</trkpt>
<trkpt lat="48.8835002" lon="2.8575534">
<ele>48.94</ele>
<time>2020-09-06T11:00:45Z</time>
</trkpt>
<trkpt lat="48.8836855" lon="2.8574441">
<ele>47.49</ele>
<time>2020-09-06T11:00:51Z</time>
</trkpt>
<trkpt lat="48.8838812" lon="2.8573108">
<ele>47.07</ele>
<time>2020-09-06T11:00:57Z</time>
</trkpt>
<trkpt lat="48.8840580" lon="2.8571801">
<ele>46.27</ele>
<time>2020-09-06T11:01:05Z</time>
</trkpt>
<trkpt lat="48.8840601" lon="2.8568856">
<ele>49.19</ele>
<time>2020-09-06T11:01:19Z</time>
</trkpt>
<trkpt lat="48.8840237" lon="2.8566004">
<ele>52.11</ele>
<time>2020-09-06T11:01:27Z</time>
</trkpt>
<trkpt lat="48.8839883" lon="2.8562855">
<ele>51.22</ele>
<time>2020-09-06T11:01:34Z</time>
</trkpt>
<trkpt lat="48.8839361" lon="2.8559809">
<ele>49.34</ele>
<time>2020-09-06T11:01:40Z</time>
</trkpt>
<trkpt lat="48.8839679" lon="2.8557058">
<ele>48.74</ele>
<time>2020-09-06T11:01:46Z</time>
</trkpt>
<trkpt lat="48.8840071" lon="2.8554080">
<ele>48.63</ele>
<time>2020-09-06T11:01:54Z</time>
</trkpt>
<trkpt lat="48.8839967" lon="2.8551144">
<ele>49.91</ele>
<time>2020-09-06T11:02:01Z</time>
</trkpt>
<trkpt lat="48.8839687" lon="2.8548263">
<ele>50.93</ele>
<time>2020-09-06T11:02:09Z</time>
</trkpt>
<trkpt lat="48.8838814" lon="2.8545577">
<ele>51.96</ele>
<time>2020-09-06T11:02:17Z</time>
</trkpt>
<trkpt lat="48.8837938" lon="2.8543043">
<ele>52.24</ele>
<time>2020-09-06T11:02:23Z</time>
</trkpt>
<trkpt lat="48.8837123" lon="2.8540394">
<ele>51.13</ele>
<time>2020-09-06T11:02:29Z</time>
</trkpt>
<trkpt lat="48.8835468" lon="2.8538959">
<ele>49.78</ele>
<time>2020-09-06T11:02:37Z</time>
</trkpt>
<trkpt lat="48.8833866" lon="2.8540229">
<ele>49.14</ele>
<time>2020-09-06T11:02:41Z</time>
</trkpt>
<trkpt lat="48.8832000" lon="2.8541763">
<ele>49.74</ele>
<time>2020-09-06T11:02:46Z</time>
</trkpt>
<trkpt lat="48.8830280" lon="2.8543588">
<ele>48.88</ele>
<time>2020-09-06T11:02:52Z</time>
</trkpt>
<trkpt lat="48.8828710" lon="2.8545502">
<ele>48.85</ele>
<time>2020-09-06T11:02:57Z</time>
</trkpt>
<trkpt lat="48.8826793" lon="2.8546778">
<ele>49.00</ele>
<time>2020-09-06T11:03:02Z</time>
</trkpt>
<trkpt lat="48.8824854" lon="2.8547749">
<ele>49.44</ele>
<time>2020-09-06T11:03:07Z</time>
</trkpt>
<trkpt lat="48.8822992" lon="2.8548968">
<ele>49.91</ele>
<time>2020-09-06T11:03:12Z</time>
</trkpt>
<trkpt lat="48.8821274" lon="2.8550274">
<ele>49.80</ele>
<time>2020-09-06T11:03:17Z</time>
</trkpt>
<trkpt lat="48.8819589" lon="2.8551401">
<ele>48.04</ele>
<time>2020-09-06T11:03:22Z</time>
</trkpt>
<trkpt lat="48.8817953" lon="2.8552587">
<ele>49.01</ele>
<time>2020-09-06T11:03:27Z</time>
</trkpt>
<trkpt lat="48.8816369" lon="2.8554125">
<ele>48.44</ele>
<time>2020-09-06T11:03:32Z</time>
</trkpt>
<trkpt lat="48.8814692" lon="2.8555449">
<ele>46.88</ele>
<time>2020-09-06T11:03:37Z</time>
</trkpt>
<trkpt lat="48.8812800" lon="2.8556215">
<ele>46.78</ele>
<time>2020-09-06T11:03:42Z</time>
</trkpt>
<trkpt lat="48.8810826" lon="2.8557240">
<ele>47.04</ele>
<time>2020-09-06T11:03:47Z</time>
</trkpt>
<trkpt lat="48.8809037" lon="2.8558388">
<ele>47.34</ele>
<time>2020-09-06T11:03:52Z</time>
</trkpt>
<trkpt lat="48.8807313" lon="2.8559678">
<ele>47.30</ele>
<time>2020-09-06T11:03:57Z</time>
</trkpt>
<trkpt lat="48.8805662" lon="2.8561261">
<ele>46.82</ele>
<time>2020-09-06T11:04:02Z</time>
</trkpt>
<trkpt lat="48.8803950" lon="2.8562785">
<ele>47.13</ele>
<time>2020-09-06T11:04:07Z</time>
</trkpt>
<trkpt lat="48.8801977" lon="2.8563496">
<ele>47.72</ele>
<time>2020-09-06T11:04:13Z</time>
</trkpt>
<trkpt lat="48.8801011" lon="2.8560949">
<ele>47.81</ele>
<time>2020-09-06T11:04:19Z</time>
</trkpt>
<trkpt lat="48.8801163" lon="2.8558141">
<ele>47.52</ele>
<time>2020-09-06T11:04:25Z</time>
</trkpt>
<trkpt lat="48.8802380" lon="2.8555729">
<ele>46.44</ele>
<time>2020-09-06T11:04:31Z</time>
</trkpt>
<trkpt lat="48.8803681" lon="2.8553381">
<ele>46.32</ele>
<time>2020-09-06T11:04:36Z</time>
</trkpt>
<trkpt lat="48.8804890" lon="2.8551147">
<ele>46.64</ele>
<time>2020-09-06T11:04:41Z</time>
</trkpt>
<trkpt lat="48.8805032" lon="2.8548152">
<ele>47.84</ele>
<time>2020-09-06T11:04:49Z</time>
</trkpt>
<trkpt lat="48.8803567" lon="2.8546479">
<ele>47.59</ele>
<time>2020-09-06T11:04:55Z</time>
</trkpt>
<trkpt lat="48.8801926" lon="2.8544862">
<ele>47.21</ele>
<time>2020-09-06T11:05:01Z</time>
</trkpt>
<trkpt lat="48.8800297" lon="2.8543238">
<ele>47.98</ele>
<time>2020-09-06T11:05:07Z</time>
</trkpt>
<trkpt lat="48.8798569" lon="2.8541756">
<ele>48.34</ele>
<time>2020-09-06T11:05:13Z</time>
</trkpt>
<trkpt lat="48.8796877" lon="2.8540531">
<ele>49.80</ele>
<time>2020-09-06T11:05:24Z</time>
</trkpt>
<trkpt lat="48.8794758" lon="2.8540297">
<ele>50.31</ele>
<time>2020-09-06T11:05:31Z</time>
</trkpt>
<trkpt lat="48.8792674" lon="2.8539848">
<ele>50.65</ele>
<time>2020-09-06T11:05:37Z</time>
</trkpt>
<trkpt lat="48.8790720" lon="2.8539283">
<ele>50.96</ele>
<time>2020-09-06T11:05:43Z</time>
</trkpt>
<trkpt lat="48.8788904" lon="2.8539069">
<ele>51.89</ele>
<time>2020-09-06T11:05:49Z</time>
</trkpt>
<trkpt lat="48.8787028" lon="2.8539074">
<ele>52.62</ele>
<time>2020-09-06T11:05:55Z</time>
</trkpt>
<trkpt lat="48.8785038" lon="2.8539105">
<ele>53.12</ele>
<time>2020-09-06T11:06:02Z</time>
</trkpt>
<trkpt lat="48.8783222" lon="2.8539271">
<ele>52.70</ele>
<time>2020-09-06T11:06:09Z</time>
</trkpt>
<trkpt lat="48.8781320" lon="2.8539246">
<ele>52.23</ele>
<time>2020-09-06T11:06:17Z</time>
</trkpt>
<trkpt lat="48.8779455" lon="2.8539604">
<ele>52.45</ele>
<time>2020-09-06T11:06:26Z</time>
</trkpt>
<trkpt lat="48.8777586" lon="2.8539853">
<ele>52.56</ele>
<time>2020-09-06T11:06:34Z</time>
</trkpt>
<trkpt lat="48.8775759" lon="2.8540392">
<ele>53.52</ele>
<time>2020-09-06T11:06:42Z</time>
</trkpt>
<trkpt lat="48.8773896" lon="2.8540975">
<ele>53.70</ele>
<time>2020-09-06T11:06:50Z</time>
</trkpt>
<trkpt lat="48.8772135" lon="2.8541860">
<ele>54.46</ele>
<time>2020-09-06T11:06:59Z</time>
</trkpt>
<trkpt lat="48.8770469" lon="2.8543268">
<ele>55.72</ele>
<time>2020-09-06T11:07:05Z</time>
</trkpt>
<trkpt lat="48.8768909" lon="2.8544831">
<ele>57.95</ele>
<time>2020-09-06T11:07:11Z</time>
</trkpt>
<trkpt lat="48.8767217" lon="2.8546539">
<ele>60.60</ele>
<time>2020-09-06T11:07:16Z</time>
</trkpt>
<trkpt lat="48.8765438" lon="2.8548290">
<ele>62.72</ele>
<time>2020-09-06T11:07:21Z</time>
</trkpt>
<trkpt lat="48.8763843" lon="2.8549969">
<ele>64.45</ele>
<time>2020-09-06T11:07:26Z</time>
</trkpt>
<trkpt lat="48.8762243" lon="2.8551606">
<ele>66.11</ele>
<time>2020-09-06T11:07:30Z</time>
</trkpt>
<trkpt lat="48.8760508" lon="2.8553156">
<ele>69.33</ele>
<time>2020-09-06T11:07:35Z</time>
</trkpt>
<trkpt lat="48.8758895" lon="2.8554571">
<ele>72.94</ele>
<time>2020-09-06T11:07:39Z</time>
</trkpt>
<trkpt lat="48.8757251" lon="2.8555868">
<ele>74.69</ele>
<time>2020-09-06T11:07:43Z</time>
</trkpt>
<trkpt lat="48.8755319" lon="2.8557253">
<ele>77.87</ele>
<time>2020-09-06T11:07:48Z</time>
</trkpt>
<trkpt lat="48.8753586" lon="2.8558227">
<ele>78.20</ele>
<time>2020-09-06T11:07:54Z</time>
</trkpt>
<trkpt lat="48.8751900" lon="2.8559679">
<ele>80.45</ele>
<time>2020-09-06T11:08:02Z</time>
</trkpt>
<trkpt lat="48.8750072" lon="2.8561039">
<ele>80.99</ele>
<time>2020-09-06T11:08:07Z</time>
</trkpt>
<trkpt lat="48.8748479" lon="2.8562810">
<ele>83.32</ele>
<time>2020-09-06T11:08:11Z</time>
</trkpt>
<trkpt lat="48.8746855" lon="2.8564699">
<ele>86.93</ele>
<time>2020-09-06T11:08:17Z</time>
</trkpt>
<trkpt lat="48.8745474" lon="2.8566538">
<ele>88.82</ele>
<time>2020-09-06T11:08:22Z</time>
</trkpt>
<trkpt lat="48.8744143" lon="2.8568466">
<ele>86.96</ele>
<time>2020-09-06T11:08:31Z</time>
</trkpt>
<trkpt lat="48.8742766" lon="2.8570412">
<ele>88.07</ele>
<time>2020-09-06T11:08:39Z</time>
</trkpt>
<trkpt lat="48.8741061" lon="2.8572347">
<ele>88.46</ele>
<time>2020-09-06T11:08:46Z</time>
</trkpt>
<trkpt lat="48.8739560" lon="2.8574196">
<ele>87.41</ele>
<time>2020-09-06T11:08:52Z</time>
</trkpt>
<trkpt lat="48.8737932" lon="2.8575710">
<ele>87.40</ele>
<time>2020-09-06T11:08:58Z</time>
</trkpt>
<trkpt lat="48.8735999" lon="2.8576080">
<ele>88.21</ele>
<time>2020-09-06T11:09:04Z</time>
</trkpt>
<trkpt lat="48.8734227" lon="2.8575555">
<ele>88.63</ele>
<time>2020-09-06T11:09:07Z</time>
</trkpt>
<trkpt lat="48.8732379" lon="2.8574394">
<ele>89.04</ele>
<time>2020-09-06T11:09:11Z</time>
</trkpt>
<trkpt lat="48.8730926" lon="2.8572712">
<ele>88.75</ele>
<time>2020-09-06T11:09:15Z</time>
</trkpt>
<trkpt lat="48.8729204" lon="2.8570812">
<ele>89.32</ele>
<time>2020-09-06T11:09:20Z</time>
</trkpt>
<trkpt lat="48.8727698" lon="2.8569199">
<ele>89.06</ele>
<time>2020-09-06T11:09:25Z</time>
</trkpt>
<trkpt lat="48.8725615" lon="2.8567511">
<ele>88.58</ele>
<time>2020-09-06T11:09:29Z</time>
</trkpt>
<trkpt lat="48.8723646" lon="2.8565889">
<ele>91.32</ele>
<time>2020-09-06T11:09:34Z</time>
</trkpt>
<trkpt lat="48.8721969" lon="2.8564396">
<ele>90.05</ele>
<time>2020-09-06T11:09:38Z</time>
</trkpt>
<trkpt lat="48.8720008" lon="2.8563384">
<ele>91.91</ele>
<time>2020-09-06T11:09:42Z</time>
</trkpt>
<trkpt lat="48.8718322" lon="2.8562311">
<ele>91.32</ele>
<time>2020-09-06T11:09:46Z</time>
</trkpt>
<trkpt lat="48.8716485" lon="2.8561067">
<ele>93.10</ele>
<time>2020-09-06T11:09:50Z</time>
</trkpt>
<trkpt lat="48.8714707" lon="2.8559320">
<ele>95.41</ele>
<time>2020-09-06T11:09:55Z</time>
</trkpt>
<trkpt lat="48.8712805" lon="2.8558339">
<ele>95.57</ele>
<time>2020-09-06T11:09:59Z</time>
</trkpt>
<trkpt lat="48.8710846" lon="2.8557108">
<ele>95.37</ele>
<time>2020-09-06T11:10:04Z</time>
</trkpt>
<trkpt lat="48.8708725" lon="2.8556003">
<ele>96.57</ele>
<time>2020-09-06T11:10:09Z</time>
</trkpt>
<trkpt lat="48.8707527" lon="2.8553827">
<ele>101.57</ele>
<time>2020-09-06T11:10:15Z</time>
</trkpt>
<trkpt lat="48.8708450" lon="2.8550951">
<ele>102.63</ele>
<time>2020-09-06T11:10:20Z</time>
</trkpt>
<trkpt lat="48.8709303" lon="2.8548337">
<ele>103.15</ele>
<time>2020-09-06T11:10:24Z</time>
</trkpt>
<trkpt lat="48.8710269" lon="2.8545531">
<ele>103.96</ele>
<time>2020-09-06T11:10:29Z</time>
</trkpt>
<trkpt lat="48.8711147" lon="2.8542782">
<ele>104.45</ele>
<time>2020-09-06T11:10:33Z</time>
</trkpt>
<trkpt lat="48.8711978" lon="2.8540273">
<ele>103.92</ele>
<time>2020-09-06T11:10:37Z</time>
</trkpt>
<trkpt lat="48.8712975" lon="2.8537610">
<ele>103.18</ele>
<time>2020-09-06T11:10:41Z</time>
</trkpt>
<trkpt lat="48.8713878" lon="2.8534748">
<ele>102.78</ele>
<time>2020-09-06T11:10:46Z</time>
</trkpt>
<trkpt lat="48.8714659" lon="2.8531563">
<ele>102.37</ele>
<time>2020-09-06T11:10:53Z</time>
</trkpt>
<trkpt lat="48.8715185" lon="2.8528722">
<ele>102.31</ele>
<time>2020-09-06T11:10:57Z</time>
</trkpt>
<trkpt lat="48.8715913" lon="2.8525570">
<ele>102.91</ele>
<time>2020-09-06T11:11:02Z</time>
</trkpt>
<trkpt lat="48.8716559" lon="2.8522771">
<ele>102.69</ele>
<time>2020-09-06T11:11:06Z</time>
</trkpt>
<trkpt lat="48.8717143" lon="2.8519671">
<ele>102.83</ele>
<time>2020-09-06T11:11:10Z</time>
</trkpt>
<trkpt lat="48.8717830" lon="2.8516483">
<ele>102.42</ele>
<time>2020-09-06T11:11:14Z</time>
</trkpt>
<trkpt lat="48.8718490" lon="2.8513401">
<ele>101.78</ele>
<time>2020-09-06T11:11:18Z</time>
</trkpt>
<trkpt lat="48.8719135" lon="2.8510435">
<ele>101.82</ele>
<time>2020-09-06T11:11:22Z</time>
</trkpt>
<trkpt lat="48.8719880" lon="2.8507804">
<ele>101.08</ele>
<time>2020-09-06T11:11:26Z</time>
</trkpt>
<trkpt lat="48.8720379" lon="2.8504822">
<ele>100.19</ele>
<time>2020-09-06T11:11:30Z</time>
</trkpt>
<trkpt lat="48.8720827" lon="2.8501805">
<ele>100.10</ele>
<time>2020-09-06T11:11:34Z</time>
</trkpt>
<trkpt lat="48.8721395" lon="2.8498421">
<ele>99.06</ele>
<time>2020-09-06T11:11:38Z</time>
</trkpt>
<trkpt lat="48.8721793" lon="2.8495700">
<ele>98.49</ele>
<time>2020-09-06T11:11:41Z</time>
</trkpt>
<trkpt lat="48.8722171" lon="2.8492881">
<ele>97.73</ele>
<time>2020-09-06T11:11:44Z</time>
</trkpt>
<trkpt lat="48.8722620" lon="2.8490071">
<ele>96.35</ele>
<time>2020-09-06T11:11:47Z</time>
</trkpt>
<trkpt lat="48.8723088" lon="2.8487297">
<ele>95.89</ele>
<time>2020-09-06T11:11:50Z</time>
</trkpt>
<trkpt lat="48.8723521" lon="2.8484642">
<ele>95.35</ele>
<time>2020-09-06T11:11:53Z</time>
</trkpt>
<trkpt lat="48.8724226" lon="2.8481251">
<ele>94.46</ele>
<time>2020-09-06T11:11:57Z</time>
</trkpt>
<trkpt lat="48.8724525" lon="2.8478173">
<ele>94.67</ele>
<time>2020-09-06T11:12:01Z</time>
</trkpt>
<trkpt lat="48.8724978" lon="2.8474931">
<ele>94.59</ele>
<time>2020-09-06T11:12:05Z</time>
</trkpt>
<trkpt lat="48.8725107" lon="2.8471718">
<ele>94.54</ele>
<time>2020-09-06T11:12:09Z</time>
</trkpt>
<trkpt lat="48.8724873" lon="2.8468842">
<ele>94.63</ele>
<time>2020-09-06T11:12:13Z</time>
</trkpt>
<trkpt lat="48.8725009" lon="2.8465911">
<ele>95.31</ele>
<time>2020-09-06T11:12:17Z</time>
</trkpt>
<trkpt lat="48.8725249" lon="2.8462960">
<ele>95.51</ele>
<time>2020-09-06T11:12:21Z</time>
</trkpt>
<trkpt lat="48.8725589" lon="2.8460123">
<ele>94.95</ele>
<time>2020-09-06T11:12:25Z</time>
</trkpt>
<trkpt lat="48.8726026" lon="2.8457196">
<ele>94.97</ele>
<time>2020-09-06T11:12:29Z</time>
</trkpt>
<trkpt lat="48.8726654" lon="2.8454273">
<ele>94.42</ele>
<time>2020-09-06T11:12:33Z</time>
</trkpt>
<trkpt lat="48.8727484" lon="2.8451556">
<ele>93.62</ele>
<time>2020-09-06T11:12:37Z</time>
</trkpt>
<trkpt lat="48.8728524" lon="2.8448411">
<ele>92.50</ele>
<time>2020-09-06T11:12:41Z</time>
</trkpt>
<trkpt lat="48.8729452" lon="2.8445955">
<ele>91.71</ele>
<time>2020-09-06T11:12:44Z</time>
</trkpt>
<trkpt lat="48.8730504" lon="2.8443468">
<ele>91.03</ele>
<time>2020-09-06T11:12:47Z</time>
</trkpt>
<trkpt lat="48.8731555" lon="2.8440816">
<ele>90.46</ele>
<time>2020-09-06T11:12:50Z</time>
</trkpt>
<trkpt lat="48.8732483" lon="2.8438387">
<ele>89.50</ele>
<time>2020-09-06T11:12:53Z</time>
</trkpt>
</trkseg>
</trk>
</gpx>
